<?xml version="1.0" encoding="UTF-8" standalone="no" ?>
<gpx xmlns="http://www.topografix.com/GPX/1/1" xmlns:xsi="http://www.w3.org/2001/XMLSchema-instance" xsi:schemaLocation="http://www.topografix.com/GPX/1/1 http://www.topografix.com/GPX/1/1/gpx.xsd" version="1.1" creator="VisuGPX - https://www.visugpx.com">
  <metadata>
    <name>Dimanche 15 mars 26 bis</name>
  </metadata>
  <trk>
    <name><![CDATA[urdax_Dimanche 15 mars 26 bis]]></name>
    <extensions>
      <line xmlns="http://www.topografix.com/GPX/gpx_style/0/2">
        <width>7</width>
      </line>
    </extensions>
    <trkseg>
      <trkpt lat="43.38641" lon="-1.6632">
        <ele>4</ele>
        <time>2026-03-09T04:52:09.000Z</time>
      </trkpt>
      <trkpt lat="43.38667" lon="-1.66322">
        <ele>1</ele>
        <time>2026-03-09T04:52:14.000Z</time>
      </trkpt>
      <trkpt lat="43.38667" lon="-1.66317">
        <ele>1</ele>
        <time>2026-03-09T04:52:14.000Z</time>
      </trkpt>
      <trkpt lat="43.38655" lon="-1.66312">
        <ele>1</ele>
        <time>2026-03-09T04:52:17.000Z</time>
      </trkpt>
      <trkpt lat="43.38635" lon="-1.66244">
        <ele>4</ele>
        <time>2026-03-09T04:52:26.000Z</time>
      </trkpt>
      <trkpt lat="43.38627" lon="-1.66231">
        <ele>4</ele>
        <time>2026-03-09T04:52:28.000Z</time>
      </trkpt>
      <trkpt lat="43.38612" lon="-1.66219">
        <ele>4</ele>
        <time>2026-03-09T04:52:31.000Z</time>
      </trkpt>
      <trkpt lat="43.38605" lon="-1.66219">
        <ele>4</ele>
        <time>2026-03-09T04:52:33.000Z</time>
      </trkpt>
      <trkpt lat="43.38599" lon="-1.66217">
        <ele>4</ele>
        <time>2026-03-09T04:52:34.000Z</time>
      </trkpt>
      <trkpt lat="43.38594" lon="-1.66211">
        <ele>4</ele>
        <time>2026-03-09T04:52:35.000Z</time>
      </trkpt>
      <trkpt lat="43.3859" lon="-1.66203">
        <ele>4</ele>
        <time>2026-03-09T04:52:36.000Z</time>
      </trkpt>
      <trkpt lat="43.38589" lon="-1.66194">
        <ele>4</ele>
        <time>2026-03-09T04:52:37.000Z</time>
      </trkpt>
      <trkpt lat="43.3859" lon="-1.66186">
        <ele>4</ele>
        <time>2026-03-09T04:52:38.000Z</time>
      </trkpt>
      <trkpt lat="43.38593" lon="-1.66178">
        <ele>4</ele>
        <time>2026-03-09T04:52:39.000Z</time>
      </trkpt>
      <trkpt lat="43.38603" lon="-1.6617">
        <ele>5</ele>
        <time>2026-03-09T04:52:42.000Z</time>
      </trkpt>
      <trkpt lat="43.3861" lon="-1.66135">
        <ele>6</ele>
        <time>2026-03-09T04:52:46.000Z</time>
      </trkpt>
      <trkpt lat="43.3861" lon="-1.66067">
        <ele>6</ele>
        <time>2026-03-09T04:52:55.000Z</time>
      </trkpt>
      <trkpt lat="43.38613" lon="-1.66037">
        <ele>6</ele>
        <time>2026-03-09T04:52:59.000Z</time>
      </trkpt>
      <trkpt lat="43.38618" lon="-1.66019">
        <ele>5</ele>
        <time>2026-03-09T04:53:01.000Z</time>
      </trkpt>
      <trkpt lat="43.38738" lon="-1.65672">
        <ele>9</ele>
        <time>2026-03-09T04:53:51.000Z</time>
      </trkpt>
      <trkpt lat="43.38716" lon="-1.65656">
        <ele>8</ele>
        <time>2026-03-09T04:53:56.000Z</time>
      </trkpt>
      <trkpt lat="43.38712" lon="-1.65655">
        <ele>8</ele>
        <time>2026-03-09T04:53:56.000Z</time>
      </trkpt>
      <trkpt lat="43.38702" lon="-1.6566">
        <ele>8</ele>
        <time>2026-03-09T04:53:58.000Z</time>
      </trkpt>
      <trkpt lat="43.38671" lon="-1.65626">
        <ele>6</ele>
        <time>2026-03-09T04:54:05.000Z</time>
      </trkpt>
      <trkpt lat="43.38622" lon="-1.65556">
        <ele>4</ele>
        <time>2026-03-09T04:54:18.000Z</time>
      </trkpt>
      <trkpt lat="43.38571" lon="-1.65489">
        <ele>4</ele>
        <time>2026-03-09T04:54:30.000Z</time>
      </trkpt>
      <trkpt lat="43.38484" lon="-1.65364">
        <ele>4</ele>
        <time>2026-03-09T04:54:53.000Z</time>
      </trkpt>
      <trkpt lat="43.38464" lon="-1.65325">
        <ele>6</ele>
        <time>2026-03-09T04:54:59.000Z</time>
      </trkpt>
      <trkpt lat="43.38456" lon="-1.65314">
        <ele>8</ele>
        <time>2026-03-09T04:55:01.000Z</time>
      </trkpt>
      <trkpt lat="43.38444" lon="-1.65302">
        <ele>10</ele>
        <time>2026-03-09T04:55:04.000Z</time>
      </trkpt>
      <trkpt lat="43.38417" lon="-1.65289">
        <ele>12</ele>
        <time>2026-03-09T04:55:09.000Z</time>
      </trkpt>
      <trkpt lat="43.38412" lon="-1.65283">
        <ele>13</ele>
        <time>2026-03-09T04:55:10.000Z</time>
      </trkpt>
      <trkpt lat="43.38402" lon="-1.65279">
        <ele>13</ele>
        <time>2026-03-09T04:55:12.000Z</time>
      </trkpt>
      <trkpt lat="43.38384" lon="-1.65266">
        <ele>13</ele>
        <time>2026-03-09T04:55:15.000Z</time>
      </trkpt>
      <trkpt lat="43.38366" lon="-1.65246">
        <ele>13</ele>
        <time>2026-03-09T04:55:19.000Z</time>
      </trkpt>
      <trkpt lat="43.38344" lon="-1.65206">
        <ele>12</ele>
        <time>2026-03-09T04:55:26.000Z</time>
      </trkpt>
      <trkpt lat="43.3833" lon="-1.6517">
        <ele>12</ele>
        <time>2026-03-09T04:55:31.000Z</time>
      </trkpt>
      <trkpt lat="43.38258" lon="-1.64969">
        <ele>8</ele>
        <time>2026-03-09T04:56:00.000Z</time>
      </trkpt>
      <trkpt lat="43.3825" lon="-1.64928">
        <ele>8</ele>
        <time>2026-03-09T04:56:06.000Z</time>
      </trkpt>
      <trkpt lat="43.38253" lon="-1.64877">
        <ele>9</ele>
        <time>2026-03-09T04:56:12.000Z</time>
      </trkpt>
      <trkpt lat="43.38279" lon="-1.6461">
        <ele>7</ele>
        <time>2026-03-09T04:56:47.000Z</time>
      </trkpt>
      <trkpt lat="43.38278" lon="-1.64507">
        <ele>10</ele>
        <time>2026-03-09T04:57:00.000Z</time>
      </trkpt>
      <trkpt lat="43.38272" lon="-1.64424">
        <ele>8</ele>
        <time>2026-03-09T04:57:11.000Z</time>
      </trkpt>
      <trkpt lat="43.38264" lon="-1.64383">
        <ele>7</ele>
        <time>2026-03-09T04:57:17.000Z</time>
      </trkpt>
      <trkpt lat="43.3825" lon="-1.64341">
        <ele>5</ele>
        <time>2026-03-09T04:57:23.000Z</time>
      </trkpt>
      <trkpt lat="43.38232" lon="-1.64309">
        <ele>5</ele>
        <time>2026-03-09T04:57:28.000Z</time>
      </trkpt>
      <trkpt lat="43.38212" lon="-1.64283">
        <ele>5</ele>
        <time>2026-03-09T04:57:33.000Z</time>
      </trkpt>
      <trkpt lat="43.38155" lon="-1.6423">
        <ele>6</ele>
        <time>2026-03-09T04:57:45.000Z</time>
      </trkpt>
      <trkpt lat="43.3812" lon="-1.64193">
        <ele>6</ele>
        <time>2026-03-09T04:57:53.000Z</time>
      </trkpt>
      <trkpt lat="43.38056" lon="-1.64058">
        <ele>9</ele>
        <time>2026-03-09T04:58:14.000Z</time>
      </trkpt>
      <trkpt lat="43.37906" lon="-1.63917">
        <ele>6</ele>
        <time>2026-03-09T04:58:46.000Z</time>
      </trkpt>
      <trkpt lat="43.37776" lon="-1.63786">
        <ele>8</ele>
        <time>2026-03-09T04:59:15.000Z</time>
      </trkpt>
      <trkpt lat="43.37759" lon="-1.63774">
        <ele>8</ele>
        <time>2026-03-09T04:59:18.000Z</time>
      </trkpt>
      <trkpt lat="43.37738" lon="-1.63772">
        <ele>8</ele>
        <time>2026-03-09T04:59:22.000Z</time>
      </trkpt>
      <trkpt lat="43.37642" lon="-1.63776">
        <ele>6</ele>
        <time>2026-03-09T04:59:39.000Z</time>
      </trkpt>
      <trkpt lat="43.37604" lon="-1.63785">
        <ele>6</ele>
        <time>2026-03-09T04:59:46.000Z</time>
      </trkpt>
      <trkpt lat="43.37541" lon="-1.63786">
        <ele>5</ele>
        <time>2026-03-09T04:59:57.000Z</time>
      </trkpt>
      <trkpt lat="43.37526" lon="-1.63781">
        <ele>5</ele>
        <time>2026-03-09T05:00:00.000Z</time>
      </trkpt>
      <trkpt lat="43.37517" lon="-1.6379">
        <ele>4</ele>
        <time>2026-03-09T05:00:02.000Z</time>
      </trkpt>
      <trkpt lat="43.3751" lon="-1.63791">
        <ele>4</ele>
        <time>2026-03-09T05:00:03.000Z</time>
      </trkpt>
      <trkpt lat="43.37445" lon="-1.63794">
        <ele>4</ele>
        <time>2026-03-09T05:00:15.000Z</time>
      </trkpt>
      <trkpt lat="43.37409" lon="-1.63788">
        <ele>4</ele>
        <time>2026-03-09T05:00:21.000Z</time>
      </trkpt>
      <trkpt lat="43.37111" lon="-1.63806">
        <ele>5</ele>
        <time>2026-03-09T05:01:14.000Z</time>
      </trkpt>
      <trkpt lat="43.37085" lon="-1.63801">
        <ele>6</ele>
        <time>2026-03-09T05:01:19.000Z</time>
      </trkpt>
      <trkpt lat="43.37063" lon="-1.63793">
        <ele>6</ele>
        <time>2026-03-09T05:01:23.000Z</time>
      </trkpt>
      <trkpt lat="43.36745" lon="-1.63592">
        <ele>7</ele>
        <time>2026-03-09T05:02:25.000Z</time>
      </trkpt>
      <trkpt lat="43.36707" lon="-1.63575">
        <ele>8</ele>
        <time>2026-03-09T05:02:32.000Z</time>
      </trkpt>
      <trkpt lat="43.36679" lon="-1.63572">
        <ele>8</ele>
        <time>2026-03-09T05:02:37.000Z</time>
      </trkpt>
      <trkpt lat="43.36639" lon="-1.63578">
        <ele>7</ele>
        <time>2026-03-09T05:02:44.000Z</time>
      </trkpt>
      <trkpt lat="43.36317" lon="-1.63673">
        <ele>7</ele>
        <time>2026-03-09T05:03:43.000Z</time>
      </trkpt>
      <trkpt lat="43.36273" lon="-1.63671">
        <ele>6</ele>
        <time>2026-03-09T05:03:51.000Z</time>
      </trkpt>
      <trkpt lat="43.36233" lon="-1.63654">
        <ele>6</ele>
        <time>2026-03-09T05:03:58.000Z</time>
      </trkpt>
      <trkpt lat="43.36111" lon="-1.63609">
        <ele>5</ele>
        <time>2026-03-09T05:04:21.000Z</time>
      </trkpt>
      <trkpt lat="43.36075" lon="-1.63589">
        <ele>5</ele>
        <time>2026-03-09T05:04:28.000Z</time>
      </trkpt>
      <trkpt lat="43.36061" lon="-1.63577">
        <ele>5</ele>
        <time>2026-03-09T05:04:31.000Z</time>
      </trkpt>
      <trkpt lat="43.36042" lon="-1.63555">
        <ele>6</ele>
        <time>2026-03-09T05:04:35.000Z</time>
      </trkpt>
      <trkpt lat="43.36029" lon="-1.63532">
        <ele>6</ele>
        <time>2026-03-09T05:04:39.000Z</time>
      </trkpt>
      <trkpt lat="43.36011" lon="-1.63495">
        <ele>6</ele>
        <time>2026-03-09T05:04:44.000Z</time>
      </trkpt>
      <trkpt lat="43.35991" lon="-1.63443">
        <ele>8</ele>
        <time>2026-03-09T05:04:52.000Z</time>
      </trkpt>
      <trkpt lat="43.35932" lon="-1.63351">
        <ele>9</ele>
        <time>2026-03-09T05:05:08.000Z</time>
      </trkpt>
      <trkpt lat="43.35827" lon="-1.63249">
        <ele>8</ele>
        <time>2026-03-09T05:05:31.000Z</time>
      </trkpt>
      <trkpt lat="43.35789" lon="-1.63219">
        <ele>9</ele>
        <time>2026-03-09T05:05:39.000Z</time>
      </trkpt>
      <trkpt lat="43.35749" lon="-1.63192">
        <ele>7</ele>
        <time>2026-03-09T05:05:47.000Z</time>
      </trkpt>
      <trkpt lat="43.35673" lon="-1.63163">
        <ele>6</ele>
        <time>2026-03-09T05:06:01.000Z</time>
      </trkpt>
      <trkpt lat="43.35667" lon="-1.63163">
        <ele>6</ele>
        <time>2026-03-09T05:06:02.000Z</time>
      </trkpt>
      <trkpt lat="43.35663" lon="-1.63166">
        <ele>6</ele>
        <time>2026-03-09T05:06:02.000Z</time>
      </trkpt>
      <trkpt lat="43.35657" lon="-1.63166">
        <ele>6</ele>
        <time>2026-03-09T05:06:04.000Z</time>
      </trkpt>
      <trkpt lat="43.35638" lon="-1.63154">
        <ele>6</ele>
        <time>2026-03-09T05:06:07.000Z</time>
      </trkpt>
      <trkpt lat="43.35403" lon="-1.63082">
        <ele>7</ele>
        <time>2026-03-09T05:06:50.000Z</time>
      </trkpt>
      <trkpt lat="43.35365" lon="-1.63059">
        <ele>7</ele>
        <time>2026-03-09T05:06:57.000Z</time>
      </trkpt>
      <trkpt lat="43.35332" lon="-1.63028">
        <ele>7</ele>
        <time>2026-03-09T05:07:05.000Z</time>
      </trkpt>
      <trkpt lat="43.35291" lon="-1.62977">
        <ele>6</ele>
        <time>2026-03-09T05:07:14.000Z</time>
      </trkpt>
      <trkpt lat="43.35279" lon="-1.62957">
        <ele>6</ele>
        <time>2026-03-09T05:07:18.000Z</time>
      </trkpt>
      <trkpt lat="43.35258" lon="-1.62906">
        <ele>6</ele>
        <time>2026-03-09T05:07:25.000Z</time>
      </trkpt>
      <trkpt lat="43.35207" lon="-1.62759">
        <ele>8</ele>
        <time>2026-03-09T05:07:46.000Z</time>
      </trkpt>
      <trkpt lat="43.35115" lon="-1.62529">
        <ele>11</ele>
        <time>2026-03-09T05:08:20.000Z</time>
      </trkpt>
      <trkpt lat="43.3511" lon="-1.62496">
        <ele>11</ele>
        <time>2026-03-09T05:08:25.000Z</time>
      </trkpt>
      <trkpt lat="43.35104" lon="-1.62447">
        <ele>11</ele>
        <time>2026-03-09T05:08:31.000Z</time>
      </trkpt>
      <trkpt lat="43.35104" lon="-1.62406">
        <ele>11</ele>
        <time>2026-03-09T05:08:36.000Z</time>
      </trkpt>
      <trkpt lat="43.35111" lon="-1.62332">
        <ele>11</ele>
        <time>2026-03-09T05:08:46.000Z</time>
      </trkpt>
      <trkpt lat="43.35116" lon="-1.62311">
        <ele>11</ele>
        <time>2026-03-09T05:08:49.000Z</time>
      </trkpt>
      <trkpt lat="43.35181" lon="-1.62184">
        <ele>11</ele>
        <time>2026-03-09T05:09:09.000Z</time>
      </trkpt>
      <trkpt lat="43.35201" lon="-1.62156">
        <ele>12</ele>
        <time>2026-03-09T05:09:14.000Z</time>
      </trkpt>
      <trkpt lat="43.3523" lon="-1.62131">
        <ele>13</ele>
        <time>2026-03-09T05:09:20.000Z</time>
      </trkpt>
      <trkpt lat="43.35298" lon="-1.62102">
        <ele>17</ele>
        <time>2026-03-09T05:09:33.000Z</time>
      </trkpt>
      <trkpt lat="43.35384" lon="-1.6207">
        <ele>21</ele>
        <time>2026-03-09T05:09:49.000Z</time>
      </trkpt>
      <trkpt lat="43.35406" lon="-1.62059">
        <ele>21</ele>
        <time>2026-03-09T05:09:53.000Z</time>
      </trkpt>
      <trkpt lat="43.35449" lon="-1.62032">
        <ele>20</ele>
        <time>2026-03-09T05:10:01.000Z</time>
      </trkpt>
      <trkpt lat="43.35486" lon="-1.62001">
        <ele>18</ele>
        <time>2026-03-09T05:10:09.000Z</time>
      </trkpt>
      <trkpt lat="43.35515" lon="-1.61963">
        <ele>18</ele>
        <time>2026-03-09T05:10:16.000Z</time>
      </trkpt>
      <trkpt lat="43.35787" lon="-1.61535">
        <ele>14</ele>
        <time>2026-03-09T05:11:30.000Z</time>
      </trkpt>
      <trkpt lat="43.35815" lon="-1.61503">
        <ele>12</ele>
        <time>2026-03-09T05:11:36.000Z</time>
      </trkpt>
      <trkpt lat="43.35913" lon="-1.61419">
        <ele>16</ele>
        <time>2026-03-09T05:11:57.000Z</time>
      </trkpt>
      <trkpt lat="43.35934" lon="-1.61396">
        <ele>16</ele>
        <time>2026-03-09T05:12:02.000Z</time>
      </trkpt>
      <trkpt lat="43.36026" lon="-1.61276">
        <ele>11</ele>
        <time>2026-03-09T05:12:24.000Z</time>
      </trkpt>
      <trkpt lat="43.36042" lon="-1.61253">
        <ele>11</ele>
        <time>2026-03-09T05:12:28.000Z</time>
      </trkpt>
      <trkpt lat="43.36058" lon="-1.61224">
        <ele>11</ele>
        <time>2026-03-09T05:12:33.000Z</time>
      </trkpt>
      <trkpt lat="43.36075" lon="-1.61188">
        <ele>12</ele>
        <time>2026-03-09T05:12:38.000Z</time>
      </trkpt>
      <trkpt lat="43.36091" lon="-1.61139">
        <ele>13</ele>
        <time>2026-03-09T05:12:45.000Z</time>
      </trkpt>
      <trkpt lat="43.361" lon="-1.61078">
        <ele>15</ele>
        <time>2026-03-09T05:12:53.000Z</time>
      </trkpt>
      <trkpt lat="43.36105" lon="-1.61018">
        <ele>17</ele>
        <time>2026-03-09T05:13:01.000Z</time>
      </trkpt>
      <trkpt lat="43.36113" lon="-1.60838">
        <ele>16</ele>
        <time>2026-03-09T05:13:25.000Z</time>
      </trkpt>
      <trkpt lat="43.36112" lon="-1.6083">
        <ele>16</ele>
        <time>2026-03-09T05:13:26.000Z</time>
      </trkpt>
      <trkpt lat="43.36119" lon="-1.6075">
        <ele>18</ele>
        <time>2026-03-09T05:13:36.000Z</time>
      </trkpt>
      <trkpt lat="43.36118" lon="-1.607">
        <ele>18</ele>
        <time>2026-03-09T05:13:43.000Z</time>
      </trkpt>
      <trkpt lat="43.36104" lon="-1.60586">
        <ele>18</ele>
        <time>2026-03-09T05:13:58.000Z</time>
      </trkpt>
      <trkpt lat="43.36102" lon="-1.60521">
        <ele>17</ele>
        <time>2026-03-09T05:14:06.000Z</time>
      </trkpt>
      <trkpt lat="43.36109" lon="-1.60457">
        <ele>16</ele>
        <time>2026-03-09T05:14:14.000Z</time>
      </trkpt>
      <trkpt lat="43.36125" lon="-1.6041">
        <ele>15</ele>
        <time>2026-03-09T05:14:21.000Z</time>
      </trkpt>
      <trkpt lat="43.36152" lon="-1.60365">
        <ele>14</ele>
        <time>2026-03-09T05:14:29.000Z</time>
      </trkpt>
      <trkpt lat="43.36173" lon="-1.60338">
        <ele>13</ele>
        <time>2026-03-09T05:14:34.000Z</time>
      </trkpt>
      <trkpt lat="43.36203" lon="-1.60308">
        <ele>15</ele>
        <time>2026-03-09T05:14:40.000Z</time>
      </trkpt>
      <trkpt lat="43.36255" lon="-1.60266">
        <ele>18</ele>
        <time>2026-03-09T05:14:51.000Z</time>
      </trkpt>
      <trkpt lat="43.36255" lon="-1.60266">
        <ele>18</ele>
        <time>2026-03-09T05:14:51.000Z</time>
      </trkpt>
      <trkpt lat="43.36299" lon="-1.60225">
        <ele>21</ele>
        <time>2026-03-09T05:15:00.000Z</time>
      </trkpt>
      <trkpt lat="43.36326" lon="-1.60185">
        <ele>18</ele>
        <time>2026-03-09T05:15:08.000Z</time>
      </trkpt>
      <trkpt lat="43.36345" lon="-1.6014">
        <ele>16</ele>
        <time>2026-03-09T05:15:14.000Z</time>
      </trkpt>
      <trkpt lat="43.36369" lon="-1.60073">
        <ele>15</ele>
        <time>2026-03-09T05:15:24.000Z</time>
      </trkpt>
      <trkpt lat="43.36392" lon="-1.60032">
        <ele>14</ele>
        <time>2026-03-09T05:15:31.000Z</time>
      </trkpt>
      <trkpt lat="43.36426" lon="-1.59985">
        <ele>13</ele>
        <time>2026-03-09T05:15:39.000Z</time>
      </trkpt>
      <trkpt lat="43.36476" lon="-1.5994">
        <ele>14</ele>
        <time>2026-03-09T05:15:50.000Z</time>
      </trkpt>
      <trkpt lat="43.36533" lon="-1.59897">
        <ele>16</ele>
        <time>2026-03-09T05:16:01.000Z</time>
      </trkpt>
      <trkpt lat="43.36549" lon="-1.59873">
        <ele>17</ele>
        <time>2026-03-09T05:16:06.000Z</time>
      </trkpt>
      <trkpt lat="43.36562" lon="-1.59843">
        <ele>18</ele>
        <time>2026-03-09T05:16:10.000Z</time>
      </trkpt>
      <trkpt lat="43.36567" lon="-1.59809">
        <ele>18</ele>
        <time>2026-03-09T05:16:15.000Z</time>
      </trkpt>
      <trkpt lat="43.36588" lon="-1.59546">
        <ele>11</ele>
        <time>2026-03-09T05:16:49.000Z</time>
      </trkpt>
      <trkpt lat="43.36592" lon="-1.59482">
        <ele>9</ele>
        <time>2026-03-09T05:16:57.000Z</time>
      </trkpt>
      <trkpt lat="43.36589" lon="-1.5943">
        <ele>9</ele>
        <time>2026-03-09T05:17:04.000Z</time>
      </trkpt>
      <trkpt lat="43.36581" lon="-1.59376">
        <ele>9</ele>
        <time>2026-03-09T05:17:11.000Z</time>
      </trkpt>
      <trkpt lat="43.36538" lon="-1.59228">
        <ele>10</ele>
        <time>2026-03-09T05:17:32.000Z</time>
      </trkpt>
      <trkpt lat="43.36482" lon="-1.59044">
        <ele>9</ele>
        <time>2026-03-09T05:17:57.000Z</time>
      </trkpt>
      <trkpt lat="43.3646" lon="-1.58976">
        <ele>11</ele>
        <time>2026-03-09T05:18:07.000Z</time>
      </trkpt>
      <trkpt lat="43.36444" lon="-1.58941">
        <ele>12</ele>
        <time>2026-03-09T05:18:12.000Z</time>
      </trkpt>
      <trkpt lat="43.36427" lon="-1.58913">
        <ele>13</ele>
        <time>2026-03-09T05:18:17.000Z</time>
      </trkpt>
      <trkpt lat="43.36402" lon="-1.58885">
        <ele>17</ele>
        <time>2026-03-09T05:18:23.000Z</time>
      </trkpt>
      <trkpt lat="43.36308" lon="-1.58801">
        <ele>19</ele>
        <time>2026-03-09T05:18:43.000Z</time>
      </trkpt>
      <trkpt lat="43.3628" lon="-1.58766">
        <ele>18</ele>
        <time>2026-03-09T05:18:50.000Z</time>
      </trkpt>
      <trkpt lat="43.36257" lon="-1.58723">
        <ele>14</ele>
        <time>2026-03-09T05:18:56.000Z</time>
      </trkpt>
      <trkpt lat="43.36164" lon="-1.58429">
        <ele>12</ele>
        <time>2026-03-09T05:19:38.000Z</time>
      </trkpt>
      <trkpt lat="43.36139" lon="-1.58363">
        <ele>12</ele>
        <time>2026-03-09T05:19:48.000Z</time>
      </trkpt>
      <trkpt lat="43.36129" lon="-1.58341">
        <ele>12</ele>
        <time>2026-03-09T05:19:51.000Z</time>
      </trkpt>
      <trkpt lat="43.36109" lon="-1.58303">
        <ele>12</ele>
        <time>2026-03-09T05:19:57.000Z</time>
      </trkpt>
      <trkpt lat="43.35894" lon="-1.57993">
        <ele>11</ele>
        <time>2026-03-09T05:20:52.000Z</time>
      </trkpt>
      <trkpt lat="43.35861" lon="-1.57931">
        <ele>12</ele>
        <time>2026-03-09T05:21:02.000Z</time>
      </trkpt>
      <trkpt lat="43.35838" lon="-1.57872">
        <ele>12</ele>
        <time>2026-03-09T05:21:11.000Z</time>
      </trkpt>
      <trkpt lat="43.35807" lon="-1.5772">
        <ele>12</ele>
        <time>2026-03-09T05:21:31.000Z</time>
      </trkpt>
      <trkpt lat="43.35782" lon="-1.57586">
        <ele>13</ele>
        <time>2026-03-09T05:21:49.000Z</time>
      </trkpt>
      <trkpt lat="43.35779" lon="-1.57525">
        <ele>13</ele>
        <time>2026-03-09T05:21:57.000Z</time>
      </trkpt>
      <trkpt lat="43.35775" lon="-1.57481">
        <ele>13</ele>
        <time>2026-03-09T05:22:03.000Z</time>
      </trkpt>
      <trkpt lat="43.3577" lon="-1.57475">
        <ele>13</ele>
        <time>2026-03-09T05:22:04.000Z</time>
      </trkpt>
      <trkpt lat="43.35768" lon="-1.57467">
        <ele>13</ele>
        <time>2026-03-09T05:22:05.000Z</time>
      </trkpt>
      <trkpt lat="43.35771" lon="-1.57459">
        <ele>13</ele>
        <time>2026-03-09T05:22:06.000Z</time>
      </trkpt>
      <trkpt lat="43.35763" lon="-1.57418">
        <ele>13</ele>
        <time>2026-03-09T05:22:12.000Z</time>
      </trkpt>
      <trkpt lat="43.35745" lon="-1.57225">
        <ele>14</ele>
        <time>2026-03-09T05:22:37.000Z</time>
      </trkpt>
      <trkpt lat="43.3574" lon="-1.57189">
        <ele>15</ele>
        <time>2026-03-09T05:22:42.000Z</time>
      </trkpt>
      <trkpt lat="43.35733" lon="-1.5716">
        <ele>15</ele>
        <time>2026-03-09T05:22:46.000Z</time>
      </trkpt>
      <trkpt lat="43.35723" lon="-1.5713">
        <ele>15</ele>
        <time>2026-03-09T05:22:50.000Z</time>
      </trkpt>
      <trkpt lat="43.35625" lon="-1.56922">
        <ele>17</ele>
        <time>2026-03-09T05:23:22.000Z</time>
      </trkpt>
      <trkpt lat="43.35608" lon="-1.56895">
        <ele>17</ele>
        <time>2026-03-09T05:23:27.000Z</time>
      </trkpt>
      <trkpt lat="43.35589" lon="-1.56852">
        <ele>17</ele>
        <time>2026-03-09T05:23:33.000Z</time>
      </trkpt>
      <trkpt lat="43.35585" lon="-1.56824">
        <ele>17</ele>
        <time>2026-03-09T05:23:37.000Z</time>
      </trkpt>
      <trkpt lat="43.35585" lon="-1.56811">
        <ele>17</ele>
        <time>2026-03-09T05:23:39.000Z</time>
      </trkpt>
      <trkpt lat="43.3559" lon="-1.56791">
        <ele>17</ele>
        <time>2026-03-09T05:23:41.000Z</time>
      </trkpt>
      <trkpt lat="43.35617" lon="-1.56692">
        <ele>19</ele>
        <time>2026-03-09T05:23:55.000Z</time>
      </trkpt>
      <trkpt lat="43.35622" lon="-1.56658">
        <ele>19</ele>
        <time>2026-03-09T05:24:00.000Z</time>
      </trkpt>
      <trkpt lat="43.35622" lon="-1.56604">
        <ele>19</ele>
        <time>2026-03-09T05:24:06.000Z</time>
      </trkpt>
      <trkpt lat="43.3562" lon="-1.56603">
        <ele>19</ele>
        <time>2026-03-09T05:24:07.000Z</time>
      </trkpt>
      <trkpt lat="43.35617" lon="-1.56596">
        <ele>19</ele>
        <time>2026-03-09T05:24:08.000Z</time>
      </trkpt>
      <trkpt lat="43.35618" lon="-1.56593">
        <ele>19</ele>
        <time>2026-03-09T05:24:08.000Z</time>
      </trkpt>
      <trkpt lat="43.35623" lon="-1.56587">
        <ele>19</ele>
        <time>2026-03-09T05:24:10.000Z</time>
      </trkpt>
      <trkpt lat="43.35615" lon="-1.56214">
        <ele>19</ele>
        <time>2026-03-09T05:24:58.000Z</time>
      </trkpt>
      <trkpt lat="43.35617" lon="-1.5617">
        <ele>19</ele>
        <time>2026-03-09T05:25:04.000Z</time>
      </trkpt>
      <trkpt lat="43.35625" lon="-1.56126">
        <ele>18</ele>
        <time>2026-03-09T05:25:09.000Z</time>
      </trkpt>
      <trkpt lat="43.35635" lon="-1.56106">
        <ele>18</ele>
        <time>2026-03-09T05:25:13.000Z</time>
      </trkpt>
      <trkpt lat="43.35652" lon="-1.56086">
        <ele>18</ele>
        <time>2026-03-09T05:25:17.000Z</time>
      </trkpt>
      <trkpt lat="43.35627" lon="-1.56036">
        <ele>16</ele>
        <time>2026-03-09T05:25:24.000Z</time>
      </trkpt>
      <trkpt lat="43.35597" lon="-1.55988">
        <ele>15</ele>
        <time>2026-03-09T05:25:33.000Z</time>
      </trkpt>
      <trkpt lat="43.35594" lon="-1.55961">
        <ele>15</ele>
        <time>2026-03-09T05:25:36.000Z</time>
      </trkpt>
      <trkpt lat="43.35601" lon="-1.5592">
        <ele>14</ele>
        <time>2026-03-09T05:25:42.000Z</time>
      </trkpt>
      <trkpt lat="43.35596" lon="-1.55849">
        <ele>15</ele>
        <time>2026-03-09T05:25:51.000Z</time>
      </trkpt>
      <trkpt lat="43.35588" lon="-1.55806">
        <ele>15</ele>
        <time>2026-03-09T05:25:56.000Z</time>
      </trkpt>
      <trkpt lat="43.35585" lon="-1.55759">
        <ele>16</ele>
        <time>2026-03-09T05:26:03.000Z</time>
      </trkpt>
      <trkpt lat="43.35586" lon="-1.5563">
        <ele>16</ele>
        <time>2026-03-09T05:26:19.000Z</time>
      </trkpt>
      <trkpt lat="43.35582" lon="-1.55451">
        <ele>15</ele>
        <time>2026-03-09T05:26:42.000Z</time>
      </trkpt>
      <trkpt lat="43.3558" lon="-1.55434">
        <ele>15</ele>
        <time>2026-03-09T05:26:45.000Z</time>
      </trkpt>
      <trkpt lat="43.35578" lon="-1.55426">
        <ele>16</ele>
        <time>2026-03-09T05:26:46.000Z</time>
      </trkpt>
      <trkpt lat="43.35573" lon="-1.5542">
        <ele>16</ele>
        <time>2026-03-09T05:26:47.000Z</time>
      </trkpt>
      <trkpt lat="43.3557" lon="-1.55421">
        <ele>16</ele>
        <time>2026-03-09T05:26:48.000Z</time>
      </trkpt>
      <trkpt lat="43.35564" lon="-1.5542">
        <ele>16</ele>
        <time>2026-03-09T05:26:49.000Z</time>
      </trkpt>
      <trkpt lat="43.35559" lon="-1.55414">
        <ele>16</ele>
        <time>2026-03-09T05:26:50.000Z</time>
      </trkpt>
      <trkpt lat="43.35558" lon="-1.55406">
        <ele>16</ele>
        <time>2026-03-09T05:26:51.000Z</time>
      </trkpt>
      <trkpt lat="43.3556" lon="-1.55398">
        <ele>16</ele>
        <time>2026-03-09T05:26:52.000Z</time>
      </trkpt>
      <trkpt lat="43.35563" lon="-1.55395">
        <ele>16</ele>
        <time>2026-03-09T05:26:53.000Z</time>
      </trkpt>
      <trkpt lat="43.3556" lon="-1.55389">
        <ele>16</ele>
        <time>2026-03-09T05:26:54.000Z</time>
      </trkpt>
      <trkpt lat="43.3554" lon="-1.55371">
        <ele>16</ele>
        <time>2026-03-09T05:26:58.000Z</time>
      </trkpt>
      <trkpt lat="43.35523" lon="-1.55364">
        <ele>16</ele>
        <time>2026-03-09T05:27:01.000Z</time>
      </trkpt>
      <trkpt lat="43.35511" lon="-1.55362">
        <ele>16</ele>
        <time>2026-03-09T05:27:03.000Z</time>
      </trkpt>
      <trkpt lat="43.35366" lon="-1.55368">
        <ele>16</ele>
        <time>2026-03-09T05:27:29.000Z</time>
      </trkpt>
      <trkpt lat="43.35318" lon="-1.5535">
        <ele>17</ele>
        <time>2026-03-09T05:27:38.000Z</time>
      </trkpt>
      <trkpt lat="43.35303" lon="-1.55338">
        <ele>17</ele>
        <time>2026-03-09T05:27:41.000Z</time>
      </trkpt>
      <trkpt lat="43.35287" lon="-1.55317">
        <ele>17</ele>
        <time>2026-03-09T05:27:45.000Z</time>
      </trkpt>
      <trkpt lat="43.35223" lon="-1.55216">
        <ele>16</ele>
        <time>2026-03-09T05:28:02.000Z</time>
      </trkpt>
      <trkpt lat="43.35136" lon="-1.55045">
        <ele>17</ele>
        <time>2026-03-09T05:28:29.000Z</time>
      </trkpt>
      <trkpt lat="43.35118" lon="-1.55005">
        <ele>18</ele>
        <time>2026-03-09T05:28:35.000Z</time>
      </trkpt>
      <trkpt lat="43.35115" lon="-1.54994">
        <ele>18</ele>
        <time>2026-03-09T05:28:37.000Z</time>
      </trkpt>
      <trkpt lat="43.35105" lon="-1.54993">
        <ele>18</ele>
        <time>2026-03-09T05:28:38.000Z</time>
      </trkpt>
      <trkpt lat="43.35098" lon="-1.54989">
        <ele>18</ele>
        <time>2026-03-09T05:28:40.000Z</time>
      </trkpt>
      <trkpt lat="43.35078" lon="-1.54991">
        <ele>19</ele>
        <time>2026-03-09T05:28:43.000Z</time>
      </trkpt>
      <trkpt lat="43.34874" lon="-1.55162">
        <ele>21</ele>
        <time>2026-03-09T05:29:26.000Z</time>
      </trkpt>
      <trkpt lat="43.34865" lon="-1.55186">
        <ele>20</ele>
        <time>2026-03-09T05:29:29.000Z</time>
      </trkpt>
      <trkpt lat="43.34857" lon="-1.5523">
        <ele>19</ele>
        <time>2026-03-09T05:29:35.000Z</time>
      </trkpt>
      <trkpt lat="43.34847" lon="-1.55243">
        <ele>18</ele>
        <time>2026-03-09T05:29:38.000Z</time>
      </trkpt>
      <trkpt lat="43.34831" lon="-1.55248">
        <ele>18</ele>
        <time>2026-03-09T05:29:41.000Z</time>
      </trkpt>
      <trkpt lat="43.34821" lon="-1.55247">
        <ele>18</ele>
        <time>2026-03-09T05:29:42.000Z</time>
      </trkpt>
      <trkpt lat="43.34801" lon="-1.55235">
        <ele>19</ele>
        <time>2026-03-09T05:29:46.000Z</time>
      </trkpt>
      <trkpt lat="43.34597" lon="-1.55214">
        <ele>19</ele>
        <time>2026-03-09T05:30:23.000Z</time>
      </trkpt>
      <trkpt lat="43.34571" lon="-1.55205">
        <ele>19</ele>
        <time>2026-03-09T05:30:27.000Z</time>
      </trkpt>
      <trkpt lat="43.34548" lon="-1.55189">
        <ele>20</ele>
        <time>2026-03-09T05:30:32.000Z</time>
      </trkpt>
      <trkpt lat="43.3449" lon="-1.55114">
        <ele>22</ele>
        <time>2026-03-09T05:30:46.000Z</time>
      </trkpt>
      <trkpt lat="43.3434" lon="-1.5491">
        <ele>30</ele>
        <time>2026-03-09T05:31:24.000Z</time>
      </trkpt>
      <trkpt lat="43.34313" lon="-1.54884">
        <ele>30</ele>
        <time>2026-03-09T05:31:30.000Z</time>
      </trkpt>
      <trkpt lat="43.34293" lon="-1.54871">
        <ele>30</ele>
        <time>2026-03-09T05:31:34.000Z</time>
      </trkpt>
      <trkpt lat="43.34268" lon="-1.54861">
        <ele>31</ele>
        <time>2026-03-09T05:31:38.000Z</time>
      </trkpt>
      <trkpt lat="43.34239" lon="-1.54859">
        <ele>32</ele>
        <time>2026-03-09T05:31:43.000Z</time>
      </trkpt>
      <trkpt lat="43.34212" lon="-1.54863">
        <ele>33</ele>
        <time>2026-03-09T05:31:48.000Z</time>
      </trkpt>
      <trkpt lat="43.34187" lon="-1.54872">
        <ele>34</ele>
        <time>2026-03-09T05:31:53.000Z</time>
      </trkpt>
      <trkpt lat="43.33939" lon="-1.55026">
        <ele>44</ele>
        <time>2026-03-09T05:32:41.000Z</time>
      </trkpt>
      <trkpt lat="43.33917" lon="-1.55038">
        <ele>45</ele>
        <time>2026-03-09T05:32:45.000Z</time>
      </trkpt>
      <trkpt lat="43.33903" lon="-1.55043">
        <ele>44</ele>
        <time>2026-03-09T05:32:48.000Z</time>
      </trkpt>
      <trkpt lat="43.33886" lon="-1.55044">
        <ele>42</ele>
        <time>2026-03-09T05:32:51.000Z</time>
      </trkpt>
      <trkpt lat="43.33855" lon="-1.5503">
        <ele>39</ele>
        <time>2026-03-09T05:32:57.000Z</time>
      </trkpt>
      <trkpt lat="43.33689" lon="-1.54934">
        <ele>34</ele>
        <time>2026-03-09T05:33:29.000Z</time>
      </trkpt>
      <trkpt lat="43.33606" lon="-1.54902">
        <ele>38</ele>
        <time>2026-03-09T05:33:44.000Z</time>
      </trkpt>
      <trkpt lat="43.33528" lon="-1.54864">
        <ele>36</ele>
        <time>2026-03-09T05:33:59.000Z</time>
      </trkpt>
      <trkpt lat="43.33451" lon="-1.54835">
        <ele>35</ele>
        <time>2026-03-09T05:34:13.000Z</time>
      </trkpt>
      <trkpt lat="43.33342" lon="-1.5481">
        <ele>40</ele>
        <time>2026-03-09T05:34:33.000Z</time>
      </trkpt>
      <trkpt lat="43.33316" lon="-1.54798">
        <ele>42</ele>
        <time>2026-03-09T05:34:38.000Z</time>
      </trkpt>
      <trkpt lat="43.33231" lon="-1.54721">
        <ele>41</ele>
        <time>2026-03-09T05:34:56.000Z</time>
      </trkpt>
      <trkpt lat="43.3321" lon="-1.54694">
        <ele>39</ele>
        <time>2026-03-09T05:35:01.000Z</time>
      </trkpt>
      <trkpt lat="43.33195" lon="-1.54663">
        <ele>37</ele>
        <time>2026-03-09T05:35:06.000Z</time>
      </trkpt>
      <trkpt lat="43.3317" lon="-1.54594">
        <ele>35</ele>
        <time>2026-03-09T05:35:16.000Z</time>
      </trkpt>
      <trkpt lat="43.33146" lon="-1.54555">
        <ele>34</ele>
        <time>2026-03-09T05:35:22.000Z</time>
      </trkpt>
      <trkpt lat="43.331" lon="-1.54501">
        <ele>33</ele>
        <time>2026-03-09T05:35:33.000Z</time>
      </trkpt>
      <trkpt lat="43.33052" lon="-1.54449">
        <ele>32</ele>
        <time>2026-03-09T05:35:44.000Z</time>
      </trkpt>
      <trkpt lat="43.33034" lon="-1.54441">
        <ele>31</ele>
        <time>2026-03-09T05:35:47.000Z</time>
      </trkpt>
      <trkpt lat="43.33014" lon="-1.54435">
        <ele>31</ele>
        <time>2026-03-09T05:35:51.000Z</time>
      </trkpt>
      <trkpt lat="43.32992" lon="-1.54437">
        <ele>31</ele>
        <time>2026-03-09T05:35:55.000Z</time>
      </trkpt>
      <trkpt lat="43.32973" lon="-1.54445">
        <ele>31</ele>
        <time>2026-03-09T05:35:58.000Z</time>
      </trkpt>
      <trkpt lat="43.32897" lon="-1.54491">
        <ele>33</ele>
        <time>2026-03-09T05:36:13.000Z</time>
      </trkpt>
      <trkpt lat="43.32832" lon="-1.54536">
        <ele>38</ele>
        <time>2026-03-09T05:36:26.000Z</time>
      </trkpt>
      <trkpt lat="43.32568" lon="-1.5481">
        <ele>37</ele>
        <time>2026-03-09T05:37:25.000Z</time>
      </trkpt>
      <trkpt lat="43.32463" lon="-1.54892">
        <ele>34</ele>
        <time>2026-03-09T05:37:46.000Z</time>
      </trkpt>
      <trkpt lat="43.3238" lon="-1.54929">
        <ele>32</ele>
        <time>2026-03-09T05:38:02.000Z</time>
      </trkpt>
      <trkpt lat="43.32181" lon="-1.55023">
        <ele>30</ele>
        <time>2026-03-09T05:38:39.000Z</time>
      </trkpt>
      <trkpt lat="43.32148" lon="-1.5505">
        <ele>31</ele>
        <time>2026-03-09T05:38:46.000Z</time>
      </trkpt>
      <trkpt lat="43.32131" lon="-1.54932">
        <ele>30</ele>
        <time>2026-03-09T05:39:02.000Z</time>
      </trkpt>
      <trkpt lat="43.32124" lon="-1.54913">
        <ele>30</ele>
        <time>2026-03-09T05:39:05.000Z</time>
      </trkpt>
      <trkpt lat="43.3211" lon="-1.54893">
        <ele>30</ele>
        <time>2026-03-09T05:39:08.000Z</time>
      </trkpt>
      <trkpt lat="43.31936" lon="-1.54676">
        <ele>40</ele>
        <time>2026-03-09T05:39:50.000Z</time>
      </trkpt>
      <trkpt lat="43.31912" lon="-1.5464">
        <ele>39</ele>
        <time>2026-03-09T05:39:56.000Z</time>
      </trkpt>
      <trkpt lat="43.31896" lon="-1.54605">
        <ele>40</ele>
        <time>2026-03-09T05:40:02.000Z</time>
      </trkpt>
      <trkpt lat="43.31881" lon="-1.54558">
        <ele>40</ele>
        <time>2026-03-09T05:40:08.000Z</time>
      </trkpt>
      <trkpt lat="43.31875" lon="-1.54516">
        <ele>40</ele>
        <time>2026-03-09T05:40:14.000Z</time>
      </trkpt>
      <trkpt lat="43.31875" lon="-1.54475">
        <ele>41</ele>
        <time>2026-03-09T05:40:19.000Z</time>
      </trkpt>
      <trkpt lat="43.31878" lon="-1.54436">
        <ele>41</ele>
        <time>2026-03-09T05:40:24.000Z</time>
      </trkpt>
      <trkpt lat="43.32005" lon="-1.5397">
        <ele>38</ele>
        <time>2026-03-09T05:41:29.000Z</time>
      </trkpt>
      <trkpt lat="43.3201" lon="-1.53925">
        <ele>39</ele>
        <time>2026-03-09T05:41:35.000Z</time>
      </trkpt>
      <trkpt lat="43.32007" lon="-1.53872">
        <ele>40</ele>
        <time>2026-03-09T05:41:41.000Z</time>
      </trkpt>
      <trkpt lat="43.31997" lon="-1.53632">
        <ele>40</ele>
        <time>2026-03-09T05:42:13.000Z</time>
      </trkpt>
      <trkpt lat="43.31983" lon="-1.53578">
        <ele>39</ele>
        <time>2026-03-09T05:42:20.000Z</time>
      </trkpt>
      <trkpt lat="43.31963" lon="-1.53545">
        <ele>40</ele>
        <time>2026-03-09T05:42:26.000Z</time>
      </trkpt>
      <trkpt lat="43.31704" lon="-1.53151">
        <ele>48</ele>
        <time>2026-03-09T05:43:34.000Z</time>
      </trkpt>
      <trkpt lat="43.31653" lon="-1.5307">
        <ele>51</ele>
        <time>2026-03-09T05:43:48.000Z</time>
      </trkpt>
      <trkpt lat="43.3163" lon="-1.5304">
        <ele>54</ele>
        <time>2026-03-09T05:43:54.000Z</time>
      </trkpt>
      <trkpt lat="43.316" lon="-1.53017">
        <ele>57</ele>
        <time>2026-03-09T05:44:00.000Z</time>
      </trkpt>
      <trkpt lat="43.31572" lon="-1.53006">
        <ele>59</ele>
        <time>2026-03-09T05:44:05.000Z</time>
      </trkpt>
      <trkpt lat="43.31548" lon="-1.53001">
        <ele>59</ele>
        <time>2026-03-09T05:44:09.000Z</time>
      </trkpt>
      <trkpt lat="43.31469" lon="-1.53001">
        <ele>59</ele>
        <time>2026-03-09T05:44:23.000Z</time>
      </trkpt>
      <trkpt lat="43.31439" lon="-1.52993">
        <ele>60</ele>
        <time>2026-03-09T05:44:29.000Z</time>
      </trkpt>
      <trkpt lat="43.31411" lon="-1.52982">
        <ele>60</ele>
        <time>2026-03-09T05:44:34.000Z</time>
      </trkpt>
      <trkpt lat="43.31354" lon="-1.52944">
        <ele>59</ele>
        <time>2026-03-09T05:44:45.000Z</time>
      </trkpt>
      <trkpt lat="43.31316" lon="-1.52937">
        <ele>57</ele>
        <time>2026-03-09T05:44:52.000Z</time>
      </trkpt>
      <trkpt lat="43.31279" lon="-1.52946">
        <ele>56</ele>
        <time>2026-03-09T05:44:59.000Z</time>
      </trkpt>
      <trkpt lat="43.31219" lon="-1.53">
        <ele>50</ele>
        <time>2026-03-09T05:45:12.000Z</time>
      </trkpt>
      <trkpt lat="43.31199" lon="-1.53007">
        <ele>49</ele>
        <time>2026-03-09T05:45:15.000Z</time>
      </trkpt>
      <trkpt lat="43.31173" lon="-1.53009">
        <ele>49</ele>
        <time>2026-03-09T05:45:20.000Z</time>
      </trkpt>
      <trkpt lat="43.31152" lon="-1.53005">
        <ele>49</ele>
        <time>2026-03-09T05:45:24.000Z</time>
      </trkpt>
      <trkpt lat="43.31124" lon="-1.52993">
        <ele>50</ele>
        <time>2026-03-09T05:45:29.000Z</time>
      </trkpt>
      <trkpt lat="43.31097" lon="-1.52971">
        <ele>51</ele>
        <time>2026-03-09T05:45:35.000Z</time>
      </trkpt>
      <trkpt lat="43.31079" lon="-1.52962">
        <ele>51</ele>
        <time>2026-03-09T05:45:38.000Z</time>
      </trkpt>
      <trkpt lat="43.31045" lon="-1.52955">
        <ele>51</ele>
        <time>2026-03-09T05:45:44.000Z</time>
      </trkpt>
      <trkpt lat="43.31023" lon="-1.52946">
        <ele>51</ele>
        <time>2026-03-09T05:45:48.000Z</time>
      </trkpt>
      <trkpt lat="43.31004" lon="-1.52932">
        <ele>52</ele>
        <time>2026-03-09T05:45:52.000Z</time>
      </trkpt>
      <trkpt lat="43.30986" lon="-1.5291">
        <ele>52</ele>
        <time>2026-03-09T05:45:56.000Z</time>
      </trkpt>
      <trkpt lat="43.3096" lon="-1.52853">
        <ele>54</ele>
        <time>2026-03-09T05:46:05.000Z</time>
      </trkpt>
      <trkpt lat="43.3095" lon="-1.52809">
        <ele>56</ele>
        <time>2026-03-09T05:46:11.000Z</time>
      </trkpt>
      <trkpt lat="43.30939" lon="-1.52787">
        <ele>58</ele>
        <time>2026-03-09T05:46:14.000Z</time>
      </trkpt>
      <trkpt lat="43.30919" lon="-1.52771">
        <ele>59</ele>
        <time>2026-03-09T05:46:18.000Z</time>
      </trkpt>
      <trkpt lat="43.3089" lon="-1.52756">
        <ele>58</ele>
        <time>2026-03-09T05:46:24.000Z</time>
      </trkpt>
      <trkpt lat="43.30866" lon="-1.52747">
        <ele>57</ele>
        <time>2026-03-09T05:46:28.000Z</time>
      </trkpt>
      <trkpt lat="43.3082" lon="-1.52736">
        <ele>56</ele>
        <time>2026-03-09T05:46:37.000Z</time>
      </trkpt>
      <trkpt lat="43.30798" lon="-1.52725">
        <ele>55</ele>
        <time>2026-03-09T05:46:41.000Z</time>
      </trkpt>
      <trkpt lat="43.30723" lon="-1.52653">
        <ele>57</ele>
        <time>2026-03-09T05:46:57.000Z</time>
      </trkpt>
      <trkpt lat="43.30674" lon="-1.52595">
        <ele>55</ele>
        <time>2026-03-09T05:47:09.000Z</time>
      </trkpt>
      <trkpt lat="43.30651" lon="-1.52556">
        <ele>56</ele>
        <time>2026-03-09T05:47:15.000Z</time>
      </trkpt>
      <trkpt lat="43.30632" lon="-1.52475">
        <ele>59</ele>
        <time>2026-03-09T05:47:26.000Z</time>
      </trkpt>
      <trkpt lat="43.30625" lon="-1.52436">
        <ele>60</ele>
        <time>2026-03-09T05:47:31.000Z</time>
      </trkpt>
      <trkpt lat="43.30624" lon="-1.52336">
        <ele>57</ele>
        <time>2026-03-09T05:47:44.000Z</time>
      </trkpt>
      <trkpt lat="43.30622" lon="-1.52278">
        <ele>58</ele>
        <time>2026-03-09T05:47:52.000Z</time>
      </trkpt>
      <trkpt lat="43.30623" lon="-1.52217">
        <ele>61</ele>
        <time>2026-03-09T05:48:00.000Z</time>
      </trkpt>
      <trkpt lat="43.30642" lon="-1.52178">
        <ele>62</ele>
        <time>2026-03-09T05:48:06.000Z</time>
      </trkpt>
      <trkpt lat="43.30701" lon="-1.52105">
        <ele>63</ele>
        <time>2026-03-09T05:48:20.000Z</time>
      </trkpt>
      <trkpt lat="43.30715" lon="-1.52071">
        <ele>63</ele>
        <time>2026-03-09T05:48:25.000Z</time>
      </trkpt>
      <trkpt lat="43.30719" lon="-1.52035">
        <ele>63</ele>
        <time>2026-03-09T05:48:30.000Z</time>
      </trkpt>
      <trkpt lat="43.30718" lon="-1.52015">
        <ele>64</ele>
        <time>2026-03-09T05:48:32.000Z</time>
      </trkpt>
      <trkpt lat="43.30709" lon="-1.51968">
        <ele>65</ele>
        <time>2026-03-09T05:48:39.000Z</time>
      </trkpt>
      <trkpt lat="43.30685" lon="-1.51877">
        <ele>67</ele>
        <time>2026-03-09T05:48:51.000Z</time>
      </trkpt>
      <trkpt lat="43.30674" lon="-1.51854">
        <ele>68</ele>
        <time>2026-03-09T05:48:55.000Z</time>
      </trkpt>
      <trkpt lat="43.30598" lon="-1.51764">
        <ele>71</ele>
        <time>2026-03-09T05:49:13.000Z</time>
      </trkpt>
      <trkpt lat="43.30565" lon="-1.517">
        <ele>71</ele>
        <time>2026-03-09T05:49:23.000Z</time>
      </trkpt>
      <trkpt lat="43.3054" lon="-1.51663">
        <ele>70</ele>
        <time>2026-03-09T05:49:29.000Z</time>
      </trkpt>
      <trkpt lat="43.30373" lon="-1.51474">
        <ele>74</ele>
        <time>2026-03-09T05:50:08.000Z</time>
      </trkpt>
      <trkpt lat="43.30252" lon="-1.51353">
        <ele>69</ele>
        <time>2026-03-09T05:50:34.000Z</time>
      </trkpt>
      <trkpt lat="43.30252" lon="-1.51353">
        <ele>69</ele>
        <time>2026-03-09T05:50:34.000Z</time>
      </trkpt>
      <trkpt lat="43.30211" lon="-1.51312">
        <ele>67</ele>
        <time>2026-03-09T05:50:43.000Z</time>
      </trkpt>
      <trkpt lat="43.30187" lon="-1.51295">
        <ele>66</ele>
        <time>2026-03-09T05:50:48.000Z</time>
      </trkpt>
      <trkpt lat="43.30169" lon="-1.51286">
        <ele>66</ele>
        <time>2026-03-09T05:50:52.000Z</time>
      </trkpt>
      <trkpt lat="43.30151" lon="-1.51282">
        <ele>66</ele>
        <time>2026-03-09T05:50:55.000Z</time>
      </trkpt>
      <trkpt lat="43.30098" lon="-1.51281">
        <ele>69</ele>
        <time>2026-03-09T05:51:04.000Z</time>
      </trkpt>
      <trkpt lat="43.30081" lon="-1.51277">
        <ele>69</ele>
        <time>2026-03-09T05:51:07.000Z</time>
      </trkpt>
      <trkpt lat="43.30068" lon="-1.51265">
        <ele>69</ele>
        <time>2026-03-09T05:51:10.000Z</time>
      </trkpt>
      <trkpt lat="43.30052" lon="-1.51244">
        <ele>68</ele>
        <time>2026-03-09T05:51:14.000Z</time>
      </trkpt>
      <trkpt lat="43.3004" lon="-1.51235">
        <ele>69</ele>
        <time>2026-03-09T05:51:17.000Z</time>
      </trkpt>
      <trkpt lat="43.30025" lon="-1.51235">
        <ele>70</ele>
        <time>2026-03-09T05:51:19.000Z</time>
      </trkpt>
      <trkpt lat="43.29992" lon="-1.51256">
        <ele>73</ele>
        <time>2026-03-09T05:51:26.000Z</time>
      </trkpt>
      <trkpt lat="43.29983" lon="-1.51259">
        <ele>75</ele>
        <time>2026-03-09T05:51:27.000Z</time>
      </trkpt>
      <trkpt lat="43.29974" lon="-1.5125">
        <ele>76</ele>
        <time>2026-03-09T05:51:29.000Z</time>
      </trkpt>
      <trkpt lat="43.29971" lon="-1.51238">
        <ele>76</ele>
        <time>2026-03-09T05:51:31.000Z</time>
      </trkpt>
      <trkpt lat="43.2998" lon="-1.51206">
        <ele>75</ele>
        <time>2026-03-09T05:51:35.000Z</time>
      </trkpt>
      <trkpt lat="43.3" lon="-1.51177">
        <ele>71</ele>
        <time>2026-03-09T05:51:41.000Z</time>
      </trkpt>
      <trkpt lat="43.30015" lon="-1.51135">
        <ele>68</ele>
        <time>2026-03-09T05:51:47.000Z</time>
      </trkpt>
      <trkpt lat="43.30016" lon="-1.51107">
        <ele>67</ele>
        <time>2026-03-09T05:51:50.000Z</time>
      </trkpt>
      <trkpt lat="43.30006" lon="-1.5108">
        <ele>66</ele>
        <time>2026-03-09T05:51:54.000Z</time>
      </trkpt>
      <trkpt lat="43.29901" lon="-1.50908">
        <ele>69</ele>
        <time>2026-03-09T05:52:23.000Z</time>
      </trkpt>
      <trkpt lat="43.29788" lon="-1.50796">
        <ele>72</ele>
        <time>2026-03-09T05:52:48.000Z</time>
      </trkpt>
      <trkpt lat="43.29752" lon="-1.50765">
        <ele>72</ele>
        <time>2026-03-09T05:52:56.000Z</time>
      </trkpt>
      <trkpt lat="43.29711" lon="-1.50736">
        <ele>73</ele>
        <time>2026-03-09T05:53:04.000Z</time>
      </trkpt>
      <trkpt lat="43.29648" lon="-1.507">
        <ele>73</ele>
        <time>2026-03-09T05:53:16.000Z</time>
      </trkpt>
      <trkpt lat="43.29631" lon="-1.50688">
        <ele>73</ele>
        <time>2026-03-09T05:53:19.000Z</time>
      </trkpt>
      <trkpt lat="43.29597" lon="-1.50635">
        <ele>72</ele>
        <time>2026-03-09T05:53:28.000Z</time>
      </trkpt>
      <trkpt lat="43.29586" lon="-1.50623">
        <ele>71</ele>
        <time>2026-03-09T05:53:31.000Z</time>
      </trkpt>
      <trkpt lat="43.29559" lon="-1.50605">
        <ele>71</ele>
        <time>2026-03-09T05:53:36.000Z</time>
      </trkpt>
      <trkpt lat="43.29546" lon="-1.50602">
        <ele>71</ele>
        <time>2026-03-09T05:53:39.000Z</time>
      </trkpt>
      <trkpt lat="43.29474" lon="-1.50633">
        <ele>72</ele>
        <time>2026-03-09T05:53:52.000Z</time>
      </trkpt>
      <trkpt lat="43.29462" lon="-1.50636">
        <ele>72</ele>
        <time>2026-03-09T05:53:54.000Z</time>
      </trkpt>
      <trkpt lat="43.29449" lon="-1.50636">
        <ele>72</ele>
        <time>2026-03-09T05:53:57.000Z</time>
      </trkpt>
      <trkpt lat="43.29427" lon="-1.50623">
        <ele>71</ele>
        <time>2026-03-09T05:54:01.000Z</time>
      </trkpt>
      <trkpt lat="43.29425" lon="-1.50627">
        <ele>71</ele>
        <time>2026-03-09T05:54:01.000Z</time>
      </trkpt>
      <trkpt lat="43.29419" lon="-1.50632">
        <ele>71</ele>
        <time>2026-03-09T05:54:03.000Z</time>
      </trkpt>
      <trkpt lat="43.29412" lon="-1.50631">
        <ele>71</ele>
        <time>2026-03-09T05:54:04.000Z</time>
      </trkpt>
      <trkpt lat="43.29408" lon="-1.50629">
        <ele>71</ele>
        <time>2026-03-09T05:54:05.000Z</time>
      </trkpt>
      <trkpt lat="43.29404" lon="-1.50621">
        <ele>70</ele>
        <time>2026-03-09T05:54:06.000Z</time>
      </trkpt>
      <trkpt lat="43.29403" lon="-1.50616">
        <ele>70</ele>
        <time>2026-03-09T05:54:07.000Z</time>
      </trkpt>
      <trkpt lat="43.2934" lon="-1.50611">
        <ele>70</ele>
        <time>2026-03-09T05:54:18.000Z</time>
      </trkpt>
      <trkpt lat="43.29291" lon="-1.50625">
        <ele>76</ele>
        <time>2026-03-09T05:54:27.000Z</time>
      </trkpt>
      <trkpt lat="43.29279" lon="-1.50623">
        <ele>76</ele>
        <time>2026-03-09T05:54:29.000Z</time>
      </trkpt>
      <trkpt lat="43.29265" lon="-1.50614">
        <ele>76</ele>
        <time>2026-03-09T05:54:32.000Z</time>
      </trkpt>
      <trkpt lat="43.29245" lon="-1.50582">
        <ele>71</ele>
        <time>2026-03-09T05:54:37.000Z</time>
      </trkpt>
      <trkpt lat="43.29232" lon="-1.50578">
        <ele>71</ele>
        <time>2026-03-09T05:54:40.000Z</time>
      </trkpt>
      <trkpt lat="43.29229" lon="-1.50579">
        <ele>71</ele>
        <time>2026-03-09T05:54:40.000Z</time>
      </trkpt>
      <trkpt lat="43.29222" lon="-1.50578">
        <ele>71</ele>
        <time>2026-03-09T05:54:41.000Z</time>
      </trkpt>
      <trkpt lat="43.29217" lon="-1.50571">
        <ele>71</ele>
        <time>2026-03-09T05:54:43.000Z</time>
      </trkpt>
      <trkpt lat="43.29216" lon="-1.50567">
        <ele>71</ele>
        <time>2026-03-09T05:54:43.000Z</time>
      </trkpt>
      <trkpt lat="43.29193" lon="-1.50554">
        <ele>70</ele>
        <time>2026-03-09T05:54:48.000Z</time>
      </trkpt>
      <trkpt lat="43.29145" lon="-1.50559">
        <ele>71</ele>
        <time>2026-03-09T05:54:56.000Z</time>
      </trkpt>
      <trkpt lat="43.29125" lon="-1.5057">
        <ele>71</ele>
        <time>2026-03-09T05:55:00.000Z</time>
      </trkpt>
      <trkpt lat="43.29119" lon="-1.50577">
        <ele>71</ele>
        <time>2026-03-09T05:55:01.000Z</time>
      </trkpt>
      <trkpt lat="43.29115" lon="-1.50578">
        <ele>71</ele>
        <time>2026-03-09T05:55:02.000Z</time>
      </trkpt>
      <trkpt lat="43.29112" lon="-1.50577">
        <ele>71</ele>
        <time>2026-03-09T05:55:03.000Z</time>
      </trkpt>
      <trkpt lat="43.29106" lon="-1.50572">
        <ele>71</ele>
        <time>2026-03-09T05:55:04.000Z</time>
      </trkpt>
      <trkpt lat="43.29103" lon="-1.50564">
        <ele>72</ele>
        <time>2026-03-09T05:55:05.000Z</time>
      </trkpt>
      <trkpt lat="43.2909" lon="-1.50558">
        <ele>72</ele>
        <time>2026-03-09T05:55:07.000Z</time>
      </trkpt>
      <trkpt lat="43.28998" lon="-1.50564">
        <ele>77</ele>
        <time>2026-03-09T05:55:24.000Z</time>
      </trkpt>
      <trkpt lat="43.2898" lon="-1.50576">
        <ele>76</ele>
        <time>2026-03-09T05:55:27.000Z</time>
      </trkpt>
      <trkpt lat="43.28973" lon="-1.50583">
        <ele>76</ele>
        <time>2026-03-09T05:55:29.000Z</time>
      </trkpt>
      <trkpt lat="43.28969" lon="-1.50584">
        <ele>76</ele>
        <time>2026-03-09T05:55:30.000Z</time>
      </trkpt>
      <trkpt lat="43.28962" lon="-1.50581">
        <ele>76</ele>
        <time>2026-03-09T05:55:31.000Z</time>
      </trkpt>
      <trkpt lat="43.28958" lon="-1.50576">
        <ele>77</ele>
        <time>2026-03-09T05:55:32.000Z</time>
      </trkpt>
      <trkpt lat="43.28933" lon="-1.50576">
        <ele>77</ele>
        <time>2026-03-09T05:55:36.000Z</time>
      </trkpt>
      <trkpt lat="43.2891" lon="-1.50581">
        <ele>77</ele>
        <time>2026-03-09T05:55:41.000Z</time>
      </trkpt>
      <trkpt lat="43.28846" lon="-1.50591">
        <ele>79</ele>
        <time>2026-03-09T05:55:52.000Z</time>
      </trkpt>
      <trkpt lat="43.28731" lon="-1.50595">
        <ele>84</ele>
        <time>2026-03-09T05:56:12.000Z</time>
      </trkpt>
      <trkpt lat="43.28712" lon="-1.50599">
        <ele>85</ele>
        <time>2026-03-09T05:56:16.000Z</time>
      </trkpt>
      <trkpt lat="43.2871" lon="-1.50602">
        <ele>85</ele>
        <time>2026-03-09T05:56:16.000Z</time>
      </trkpt>
      <trkpt lat="43.28704" lon="-1.50609">
        <ele>85</ele>
        <time>2026-03-09T05:56:18.000Z</time>
      </trkpt>
      <trkpt lat="43.287" lon="-1.50609">
        <ele>85</ele>
        <time>2026-03-09T05:56:19.000Z</time>
      </trkpt>
      <trkpt lat="43.28692" lon="-1.50605">
        <ele>86</ele>
        <time>2026-03-09T05:56:20.000Z</time>
      </trkpt>
      <trkpt lat="43.28689" lon="-1.50601">
        <ele>86</ele>
        <time>2026-03-09T05:56:21.000Z</time>
      </trkpt>
      <trkpt lat="43.28674" lon="-1.50592">
        <ele>88</ele>
        <time>2026-03-09T05:56:24.000Z</time>
      </trkpt>
      <trkpt lat="43.2859" lon="-1.50594">
        <ele>93</ele>
        <time>2026-03-09T05:56:39.000Z</time>
      </trkpt>
      <trkpt lat="43.28484" lon="-1.50575">
        <ele>95</ele>
        <time>2026-03-09T05:56:58.000Z</time>
      </trkpt>
      <trkpt lat="43.28483" lon="-1.5058">
        <ele>94</ele>
        <time>2026-03-09T05:56:58.000Z</time>
      </trkpt>
      <trkpt lat="43.28477" lon="-1.50586">
        <ele>94</ele>
        <time>2026-03-09T05:57:00.000Z</time>
      </trkpt>
      <trkpt lat="43.28472" lon="-1.50588">
        <ele>94</ele>
        <time>2026-03-09T05:57:01.000Z</time>
      </trkpt>
      <trkpt lat="43.28467" lon="-1.50586">
        <ele>94</ele>
        <time>2026-03-09T05:57:02.000Z</time>
      </trkpt>
      <trkpt lat="43.28464" lon="-1.50582">
        <ele>94</ele>
        <time>2026-03-09T05:57:02.000Z</time>
      </trkpt>
      <trkpt lat="43.28462" lon="-1.50571">
        <ele>95</ele>
        <time>2026-03-09T05:57:04.000Z</time>
      </trkpt>
      <trkpt lat="43.28182" lon="-1.50527">
        <ele>103</ele>
        <time>2026-03-09T05:57:54.000Z</time>
      </trkpt>
      <trkpt lat="43.28155" lon="-1.50519">
        <ele>103</ele>
        <time>2026-03-09T05:57:59.000Z</time>
      </trkpt>
      <trkpt lat="43.28114" lon="-1.50498">
        <ele>103</ele>
        <time>2026-03-09T05:58:07.000Z</time>
      </trkpt>
      <trkpt lat="43.27983" lon="-1.50409">
        <ele>102</ele>
        <time>2026-03-09T05:58:33.000Z</time>
      </trkpt>
      <trkpt lat="43.27941" lon="-1.50383">
        <ele>104</ele>
        <time>2026-03-09T05:58:41.000Z</time>
      </trkpt>
      <trkpt lat="43.27925" lon="-1.50377">
        <ele>104</ele>
        <time>2026-03-09T05:58:44.000Z</time>
      </trkpt>
      <trkpt lat="43.27878" lon="-1.5037">
        <ele>106</ele>
        <time>2026-03-09T05:58:52.000Z</time>
      </trkpt>
      <trkpt lat="43.27856" lon="-1.50365">
        <ele>108</ele>
        <time>2026-03-09T05:58:56.000Z</time>
      </trkpt>
      <trkpt lat="43.27833" lon="-1.50356">
        <ele>111</ele>
        <time>2026-03-09T05:59:00.000Z</time>
      </trkpt>
      <trkpt lat="43.27809" lon="-1.50349">
        <ele>114</ele>
        <time>2026-03-09T05:59:05.000Z</time>
      </trkpt>
      <trkpt lat="43.27719" lon="-1.5035">
        <ele>126</ele>
        <time>2026-03-09T05:59:21.000Z</time>
      </trkpt>
      <trkpt lat="43.27706" lon="-1.50352">
        <ele>128</ele>
        <time>2026-03-09T05:59:23.000Z</time>
      </trkpt>
      <trkpt lat="43.27693" lon="-1.50358">
        <ele>129</ele>
        <time>2026-03-09T05:59:26.000Z</time>
      </trkpt>
      <trkpt lat="43.2768" lon="-1.50368">
        <ele>129</ele>
        <time>2026-03-09T05:59:28.000Z</time>
      </trkpt>
      <trkpt lat="43.27636" lon="-1.50414">
        <ele>129</ele>
        <time>2026-03-09T05:59:38.000Z</time>
      </trkpt>
      <trkpt lat="43.27623" lon="-1.50425">
        <ele>129</ele>
        <time>2026-03-09T05:59:41.000Z</time>
      </trkpt>
      <trkpt lat="43.27602" lon="-1.50435">
        <ele>131</ele>
        <time>2026-03-09T05:59:45.000Z</time>
      </trkpt>
      <trkpt lat="43.27557" lon="-1.50451">
        <ele>131</ele>
        <time>2026-03-09T05:59:53.000Z</time>
      </trkpt>
      <trkpt lat="43.27537" lon="-1.50453">
        <ele>131</ele>
        <time>2026-03-09T05:59:57.000Z</time>
      </trkpt>
      <trkpt lat="43.27519" lon="-1.50452">
        <ele>131</ele>
        <time>2026-03-09T06:00:00.000Z</time>
      </trkpt>
      <trkpt lat="43.27504" lon="-1.50449">
        <ele>132</ele>
        <time>2026-03-09T06:00:02.000Z</time>
      </trkpt>
      <trkpt lat="43.27489" lon="-1.5044">
        <ele>132</ele>
        <time>2026-03-09T06:00:05.000Z</time>
      </trkpt>
      <trkpt lat="43.27462" lon="-1.50416">
        <ele>131</ele>
        <time>2026-03-09T06:00:11.000Z</time>
      </trkpt>
      <trkpt lat="43.27452" lon="-1.50401">
        <ele>132</ele>
        <time>2026-03-09T06:00:14.000Z</time>
      </trkpt>
      <trkpt lat="43.27445" lon="-1.50388">
        <ele>132</ele>
        <time>2026-03-09T06:00:16.000Z</time>
      </trkpt>
      <trkpt lat="43.27437" lon="-1.50365">
        <ele>134</ele>
        <time>2026-03-09T06:00:19.000Z</time>
      </trkpt>
      <trkpt lat="43.27422" lon="-1.50311">
        <ele>139</ele>
        <time>2026-03-09T06:00:27.000Z</time>
      </trkpt>
      <trkpt lat="43.27421" lon="-1.50289">
        <ele>141</ele>
        <time>2026-03-09T06:00:29.000Z</time>
      </trkpt>
      <trkpt lat="43.27421" lon="-1.50261">
        <ele>144</ele>
        <time>2026-03-09T06:00:33.000Z</time>
      </trkpt>
      <trkpt lat="43.27427" lon="-1.50222">
        <ele>151</ele>
        <time>2026-03-09T06:00:38.000Z</time>
      </trkpt>
      <trkpt lat="43.27427" lon="-1.50201">
        <ele>154</ele>
        <time>2026-03-09T06:00:41.000Z</time>
      </trkpt>
      <trkpt lat="43.27422" lon="-1.50178">
        <ele>156</ele>
        <time>2026-03-09T06:00:44.000Z</time>
      </trkpt>
      <trkpt lat="43.27401" lon="-1.50122">
        <ele>155</ele>
        <time>2026-03-09T06:00:52.000Z</time>
      </trkpt>
      <trkpt lat="43.27398" lon="-1.50104">
        <ele>156</ele>
        <time>2026-03-09T06:00:55.000Z</time>
      </trkpt>
      <trkpt lat="43.27397" lon="-1.50084">
        <ele>158</ele>
        <time>2026-03-09T06:00:57.000Z</time>
      </trkpt>
      <trkpt lat="43.27398" lon="-1.50064">
        <ele>160</ele>
        <time>2026-03-09T06:01:00.000Z</time>
      </trkpt>
      <trkpt lat="43.27403" lon="-1.50042">
        <ele>162</ele>
        <time>2026-03-09T06:01:03.000Z</time>
      </trkpt>
      <trkpt lat="43.27425" lon="-1.49978">
        <ele>169</ele>
        <time>2026-03-09T06:01:12.000Z</time>
      </trkpt>
      <trkpt lat="43.27436" lon="-1.49954">
        <ele>171</ele>
        <time>2026-03-09T06:01:16.000Z</time>
      </trkpt>
      <trkpt lat="43.27468" lon="-1.49899">
        <ele>178</ele>
        <time>2026-03-09T06:01:25.000Z</time>
      </trkpt>
      <trkpt lat="43.27475" lon="-1.49884">
        <ele>180</ele>
        <time>2026-03-09T06:01:27.000Z</time>
      </trkpt>
      <trkpt lat="43.27491" lon="-1.49826">
        <ele>181</ele>
        <time>2026-03-09T06:01:35.000Z</time>
      </trkpt>
      <trkpt lat="43.27494" lon="-1.4981">
        <ele>182</ele>
        <time>2026-03-09T06:01:37.000Z</time>
      </trkpt>
      <trkpt lat="43.27493" lon="-1.49789">
        <ele>181</ele>
        <time>2026-03-09T06:01:40.000Z</time>
      </trkpt>
      <trkpt lat="43.27478" lon="-1.49711">
        <ele>177</ele>
        <time>2026-03-09T06:01:50.000Z</time>
      </trkpt>
      <trkpt lat="43.27474" lon="-1.49696">
        <ele>176</ele>
        <time>2026-03-09T06:01:52.000Z</time>
      </trkpt>
      <trkpt lat="43.27466" lon="-1.49678">
        <ele>175</ele>
        <time>2026-03-09T06:01:55.000Z</time>
      </trkpt>
      <trkpt lat="43.27456" lon="-1.49663">
        <ele>175</ele>
        <time>2026-03-09T06:01:58.000Z</time>
      </trkpt>
      <trkpt lat="43.27442" lon="-1.49649">
        <ele>175</ele>
        <time>2026-03-09T06:02:01.000Z</time>
      </trkpt>
      <trkpt lat="43.27333" lon="-1.49558">
        <ele>180</ele>
        <time>2026-03-09T06:02:24.000Z</time>
      </trkpt>
      <trkpt lat="43.27318" lon="-1.49546">
        <ele>179</ele>
        <time>2026-03-09T06:02:27.000Z</time>
      </trkpt>
      <trkpt lat="43.2727" lon="-1.49518">
        <ele>173</ele>
        <time>2026-03-09T06:02:36.000Z</time>
      </trkpt>
      <trkpt lat="43.27258" lon="-1.49506">
        <ele>172</ele>
        <time>2026-03-09T06:02:39.000Z</time>
      </trkpt>
      <trkpt lat="43.27198" lon="-1.49416">
        <ele>169</ele>
        <time>2026-03-09T06:02:54.000Z</time>
      </trkpt>
      <trkpt lat="43.27186" lon="-1.49407">
        <ele>166</ele>
        <time>2026-03-09T06:02:57.000Z</time>
      </trkpt>
      <trkpt lat="43.27082" lon="-1.49376">
        <ele>165</ele>
        <time>2026-03-09T06:03:16.000Z</time>
      </trkpt>
      <trkpt lat="43.2705" lon="-1.49381">
        <ele>170</ele>
        <time>2026-03-09T06:03:22.000Z</time>
      </trkpt>
      <trkpt lat="43.2704" lon="-1.49388">
        <ele>173</ele>
        <time>2026-03-09T06:03:24.000Z</time>
      </trkpt>
      <trkpt lat="43.27025" lon="-1.49429">
        <ele>177</ele>
        <time>2026-03-09T06:03:29.000Z</time>
      </trkpt>
      <trkpt lat="43.27023" lon="-1.49468">
        <ele>178</ele>
        <time>2026-03-09T06:03:35.000Z</time>
      </trkpt>
      <trkpt lat="43.27033" lon="-1.49519">
        <ele>173</ele>
        <time>2026-03-09T06:03:41.000Z</time>
      </trkpt>
      <trkpt lat="43.27033" lon="-1.49519">
        <ele>173</ele>
        <time>2026-03-09T06:03:41.000Z</time>
      </trkpt>
      <trkpt lat="43.27044" lon="-1.49574">
        <ele>166</ele>
        <time>2026-03-09T06:03:49.000Z</time>
      </trkpt>
      <trkpt lat="43.27048" lon="-1.49609">
        <ele>164</ele>
        <time>2026-03-09T06:03:53.000Z</time>
      </trkpt>
      <trkpt lat="43.27074" lon="-1.49653">
        <ele>158</ele>
        <time>2026-03-09T06:04:01.000Z</time>
      </trkpt>
      <trkpt lat="43.27074" lon="-1.49672">
        <ele>158</ele>
        <time>2026-03-09T06:04:03.000Z</time>
      </trkpt>
      <trkpt lat="43.27064" lon="-1.49707">
        <ele>157</ele>
        <time>2026-03-09T06:04:08.000Z</time>
      </trkpt>
      <trkpt lat="43.27062" lon="-1.49752">
        <ele>154</ele>
        <time>2026-03-09T06:04:14.000Z</time>
      </trkpt>
      <trkpt lat="43.27056" lon="-1.49771">
        <ele>154</ele>
        <time>2026-03-09T06:04:17.000Z</time>
      </trkpt>
      <trkpt lat="43.27037" lon="-1.49782">
        <ele>154</ele>
        <time>2026-03-09T06:04:20.000Z</time>
      </trkpt>
      <trkpt lat="43.27016" lon="-1.49791">
        <ele>153</ele>
        <time>2026-03-09T06:04:24.000Z</time>
      </trkpt>
      <trkpt lat="43.27001" lon="-1.49829">
        <ele>148</ele>
        <time>2026-03-09T06:04:30.000Z</time>
      </trkpt>
      <trkpt lat="43.26958" lon="-1.49884">
        <ele>148</ele>
        <time>2026-03-09T06:04:40.000Z</time>
      </trkpt>
      <trkpt lat="43.26913" lon="-1.49948">
        <ele>139</ele>
        <time>2026-03-09T06:04:52.000Z</time>
      </trkpt>
      <trkpt lat="43.26856" lon="-1.50006">
        <ele>138</ele>
        <time>2026-03-09T06:05:04.000Z</time>
      </trkpt>
      <trkpt lat="43.26859" lon="-1.50037">
        <ele>132</ele>
        <time>2026-03-09T06:05:08.000Z</time>
      </trkpt>
      <trkpt lat="43.26858" lon="-1.50064">
        <ele>128</ele>
        <time>2026-03-09T06:05:12.000Z</time>
      </trkpt>
      <trkpt lat="43.26847" lon="-1.50101">
        <ele>121</ele>
        <time>2026-03-09T06:05:17.000Z</time>
      </trkpt>
      <trkpt lat="43.26831" lon="-1.50133">
        <ele>115</ele>
        <time>2026-03-09T06:05:22.000Z</time>
      </trkpt>
      <trkpt lat="43.26765" lon="-1.50223">
        <ele>103</ele>
        <time>2026-03-09T06:05:39.000Z</time>
      </trkpt>
      <trkpt lat="43.26728" lon="-1.50244">
        <ele>100</ele>
        <time>2026-03-09T06:05:46.000Z</time>
      </trkpt>
      <trkpt lat="43.26708" lon="-1.50271">
        <ele>98</ele>
        <time>2026-03-09T06:05:51.000Z</time>
      </trkpt>
      <trkpt lat="43.2669" lon="-1.50284">
        <ele>98</ele>
        <time>2026-03-09T06:05:54.000Z</time>
      </trkpt>
      <trkpt lat="43.2668" lon="-1.50302">
        <ele>98</ele>
        <time>2026-03-09T06:05:57.000Z</time>
      </trkpt>
      <trkpt lat="43.26654" lon="-1.50334">
        <ele>98</ele>
        <time>2026-03-09T06:06:04.000Z</time>
      </trkpt>
      <trkpt lat="43.26647" lon="-1.50347">
        <ele>99</ele>
        <time>2026-03-09T06:06:06.000Z</time>
      </trkpt>
      <trkpt lat="43.26645" lon="-1.5036">
        <ele>99</ele>
        <time>2026-03-09T06:06:07.000Z</time>
      </trkpt>
      <trkpt lat="43.26644" lon="-1.50371">
        <ele>99</ele>
        <time>2026-03-09T06:06:09.000Z</time>
      </trkpt>
      <trkpt lat="43.26658" lon="-1.50413">
        <ele>99</ele>
        <time>2026-03-09T06:06:15.000Z</time>
      </trkpt>
      <trkpt lat="43.26673" lon="-1.50427">
        <ele>99</ele>
        <time>2026-03-09T06:06:18.000Z</time>
      </trkpt>
      <trkpt lat="43.26735" lon="-1.50442">
        <ele>98</ele>
        <time>2026-03-09T06:06:29.000Z</time>
      </trkpt>
      <trkpt lat="43.26758" lon="-1.50438">
        <ele>97</ele>
        <time>2026-03-09T06:06:33.000Z</time>
      </trkpt>
      <trkpt lat="43.26777" lon="-1.50428">
        <ele>96</ele>
        <time>2026-03-09T06:06:37.000Z</time>
      </trkpt>
      <trkpt lat="43.26823" lon="-1.50412">
        <ele>93</ele>
        <time>2026-03-09T06:06:45.000Z</time>
      </trkpt>
      <trkpt lat="43.26888" lon="-1.50411">
        <ele>91</ele>
        <time>2026-03-09T06:06:57.000Z</time>
      </trkpt>
      <trkpt lat="43.26951" lon="-1.50421">
        <ele>91</ele>
        <time>2026-03-09T06:07:08.000Z</time>
      </trkpt>
      <trkpt lat="43.26971" lon="-1.50436">
        <ele>91</ele>
        <time>2026-03-09T06:07:12.000Z</time>
      </trkpt>
      <trkpt lat="43.27004" lon="-1.50476">
        <ele>93</ele>
        <time>2026-03-09T06:07:20.000Z</time>
      </trkpt>
      <trkpt lat="43.27044" lon="-1.50516">
        <ele>95</ele>
        <time>2026-03-09T06:07:29.000Z</time>
      </trkpt>
      <trkpt lat="43.27044" lon="-1.50516">
        <ele>95</ele>
        <time>2026-03-09T06:07:29.000Z</time>
      </trkpt>
      <trkpt lat="43.27081" lon="-1.50536">
        <ele>96</ele>
        <time>2026-03-09T06:07:36.000Z</time>
      </trkpt>
      <trkpt lat="43.27146" lon="-1.50547">
        <ele>97</ele>
        <time>2026-03-09T06:07:48.000Z</time>
      </trkpt>
      <trkpt lat="43.27179" lon="-1.50546">
        <ele>96</ele>
        <time>2026-03-09T06:07:54.000Z</time>
      </trkpt>
      <trkpt lat="43.27198" lon="-1.50536">
        <ele>94</ele>
        <time>2026-03-09T06:07:57.000Z</time>
      </trkpt>
      <trkpt lat="43.27252" lon="-1.50502">
        <ele>90</ele>
        <time>2026-03-09T06:08:08.000Z</time>
      </trkpt>
      <trkpt lat="43.27272" lon="-1.50492">
        <ele>89</ele>
        <time>2026-03-09T06:08:12.000Z</time>
      </trkpt>
      <trkpt lat="43.27322" lon="-1.50473">
        <ele>88</ele>
        <time>2026-03-09T06:08:21.000Z</time>
      </trkpt>
      <trkpt lat="43.27349" lon="-1.50459">
        <ele>93</ele>
        <time>2026-03-09T06:08:26.000Z</time>
      </trkpt>
      <trkpt lat="43.2736" lon="-1.50456">
        <ele>95</ele>
        <time>2026-03-09T06:08:28.000Z</time>
      </trkpt>
      <trkpt lat="43.27375" lon="-1.50457">
        <ele>99</ele>
        <time>2026-03-09T06:08:31.000Z</time>
      </trkpt>
      <trkpt lat="43.27445" lon="-1.5052">
        <ele>102</ele>
        <time>2026-03-09T06:08:45.000Z</time>
      </trkpt>
      <trkpt lat="43.2746" lon="-1.50529">
        <ele>103</ele>
        <time>2026-03-09T06:08:48.000Z</time>
      </trkpt>
      <trkpt lat="43.27478" lon="-1.50535">
        <ele>104</ele>
        <time>2026-03-09T06:08:52.000Z</time>
      </trkpt>
      <trkpt lat="43.27494" lon="-1.50537">
        <ele>105</ele>
        <time>2026-03-09T06:08:55.000Z</time>
      </trkpt>
      <trkpt lat="43.27515" lon="-1.50535">
        <ele>107</ele>
        <time>2026-03-09T06:08:58.000Z</time>
      </trkpt>
      <trkpt lat="43.27566" lon="-1.50524">
        <ele>111</ele>
        <time>2026-03-09T06:09:07.000Z</time>
      </trkpt>
      <trkpt lat="43.276" lon="-1.50511">
        <ele>112</ele>
        <time>2026-03-09T06:09:14.000Z</time>
      </trkpt>
      <trkpt lat="43.2762" lon="-1.50499">
        <ele>111</ele>
        <time>2026-03-09T06:09:18.000Z</time>
      </trkpt>
      <trkpt lat="43.27638" lon="-1.50484">
        <ele>111</ele>
        <time>2026-03-09T06:09:21.000Z</time>
      </trkpt>
      <trkpt lat="43.27672" lon="-1.50445">
        <ele>114</ele>
        <time>2026-03-09T06:09:29.000Z</time>
      </trkpt>
      <trkpt lat="43.27702" lon="-1.50396">
        <ele>119</ele>
        <time>2026-03-09T06:09:38.000Z</time>
      </trkpt>
      <trkpt lat="43.2771" lon="-1.50389">
        <ele>118</ele>
        <time>2026-03-09T06:09:39.000Z</time>
      </trkpt>
      <trkpt lat="43.27721" lon="-1.50384">
        <ele>117</ele>
        <time>2026-03-09T06:09:41.000Z</time>
      </trkpt>
      <trkpt lat="43.27737" lon="-1.50382">
        <ele>115</ele>
        <time>2026-03-09T06:09:44.000Z</time>
      </trkpt>
      <trkpt lat="43.27756" lon="-1.50382">
        <ele>111</ele>
        <time>2026-03-09T06:09:48.000Z</time>
      </trkpt>
      <trkpt lat="43.27767" lon="-1.50384">
        <ele>110</ele>
        <time>2026-03-09T06:09:49.000Z</time>
      </trkpt>
      <trkpt lat="43.27781" lon="-1.5039">
        <ele>108</ele>
        <time>2026-03-09T06:09:52.000Z</time>
      </trkpt>
      <trkpt lat="43.27791" lon="-1.50393">
        <ele>107</ele>
        <time>2026-03-09T06:09:54.000Z</time>
      </trkpt>
      <trkpt lat="43.27798" lon="-1.50388">
        <ele>107</ele>
        <time>2026-03-09T06:09:55.000Z</time>
      </trkpt>
      <trkpt lat="43.27803" lon="-1.50374">
        <ele>110</ele>
        <time>2026-03-09T06:09:57.000Z</time>
      </trkpt>
      <trkpt lat="43.27809" lon="-1.50349">
        <ele>114</ele>
        <time>2026-03-09T06:10:01.000Z</time>
      </trkpt>
      <trkpt lat="43.27833" lon="-1.50356">
        <ele>111</ele>
        <time>2026-03-09T06:10:05.000Z</time>
      </trkpt>
      <trkpt lat="43.27856" lon="-1.50365">
        <ele>108</ele>
        <time>2026-03-09T06:10:09.000Z</time>
      </trkpt>
      <trkpt lat="43.27878" lon="-1.5037">
        <ele>106</ele>
        <time>2026-03-09T06:10:13.000Z</time>
      </trkpt>
      <trkpt lat="43.27925" lon="-1.50377">
        <ele>104</ele>
        <time>2026-03-09T06:10:22.000Z</time>
      </trkpt>
      <trkpt lat="43.27941" lon="-1.50383">
        <ele>104</ele>
        <time>2026-03-09T06:10:25.000Z</time>
      </trkpt>
      <trkpt lat="43.27983" lon="-1.50409">
        <ele>102</ele>
        <time>2026-03-09T06:10:33.000Z</time>
      </trkpt>
      <trkpt lat="43.28114" lon="-1.50498">
        <ele>103</ele>
        <time>2026-03-09T06:10:59.000Z</time>
      </trkpt>
      <trkpt lat="43.28155" lon="-1.50519">
        <ele>103</ele>
        <time>2026-03-09T06:11:07.000Z</time>
      </trkpt>
      <trkpt lat="43.28182" lon="-1.50527">
        <ele>103</ele>
        <time>2026-03-09T06:11:12.000Z</time>
      </trkpt>
      <trkpt lat="43.28462" lon="-1.50571">
        <ele>95</ele>
        <time>2026-03-09T06:12:02.000Z</time>
      </trkpt>
      <trkpt lat="43.28462" lon="-1.50567">
        <ele>95</ele>
        <time>2026-03-09T06:12:02.000Z</time>
      </trkpt>
      <trkpt lat="43.28467" lon="-1.50559">
        <ele>95</ele>
        <time>2026-03-09T06:12:04.000Z</time>
      </trkpt>
      <trkpt lat="43.28474" lon="-1.50557">
        <ele>95</ele>
        <time>2026-03-09T06:12:05.000Z</time>
      </trkpt>
      <trkpt lat="43.28477" lon="-1.50559">
        <ele>95</ele>
        <time>2026-03-09T06:12:06.000Z</time>
      </trkpt>
      <trkpt lat="43.28482" lon="-1.50565">
        <ele>95</ele>
        <time>2026-03-09T06:12:07.000Z</time>
      </trkpt>
      <trkpt lat="43.28484" lon="-1.50575">
        <ele>95</ele>
        <time>2026-03-09T06:12:08.000Z</time>
      </trkpt>
      <trkpt lat="43.2859" lon="-1.50594">
        <ele>93</ele>
        <time>2026-03-09T06:12:27.000Z</time>
      </trkpt>
      <trkpt lat="43.28674" lon="-1.50592">
        <ele>88</ele>
        <time>2026-03-09T06:12:42.000Z</time>
      </trkpt>
      <trkpt lat="43.28689" lon="-1.50583">
        <ele>88</ele>
        <time>2026-03-09T06:12:45.000Z</time>
      </trkpt>
      <trkpt lat="43.28693" lon="-1.50578">
        <ele>89</ele>
        <time>2026-03-09T06:12:46.000Z</time>
      </trkpt>
      <trkpt lat="43.287" lon="-1.50574">
        <ele>89</ele>
        <time>2026-03-09T06:12:47.000Z</time>
      </trkpt>
      <trkpt lat="43.28707" lon="-1.50576">
        <ele>88</ele>
        <time>2026-03-09T06:12:48.000Z</time>
      </trkpt>
      <trkpt lat="43.28712" lon="-1.50585">
        <ele>86</ele>
        <time>2026-03-09T06:12:50.000Z</time>
      </trkpt>
      <trkpt lat="43.28731" lon="-1.50595">
        <ele>84</ele>
        <time>2026-03-09T06:12:54.000Z</time>
      </trkpt>
      <trkpt lat="43.28846" lon="-1.50591">
        <ele>79</ele>
        <time>2026-03-09T06:13:14.000Z</time>
      </trkpt>
      <trkpt lat="43.2891" lon="-1.50581">
        <ele>77</ele>
        <time>2026-03-09T06:13:26.000Z</time>
      </trkpt>
      <trkpt lat="43.28933" lon="-1.50576">
        <ele>77</ele>
        <time>2026-03-09T06:13:30.000Z</time>
      </trkpt>
      <trkpt lat="43.28957" lon="-1.50561">
        <ele>78</ele>
        <time>2026-03-09T06:13:34.000Z</time>
      </trkpt>
      <trkpt lat="43.28959" lon="-1.50556">
        <ele>78</ele>
        <time>2026-03-09T06:13:35.000Z</time>
      </trkpt>
      <trkpt lat="43.28965" lon="-1.5055">
        <ele>79</ele>
        <time>2026-03-09T06:13:36.000Z</time>
      </trkpt>
      <trkpt lat="43.28969" lon="-1.50549">
        <ele>79</ele>
        <time>2026-03-09T06:13:37.000Z</time>
      </trkpt>
      <trkpt lat="43.28972" lon="-1.50549">
        <ele>79</ele>
        <time>2026-03-09T06:13:38.000Z</time>
      </trkpt>
      <trkpt lat="43.28979" lon="-1.50555">
        <ele>78</ele>
        <time>2026-03-09T06:13:39.000Z</time>
      </trkpt>
      <trkpt lat="43.28998" lon="-1.50564">
        <ele>77</ele>
        <time>2026-03-09T06:13:43.000Z</time>
      </trkpt>
      <trkpt lat="43.2909" lon="-1.50558">
        <ele>72</ele>
        <time>2026-03-09T06:13:59.000Z</time>
      </trkpt>
      <trkpt lat="43.29106" lon="-1.5055">
        <ele>72</ele>
        <time>2026-03-09T06:14:02.000Z</time>
      </trkpt>
      <trkpt lat="43.29113" lon="-1.50545">
        <ele>72</ele>
        <time>2026-03-09T06:14:04.000Z</time>
      </trkpt>
      <trkpt lat="43.29117" lon="-1.50545">
        <ele>72</ele>
        <time>2026-03-09T06:14:04.000Z</time>
      </trkpt>
      <trkpt lat="43.29124" lon="-1.5055">
        <ele>72</ele>
        <time>2026-03-09T06:14:06.000Z</time>
      </trkpt>
      <trkpt lat="43.29126" lon="-1.50555">
        <ele>71</ele>
        <time>2026-03-09T06:14:06.000Z</time>
      </trkpt>
      <trkpt lat="43.29126" lon="-1.50566">
        <ele>71</ele>
        <time>2026-03-09T06:14:08.000Z</time>
      </trkpt>
      <trkpt lat="43.29125" lon="-1.5057">
        <ele>71</ele>
        <time>2026-03-09T06:14:08.000Z</time>
      </trkpt>
      <trkpt lat="43.29122" lon="-1.50574">
        <ele>71</ele>
        <time>2026-03-09T06:14:09.000Z</time>
      </trkpt>
      <trkpt lat="43.29102" lon="-1.50588">
        <ele>72</ele>
        <time>2026-03-09T06:14:13.000Z</time>
      </trkpt>
      <trkpt lat="43.29079" lon="-1.50638">
        <ele>78</ele>
        <time>2026-03-09T06:14:21.000Z</time>
      </trkpt>
      <trkpt lat="43.29069" lon="-1.50656">
        <ele>80</ele>
        <time>2026-03-09T06:14:24.000Z</time>
      </trkpt>
      <trkpt lat="43.29057" lon="-1.50675">
        <ele>82</ele>
        <time>2026-03-09T06:14:27.000Z</time>
      </trkpt>
      <trkpt lat="43.29043" lon="-1.5069">
        <ele>86</ele>
        <time>2026-03-09T06:14:30.000Z</time>
      </trkpt>
      <trkpt lat="43.29025" lon="-1.50706">
        <ele>90</ele>
        <time>2026-03-09T06:14:34.000Z</time>
      </trkpt>
      <trkpt lat="43.2899" lon="-1.50723">
        <ele>91</ele>
        <time>2026-03-09T06:14:41.000Z</time>
      </trkpt>
      <trkpt lat="43.28939" lon="-1.50734">
        <ele>88</ele>
        <time>2026-03-09T06:14:50.000Z</time>
      </trkpt>
      <trkpt lat="43.28907" lon="-1.50744">
        <ele>86</ele>
        <time>2026-03-09T06:14:56.000Z</time>
      </trkpt>
      <trkpt lat="43.28854" lon="-1.5077">
        <ele>84</ele>
        <time>2026-03-09T06:15:06.000Z</time>
      </trkpt>
      <trkpt lat="43.28837" lon="-1.50781">
        <ele>83</ele>
        <time>2026-03-09T06:15:09.000Z</time>
      </trkpt>
      <trkpt lat="43.28824" lon="-1.50794">
        <ele>85</ele>
        <time>2026-03-09T06:15:12.000Z</time>
      </trkpt>
      <trkpt lat="43.28814" lon="-1.50808">
        <ele>86</ele>
        <time>2026-03-09T06:15:14.000Z</time>
      </trkpt>
      <trkpt lat="43.28805" lon="-1.50826">
        <ele>89</ele>
        <time>2026-03-09T06:15:17.000Z</time>
      </trkpt>
      <trkpt lat="43.28798" lon="-1.50851">
        <ele>90</ele>
        <time>2026-03-09T06:15:21.000Z</time>
      </trkpt>
      <trkpt lat="43.28795" lon="-1.50873">
        <ele>91</ele>
        <time>2026-03-09T06:15:23.000Z</time>
      </trkpt>
      <trkpt lat="43.28797" lon="-1.509">
        <ele>93</ele>
        <time>2026-03-09T06:15:27.000Z</time>
      </trkpt>
      <trkpt lat="43.28815" lon="-1.50985">
        <ele>100</ele>
        <time>2026-03-09T06:15:38.000Z</time>
      </trkpt>
      <trkpt lat="43.28817" lon="-1.51011">
        <ele>101</ele>
        <time>2026-03-09T06:15:42.000Z</time>
      </trkpt>
      <trkpt lat="43.28812" lon="-1.5105">
        <ele>105</ele>
        <time>2026-03-09T06:15:47.000Z</time>
      </trkpt>
      <trkpt lat="43.28806" lon="-1.51081">
        <ele>107</ele>
        <time>2026-03-09T06:15:51.000Z</time>
      </trkpt>
      <trkpt lat="43.28793" lon="-1.51117">
        <ele>108</ele>
        <time>2026-03-09T06:15:56.000Z</time>
      </trkpt>
      <trkpt lat="43.28782" lon="-1.51135">
        <ele>108</ele>
        <time>2026-03-09T06:15:59.000Z</time>
      </trkpt>
      <trkpt lat="43.28718" lon="-1.51215">
        <ele>113</ele>
        <time>2026-03-09T06:16:15.000Z</time>
      </trkpt>
      <trkpt lat="43.28702" lon="-1.51232">
        <ele>115</ele>
        <time>2026-03-09T06:16:18.000Z</time>
      </trkpt>
      <trkpt lat="43.28702" lon="-1.51232">
        <ele>115</ele>
        <time>2026-03-09T06:16:18.000Z</time>
      </trkpt>
      <trkpt lat="43.28694" lon="-1.51241">
        <ele>115</ele>
        <time>2026-03-09T06:16:20.000Z</time>
      </trkpt>
      <trkpt lat="43.28673" lon="-1.51256">
        <ele>115</ele>
        <time>2026-03-09T06:16:24.000Z</time>
      </trkpt>
      <trkpt lat="43.28658" lon="-1.51263">
        <ele>115</ele>
        <time>2026-03-09T06:16:27.000Z</time>
      </trkpt>
      <trkpt lat="43.28635" lon="-1.51268">
        <ele>117</ele>
        <time>2026-03-09T06:16:31.000Z</time>
      </trkpt>
      <trkpt lat="43.28582" lon="-1.5127">
        <ele>121</ele>
        <time>2026-03-09T06:16:41.000Z</time>
      </trkpt>
      <trkpt lat="43.2856" lon="-1.51276">
        <ele>122</ele>
        <time>2026-03-09T06:16:45.000Z</time>
      </trkpt>
      <trkpt lat="43.28518" lon="-1.51294">
        <ele>127</ele>
        <time>2026-03-09T06:16:53.000Z</time>
      </trkpt>
      <trkpt lat="43.28491" lon="-1.51299">
        <ele>130</ele>
        <time>2026-03-09T06:16:58.000Z</time>
      </trkpt>
      <trkpt lat="43.28446" lon="-1.51298">
        <ele>133</ele>
        <time>2026-03-09T06:17:06.000Z</time>
      </trkpt>
      <trkpt lat="43.2841" lon="-1.51302">
        <ele>137</ele>
        <time>2026-03-09T06:17:12.000Z</time>
      </trkpt>
      <trkpt lat="43.28393" lon="-1.51307">
        <ele>138</ele>
        <time>2026-03-09T06:17:15.000Z</time>
      </trkpt>
      <trkpt lat="43.28332" lon="-1.51336">
        <ele>144</ele>
        <time>2026-03-09T06:17:27.000Z</time>
      </trkpt>
      <trkpt lat="43.2828" lon="-1.51345">
        <ele>145</ele>
        <time>2026-03-09T06:17:36.000Z</time>
      </trkpt>
      <trkpt lat="43.28266" lon="-1.51352">
        <ele>146</ele>
        <time>2026-03-09T06:17:38.000Z</time>
      </trkpt>
      <trkpt lat="43.28247" lon="-1.51364">
        <ele>148</ele>
        <time>2026-03-09T06:17:42.000Z</time>
      </trkpt>
      <trkpt lat="43.28219" lon="-1.51389">
        <ele>151</ele>
        <time>2026-03-09T06:17:48.000Z</time>
      </trkpt>
      <trkpt lat="43.282" lon="-1.51402">
        <ele>152</ele>
        <time>2026-03-09T06:17:52.000Z</time>
      </trkpt>
      <trkpt lat="43.28137" lon="-1.51416">
        <ele>150</ele>
        <time>2026-03-09T06:18:03.000Z</time>
      </trkpt>
      <trkpt lat="43.28117" lon="-1.51428">
        <ele>150</ele>
        <time>2026-03-09T06:18:07.000Z</time>
      </trkpt>
      <trkpt lat="43.28103" lon="-1.51443">
        <ele>151</ele>
        <time>2026-03-09T06:18:10.000Z</time>
      </trkpt>
      <trkpt lat="43.28017" lon="-1.51563">
        <ele>159</ele>
        <time>2026-03-09T06:18:32.000Z</time>
      </trkpt>
      <trkpt lat="43.28004" lon="-1.51574">
        <ele>159</ele>
        <time>2026-03-09T06:18:35.000Z</time>
      </trkpt>
      <trkpt lat="43.27951" lon="-1.51607">
        <ele>158</ele>
        <time>2026-03-09T06:18:45.000Z</time>
      </trkpt>
      <trkpt lat="43.27939" lon="-1.51621">
        <ele>157</ele>
        <time>2026-03-09T06:18:48.000Z</time>
      </trkpt>
      <trkpt lat="43.2793" lon="-1.51634">
        <ele>157</ele>
        <time>2026-03-09T06:18:50.000Z</time>
      </trkpt>
      <trkpt lat="43.2792" lon="-1.51654">
        <ele>157</ele>
        <time>2026-03-09T06:18:53.000Z</time>
      </trkpt>
      <trkpt lat="43.27914" lon="-1.51676">
        <ele>157</ele>
        <time>2026-03-09T06:18:57.000Z</time>
      </trkpt>
      <trkpt lat="43.27909" lon="-1.51732">
        <ele>157</ele>
        <time>2026-03-09T06:19:04.000Z</time>
      </trkpt>
      <trkpt lat="43.27905" lon="-1.51751">
        <ele>156</ele>
        <time>2026-03-09T06:19:06.000Z</time>
      </trkpt>
      <trkpt lat="43.27898" lon="-1.51771">
        <ele>155</ele>
        <time>2026-03-09T06:19:09.000Z</time>
      </trkpt>
      <trkpt lat="43.2789" lon="-1.51788">
        <ele>155</ele>
        <time>2026-03-09T06:19:12.000Z</time>
      </trkpt>
      <trkpt lat="43.27849" lon="-1.51846">
        <ele>154</ele>
        <time>2026-03-09T06:19:22.000Z</time>
      </trkpt>
      <trkpt lat="43.27771" lon="-1.5197">
        <ele>155</ele>
        <time>2026-03-09T06:19:44.000Z</time>
      </trkpt>
      <trkpt lat="43.27724" lon="-1.52038">
        <ele>155</ele>
        <time>2026-03-09T06:19:56.000Z</time>
      </trkpt>
      <trkpt lat="43.27676" lon="-1.52098">
        <ele>157</ele>
        <time>2026-03-09T06:20:07.000Z</time>
      </trkpt>
      <trkpt lat="43.27616" lon="-1.52165">
        <ele>163</ele>
        <time>2026-03-09T06:20:21.000Z</time>
      </trkpt>
      <trkpt lat="43.27605" lon="-1.5218">
        <ele>164</ele>
        <time>2026-03-09T06:20:24.000Z</time>
      </trkpt>
      <trkpt lat="43.27589" lon="-1.52215">
        <ele>165</ele>
        <time>2026-03-09T06:20:29.000Z</time>
      </trkpt>
      <trkpt lat="43.27577" lon="-1.52261">
        <ele>166</ele>
        <time>2026-03-09T06:20:35.000Z</time>
      </trkpt>
      <trkpt lat="43.27558" lon="-1.52364">
        <ele>164</ele>
        <time>2026-03-09T06:20:49.000Z</time>
      </trkpt>
      <trkpt lat="43.27544" lon="-1.52446">
        <ele>163</ele>
        <time>2026-03-09T06:21:00.000Z</time>
      </trkpt>
      <trkpt lat="43.27541" lon="-1.52477">
        <ele>162</ele>
        <time>2026-03-09T06:21:04.000Z</time>
      </trkpt>
      <trkpt lat="43.27541" lon="-1.52515">
        <ele>162</ele>
        <time>2026-03-09T06:21:09.000Z</time>
      </trkpt>
      <trkpt lat="43.27547" lon="-1.52617">
        <ele>162</ele>
        <time>2026-03-09T06:21:22.000Z</time>
      </trkpt>
      <trkpt lat="43.27546" lon="-1.52674">
        <ele>161</ele>
        <time>2026-03-09T06:21:30.000Z</time>
      </trkpt>
      <trkpt lat="43.27533" lon="-1.52736">
        <ele>161</ele>
        <time>2026-03-09T06:21:38.000Z</time>
      </trkpt>
      <trkpt lat="43.27518" lon="-1.52795">
        <ele>161</ele>
        <time>2026-03-09T06:21:46.000Z</time>
      </trkpt>
      <trkpt lat="43.27507" lon="-1.52837">
        <ele>162</ele>
        <time>2026-03-09T06:21:52.000Z</time>
      </trkpt>
      <trkpt lat="43.27497" lon="-1.52864">
        <ele>163</ele>
        <time>2026-03-09T06:21:56.000Z</time>
      </trkpt>
      <trkpt lat="43.27472" lon="-1.529">
        <ele>165</ele>
        <time>2026-03-09T06:22:02.000Z</time>
      </trkpt>
      <trkpt lat="43.27457" lon="-1.52913">
        <ele>166</ele>
        <time>2026-03-09T06:22:06.000Z</time>
      </trkpt>
      <trkpt lat="43.27418" lon="-1.52935">
        <ele>168</ele>
        <time>2026-03-09T06:22:13.000Z</time>
      </trkpt>
      <trkpt lat="43.27381" lon="-1.52948">
        <ele>170</ele>
        <time>2026-03-09T06:22:20.000Z</time>
      </trkpt>
      <trkpt lat="43.27358" lon="-1.52963">
        <ele>171</ele>
        <time>2026-03-09T06:22:24.000Z</time>
      </trkpt>
      <trkpt lat="43.27348" lon="-1.52976">
        <ele>173</ele>
        <time>2026-03-09T06:22:27.000Z</time>
      </trkpt>
      <trkpt lat="43.27284" lon="-1.53081">
        <ele>179</ele>
        <time>2026-03-09T06:22:45.000Z</time>
      </trkpt>
      <trkpt lat="43.27224" lon="-1.53163">
        <ele>179</ele>
        <time>2026-03-09T06:23:00.000Z</time>
      </trkpt>
      <trkpt lat="43.27201" lon="-1.53206">
        <ele>179</ele>
        <time>2026-03-09T06:23:07.000Z</time>
      </trkpt>
      <trkpt lat="43.27186" lon="-1.53243">
        <ele>179</ele>
        <time>2026-03-09T06:23:12.000Z</time>
      </trkpt>
      <trkpt lat="43.27147" lon="-1.53369">
        <ele>180</ele>
        <time>2026-03-09T06:23:30.000Z</time>
      </trkpt>
      <trkpt lat="43.27136" lon="-1.53396">
        <ele>181</ele>
        <time>2026-03-09T06:23:34.000Z</time>
      </trkpt>
      <trkpt lat="43.27089" lon="-1.53466">
        <ele>186</ele>
        <time>2026-03-09T06:23:46.000Z</time>
      </trkpt>
      <trkpt lat="43.27013" lon="-1.53646">
        <ele>191</ele>
        <time>2026-03-09T06:24:13.000Z</time>
      </trkpt>
      <trkpt lat="43.27003" lon="-1.53696">
        <ele>190</ele>
        <time>2026-03-09T06:24:20.000Z</time>
      </trkpt>
      <trkpt lat="43.26989" lon="-1.53736">
        <ele>193</ele>
        <time>2026-03-09T06:24:26.000Z</time>
      </trkpt>
      <trkpt lat="43.26979" lon="-1.53783">
        <ele>198</ele>
        <time>2026-03-09T06:24:32.000Z</time>
      </trkpt>
      <trkpt lat="43.26979" lon="-1.53812">
        <ele>201</ele>
        <time>2026-03-09T06:24:36.000Z</time>
      </trkpt>
      <trkpt lat="43.26975" lon="-1.5385">
        <ele>204</ele>
        <time>2026-03-09T06:24:41.000Z</time>
      </trkpt>
      <trkpt lat="43.26963" lon="-1.53914">
        <ele>208</ele>
        <time>2026-03-09T06:24:49.000Z</time>
      </trkpt>
      <trkpt lat="43.26952" lon="-1.5395">
        <ele>208</ele>
        <time>2026-03-09T06:24:54.000Z</time>
      </trkpt>
      <trkpt lat="43.26947" lon="-1.53976">
        <ele>208</ele>
        <time>2026-03-09T06:24:58.000Z</time>
      </trkpt>
      <trkpt lat="43.26943" lon="-1.54001">
        <ele>209</ele>
        <time>2026-03-09T06:25:01.000Z</time>
      </trkpt>
      <trkpt lat="43.26941" lon="-1.54053">
        <ele>210</ele>
        <time>2026-03-09T06:25:08.000Z</time>
      </trkpt>
      <trkpt lat="43.26934" lon="-1.541">
        <ele>211</ele>
        <time>2026-03-09T06:25:14.000Z</time>
      </trkpt>
      <trkpt lat="43.26934" lon="-1.54129">
        <ele>210</ele>
        <time>2026-03-09T06:25:18.000Z</time>
      </trkpt>
      <trkpt lat="43.26944" lon="-1.54154">
        <ele>208</ele>
        <time>2026-03-09T06:25:21.000Z</time>
      </trkpt>
      <trkpt lat="43.26949" lon="-1.5416">
        <ele>208</ele>
        <time>2026-03-09T06:25:23.000Z</time>
      </trkpt>
      <trkpt lat="43.26963" lon="-1.54171">
        <ele>206</ele>
        <time>2026-03-09T06:25:25.000Z</time>
      </trkpt>
      <trkpt lat="43.26975" lon="-1.54176">
        <ele>204</ele>
        <time>2026-03-09T06:25:28.000Z</time>
      </trkpt>
      <trkpt lat="43.26996" lon="-1.54173">
        <ele>202</ele>
        <time>2026-03-09T06:25:31.000Z</time>
      </trkpt>
      <trkpt lat="43.27027" lon="-1.5416">
        <ele>199</ele>
        <time>2026-03-09T06:25:37.000Z</time>
      </trkpt>
      <trkpt lat="43.27045" lon="-1.54161">
        <ele>197</ele>
        <time>2026-03-09T06:25:40.000Z</time>
      </trkpt>
      <trkpt lat="43.27129" lon="-1.54198">
        <ele>187</ele>
        <time>2026-03-09T06:25:56.000Z</time>
      </trkpt>
      <trkpt lat="43.27166" lon="-1.54219">
        <ele>185</ele>
        <time>2026-03-09T06:26:03.000Z</time>
      </trkpt>
      <trkpt lat="43.27221" lon="-1.54259">
        <ele>190</ele>
        <time>2026-03-09T06:26:14.000Z</time>
      </trkpt>
      <trkpt lat="43.27234" lon="-1.54274">
        <ele>192</ele>
        <time>2026-03-09T06:26:17.000Z</time>
      </trkpt>
      <trkpt lat="43.27258" lon="-1.54326">
        <ele>193</ele>
        <time>2026-03-09T06:26:25.000Z</time>
      </trkpt>
      <trkpt lat="43.27274" lon="-1.54352">
        <ele>194</ele>
        <time>2026-03-09T06:26:30.000Z</time>
      </trkpt>
      <trkpt lat="43.27317" lon="-1.54403">
        <ele>194</ele>
        <time>2026-03-09T06:26:40.000Z</time>
      </trkpt>
      <trkpt lat="43.2734" lon="-1.54422">
        <ele>193</ele>
        <time>2026-03-09T06:26:45.000Z</time>
      </trkpt>
      <trkpt lat="43.27366" lon="-1.54431">
        <ele>189</ele>
        <time>2026-03-09T06:26:49.000Z</time>
      </trkpt>
      <trkpt lat="43.27393" lon="-1.54435">
        <ele>187</ele>
        <time>2026-03-09T06:26:54.000Z</time>
      </trkpt>
      <trkpt lat="43.27414" lon="-1.54432">
        <ele>186</ele>
        <time>2026-03-09T06:26:58.000Z</time>
      </trkpt>
      <trkpt lat="43.27426" lon="-1.54427">
        <ele>184</ele>
        <time>2026-03-09T06:27:00.000Z</time>
      </trkpt>
      <trkpt lat="43.27482" lon="-1.54394">
        <ele>177</ele>
        <time>2026-03-09T06:27:11.000Z</time>
      </trkpt>
      <trkpt lat="43.27497" lon="-1.54387">
        <ele>174</ele>
        <time>2026-03-09T06:27:14.000Z</time>
      </trkpt>
      <trkpt lat="43.27507" lon="-1.54386">
        <ele>173</ele>
        <time>2026-03-09T06:27:16.000Z</time>
      </trkpt>
      <trkpt lat="43.2752" lon="-1.5439">
        <ele>172</ele>
        <time>2026-03-09T06:27:18.000Z</time>
      </trkpt>
      <trkpt lat="43.27566" lon="-1.54426">
        <ele>169</ele>
        <time>2026-03-09T06:27:27.000Z</time>
      </trkpt>
      <trkpt lat="43.27583" lon="-1.54443">
        <ele>169</ele>
        <time>2026-03-09T06:27:31.000Z</time>
      </trkpt>
      <trkpt lat="43.27602" lon="-1.5449">
        <ele>170</ele>
        <time>2026-03-09T06:27:38.000Z</time>
      </trkpt>
      <trkpt lat="43.27617" lon="-1.54523">
        <ele>167</ele>
        <time>2026-03-09T06:27:43.000Z</time>
      </trkpt>
      <trkpt lat="43.27639" lon="-1.54546">
        <ele>164</ele>
        <time>2026-03-09T06:27:48.000Z</time>
      </trkpt>
      <trkpt lat="43.27684" lon="-1.54571">
        <ele>163</ele>
        <time>2026-03-09T06:27:57.000Z</time>
      </trkpt>
      <trkpt lat="43.27715" lon="-1.54593">
        <ele>163</ele>
        <time>2026-03-09T06:28:03.000Z</time>
      </trkpt>
      <trkpt lat="43.27806" lon="-1.5468">
        <ele>162</ele>
        <time>2026-03-09T06:28:23.000Z</time>
      </trkpt>
      <trkpt lat="43.27832" lon="-1.5471">
        <ele>164</ele>
        <time>2026-03-09T06:28:29.000Z</time>
      </trkpt>
      <trkpt lat="43.27927" lon="-1.54851">
        <ele>180</ele>
        <time>2026-03-09T06:28:54.000Z</time>
      </trkpt>
      <trkpt lat="43.27959" lon="-1.54907">
        <ele>182</ele>
        <time>2026-03-09T06:29:03.000Z</time>
      </trkpt>
      <trkpt lat="43.27972" lon="-1.54917">
        <ele>181</ele>
        <time>2026-03-09T06:29:05.000Z</time>
      </trkpt>
      <trkpt lat="43.27984" lon="-1.5492">
        <ele>181</ele>
        <time>2026-03-09T06:29:08.000Z</time>
      </trkpt>
      <trkpt lat="43.28036" lon="-1.54907">
        <ele>179</ele>
        <time>2026-03-09T06:29:17.000Z</time>
      </trkpt>
      <trkpt lat="43.28065" lon="-1.54907">
        <ele>177</ele>
        <time>2026-03-09T06:29:22.000Z</time>
      </trkpt>
      <trkpt lat="43.28096" lon="-1.54912">
        <ele>175</ele>
        <time>2026-03-09T06:29:28.000Z</time>
      </trkpt>
      <trkpt lat="43.2812" lon="-1.5492">
        <ele>175</ele>
        <time>2026-03-09T06:29:32.000Z</time>
      </trkpt>
      <trkpt lat="43.28195" lon="-1.54954">
        <ele>170</ele>
        <time>2026-03-09T06:29:46.000Z</time>
      </trkpt>
      <trkpt lat="43.28222" lon="-1.54963">
        <ele>168</ele>
        <time>2026-03-09T06:29:51.000Z</time>
      </trkpt>
      <trkpt lat="43.28245" lon="-1.54961">
        <ele>168</ele>
        <time>2026-03-09T06:29:55.000Z</time>
      </trkpt>
      <trkpt lat="43.28271" lon="-1.54953">
        <ele>165</ele>
        <time>2026-03-09T06:30:00.000Z</time>
      </trkpt>
      <trkpt lat="43.28289" lon="-1.54941">
        <ele>164</ele>
        <time>2026-03-09T06:30:04.000Z</time>
      </trkpt>
      <trkpt lat="43.28306" lon="-1.54925">
        <ele>163</ele>
        <time>2026-03-09T06:30:07.000Z</time>
      </trkpt>
      <trkpt lat="43.28324" lon="-1.549">
        <ele>160</ele>
        <time>2026-03-09T06:30:12.000Z</time>
      </trkpt>
      <trkpt lat="43.28353" lon="-1.54855">
        <ele>156</ele>
        <time>2026-03-09T06:30:20.000Z</time>
      </trkpt>
      <trkpt lat="43.28369" lon="-1.54841">
        <ele>155</ele>
        <time>2026-03-09T06:30:23.000Z</time>
      </trkpt>
      <trkpt lat="43.28386" lon="-1.54842">
        <ele>154</ele>
        <time>2026-03-09T06:30:26.000Z</time>
      </trkpt>
      <trkpt lat="43.28399" lon="-1.54854">
        <ele>154</ele>
        <time>2026-03-09T06:30:29.000Z</time>
      </trkpt>
      <trkpt lat="43.28412" lon="-1.54869">
        <ele>153</ele>
        <time>2026-03-09T06:30:32.000Z</time>
      </trkpt>
      <trkpt lat="43.28417" lon="-1.54893">
        <ele>153</ele>
        <time>2026-03-09T06:30:35.000Z</time>
      </trkpt>
      <trkpt lat="43.28417" lon="-1.5492">
        <ele>154</ele>
        <time>2026-03-09T06:30:39.000Z</time>
      </trkpt>
      <trkpt lat="43.28407" lon="-1.54983">
        <ele>159</ele>
        <time>2026-03-09T06:30:47.000Z</time>
      </trkpt>
      <trkpt lat="43.284" lon="-1.55044">
        <ele>156</ele>
        <time>2026-03-09T06:30:55.000Z</time>
      </trkpt>
      <trkpt lat="43.28402" lon="-1.55082">
        <ele>155</ele>
        <time>2026-03-09T06:31:00.000Z</time>
      </trkpt>
      <trkpt lat="43.28413" lon="-1.55116">
        <ele>155</ele>
        <time>2026-03-09T06:31:05.000Z</time>
      </trkpt>
      <trkpt lat="43.28427" lon="-1.55141">
        <ele>153</ele>
        <time>2026-03-09T06:31:09.000Z</time>
      </trkpt>
      <trkpt lat="43.28444" lon="-1.55153">
        <ele>152</ele>
        <time>2026-03-09T06:31:12.000Z</time>
      </trkpt>
      <trkpt lat="43.28463" lon="-1.55156">
        <ele>152</ele>
        <time>2026-03-09T06:31:16.000Z</time>
      </trkpt>
      <trkpt lat="43.28497" lon="-1.55151">
        <ele>154</ele>
        <time>2026-03-09T06:31:22.000Z</time>
      </trkpt>
      <trkpt lat="43.28531" lon="-1.55137">
        <ele>156</ele>
        <time>2026-03-09T06:31:28.000Z</time>
      </trkpt>
      <trkpt lat="43.2855" lon="-1.55131">
        <ele>156</ele>
        <time>2026-03-09T06:31:31.000Z</time>
      </trkpt>
      <trkpt lat="43.28572" lon="-1.55133">
        <ele>155</ele>
        <time>2026-03-09T06:31:35.000Z</time>
      </trkpt>
      <trkpt lat="43.28603" lon="-1.55142">
        <ele>153</ele>
        <time>2026-03-09T06:31:41.000Z</time>
      </trkpt>
      <trkpt lat="43.28621" lon="-1.55149">
        <ele>151</ele>
        <time>2026-03-09T06:31:44.000Z</time>
      </trkpt>
      <trkpt lat="43.28638" lon="-1.55162">
        <ele>150</ele>
        <time>2026-03-09T06:31:48.000Z</time>
      </trkpt>
      <trkpt lat="43.28667" lon="-1.5521">
        <ele>152</ele>
        <time>2026-03-09T06:31:56.000Z</time>
      </trkpt>
      <trkpt lat="43.28681" lon="-1.55246">
        <ele>151</ele>
        <time>2026-03-09T06:32:01.000Z</time>
      </trkpt>
      <trkpt lat="43.28709" lon="-1.55376">
        <ele>144</ele>
        <time>2026-03-09T06:32:19.000Z</time>
      </trkpt>
      <trkpt lat="43.28721" lon="-1.55401">
        <ele>141</ele>
        <time>2026-03-09T06:32:23.000Z</time>
      </trkpt>
      <trkpt lat="43.28792" lon="-1.55492">
        <ele>126</ele>
        <time>2026-03-09T06:32:40.000Z</time>
      </trkpt>
      <trkpt lat="43.28814" lon="-1.55526">
        <ele>121</ele>
        <time>2026-03-09T06:32:46.000Z</time>
      </trkpt>
      <trkpt lat="43.28829" lon="-1.55565">
        <ele>116</ele>
        <time>2026-03-09T06:32:51.000Z</time>
      </trkpt>
      <trkpt lat="43.28833" lon="-1.55592">
        <ele>114</ele>
        <time>2026-03-09T06:32:55.000Z</time>
      </trkpt>
      <trkpt lat="43.28843" lon="-1.55716">
        <ele>110</ele>
        <time>2026-03-09T06:33:11.000Z</time>
      </trkpt>
      <trkpt lat="43.28849" lon="-1.55765">
        <ele>110</ele>
        <time>2026-03-09T06:33:18.000Z</time>
      </trkpt>
      <trkpt lat="43.28857" lon="-1.55797">
        <ele>109</ele>
        <time>2026-03-09T06:33:22.000Z</time>
      </trkpt>
      <trkpt lat="43.28871" lon="-1.55833">
        <ele>107</ele>
        <time>2026-03-09T06:33:27.000Z</time>
      </trkpt>
      <trkpt lat="43.28881" lon="-1.55853">
        <ele>107</ele>
        <time>2026-03-09T06:33:30.000Z</time>
      </trkpt>
      <trkpt lat="43.28891" lon="-1.55869">
        <ele>106</ele>
        <time>2026-03-09T06:33:33.000Z</time>
      </trkpt>
      <trkpt lat="43.28973" lon="-1.55929">
        <ele>100</ele>
        <time>2026-03-09T06:33:50.000Z</time>
      </trkpt>
      <trkpt lat="43.29003" lon="-1.55948">
        <ele>99</ele>
        <time>2026-03-09T06:33:56.000Z</time>
      </trkpt>
      <trkpt lat="43.2901" lon="-1.55942">
        <ele>99</ele>
        <time>2026-03-09T06:33:57.000Z</time>
      </trkpt>
      <trkpt lat="43.29014" lon="-1.55931">
        <ele>98</ele>
        <time>2026-03-09T06:33:59.000Z</time>
      </trkpt>
      <trkpt lat="43.29015" lon="-1.5591">
        <ele>98</ele>
        <time>2026-03-09T06:34:01.000Z</time>
      </trkpt>
      <trkpt lat="43.29017" lon="-1.55897">
        <ele>97</ele>
        <time>2026-03-09T06:34:03.000Z</time>
      </trkpt>
      <trkpt lat="43.2902" lon="-1.55895">
        <ele>97</ele>
        <time>2026-03-09T06:34:04.000Z</time>
      </trkpt>
      <trkpt lat="43.29025" lon="-1.55897">
        <ele>97</ele>
        <time>2026-03-09T06:34:05.000Z</time>
      </trkpt>
      <trkpt lat="43.29053" lon="-1.55925">
        <ele>97</ele>
        <time>2026-03-09T06:34:11.000Z</time>
      </trkpt>
      <trkpt lat="43.29078" lon="-1.55929">
        <ele>97</ele>
        <time>2026-03-09T06:34:15.000Z</time>
      </trkpt>
      <trkpt lat="43.29091" lon="-1.5594">
        <ele>97</ele>
        <time>2026-03-09T06:34:18.000Z</time>
      </trkpt>
      <trkpt lat="43.2913" lon="-1.55953">
        <ele>93</ele>
        <time>2026-03-09T06:34:25.000Z</time>
      </trkpt>
      <trkpt lat="43.29188" lon="-1.55966">
        <ele>88</ele>
        <time>2026-03-09T06:34:36.000Z</time>
      </trkpt>
      <trkpt lat="43.29254" lon="-1.56013">
        <ele>82</ele>
        <time>2026-03-09T06:34:49.000Z</time>
      </trkpt>
      <trkpt lat="43.29279" lon="-1.56053">
        <ele>83</ele>
        <time>2026-03-09T06:34:56.000Z</time>
      </trkpt>
      <trkpt lat="43.29293" lon="-1.56087">
        <ele>82</ele>
        <time>2026-03-09T06:35:01.000Z</time>
      </trkpt>
      <trkpt lat="43.29363" lon="-1.56155">
        <ele>76</ele>
        <time>2026-03-09T06:35:16.000Z</time>
      </trkpt>
      <trkpt lat="43.29399" lon="-1.56193">
        <ele>73</ele>
        <time>2026-03-09T06:35:24.000Z</time>
      </trkpt>
      <trkpt lat="43.29412" lon="-1.56224">
        <ele>71</ele>
        <time>2026-03-09T06:35:29.000Z</time>
      </trkpt>
      <trkpt lat="43.2942" lon="-1.56302">
        <ele>70</ele>
        <time>2026-03-09T06:35:39.000Z</time>
      </trkpt>
      <trkpt lat="43.29423" lon="-1.56347">
        <ele>70</ele>
        <time>2026-03-09T06:35:45.000Z</time>
      </trkpt>
      <trkpt lat="43.29439" lon="-1.56382">
        <ele>69</ele>
        <time>2026-03-09T06:35:50.000Z</time>
      </trkpt>
      <trkpt lat="43.29463" lon="-1.56405">
        <ele>67</ele>
        <time>2026-03-09T06:35:55.000Z</time>
      </trkpt>
      <trkpt lat="43.29515" lon="-1.5645">
        <ele>61</ele>
        <time>2026-03-09T06:36:06.000Z</time>
      </trkpt>
      <trkpt lat="43.29608" lon="-1.56564">
        <ele>59</ele>
        <time>2026-03-09T06:36:28.000Z</time>
      </trkpt>
      <trkpt lat="43.29628" lon="-1.56583">
        <ele>58</ele>
        <time>2026-03-09T06:36:33.000Z</time>
      </trkpt>
      <trkpt lat="43.29646" lon="-1.56611">
        <ele>59</ele>
        <time>2026-03-09T06:36:37.000Z</time>
      </trkpt>
      <trkpt lat="43.29688" lon="-1.56705">
        <ele>60</ele>
        <time>2026-03-09T06:36:52.000Z</time>
      </trkpt>
      <trkpt lat="43.2975" lon="-1.56774">
        <ele>55</ele>
        <time>2026-03-09T06:37:06.000Z</time>
      </trkpt>
      <trkpt lat="43.29827" lon="-1.56842">
        <ele>51</ele>
        <time>2026-03-09T06:37:22.000Z</time>
      </trkpt>
      <trkpt lat="43.29847" lon="-1.56873">
        <ele>51</ele>
        <time>2026-03-09T06:37:28.000Z</time>
      </trkpt>
      <trkpt lat="43.29879" lon="-1.5694">
        <ele>51</ele>
        <time>2026-03-09T06:37:38.000Z</time>
      </trkpt>
      <trkpt lat="43.29907" lon="-1.57027">
        <ele>50</ele>
        <time>2026-03-09T06:37:50.000Z</time>
      </trkpt>
      <trkpt lat="43.29907" lon="-1.57027">
        <ele>50</ele>
        <time>2026-03-09T06:37:50.000Z</time>
      </trkpt>
      <trkpt lat="43.29917" lon="-1.57053">
        <ele>50</ele>
        <time>2026-03-09T06:37:54.000Z</time>
      </trkpt>
      <trkpt lat="43.29938" lon="-1.57096">
        <ele>50</ele>
        <time>2026-03-09T06:38:01.000Z</time>
      </trkpt>
      <trkpt lat="43.29967" lon="-1.57149">
        <ele>50</ele>
        <time>2026-03-09T06:38:09.000Z</time>
      </trkpt>
      <trkpt lat="43.29977" lon="-1.57164">
        <ele>50</ele>
        <time>2026-03-09T06:38:12.000Z</time>
      </trkpt>
      <trkpt lat="43.29996" lon="-1.57171">
        <ele>50</ele>
        <time>2026-03-09T06:38:16.000Z</time>
      </trkpt>
      <trkpt lat="43.30018" lon="-1.57189">
        <ele>52</ele>
        <time>2026-03-09T06:38:20.000Z</time>
      </trkpt>
      <trkpt lat="43.30046" lon="-1.57219">
        <ele>52</ele>
        <time>2026-03-09T06:38:26.000Z</time>
      </trkpt>
      <trkpt lat="43.30077" lon="-1.57259">
        <ele>51</ele>
        <time>2026-03-09T06:38:34.000Z</time>
      </trkpt>
      <trkpt lat="43.30108" lon="-1.57286">
        <ele>53</ele>
        <time>2026-03-09T06:38:41.000Z</time>
      </trkpt>
      <trkpt lat="43.3012" lon="-1.57299">
        <ele>53</ele>
        <time>2026-03-09T06:38:43.000Z</time>
      </trkpt>
      <trkpt lat="43.30168" lon="-1.57391">
        <ele>53</ele>
        <time>2026-03-09T06:38:58.000Z</time>
      </trkpt>
      <trkpt lat="43.30209" lon="-1.5745">
        <ele>56</ele>
        <time>2026-03-09T06:39:08.000Z</time>
      </trkpt>
      <trkpt lat="43.30223" lon="-1.57458">
        <ele>55</ele>
        <time>2026-03-09T06:39:11.000Z</time>
      </trkpt>
      <trkpt lat="43.30266" lon="-1.57462">
        <ele>51</ele>
        <time>2026-03-09T06:39:19.000Z</time>
      </trkpt>
      <trkpt lat="43.30303" lon="-1.57455">
        <ele>53</ele>
        <time>2026-03-09T06:39:25.000Z</time>
      </trkpt>
      <trkpt lat="43.30329" lon="-1.57432">
        <ele>53</ele>
        <time>2026-03-09T06:39:31.000Z</time>
      </trkpt>
      <trkpt lat="43.30352" lon="-1.57407">
        <ele>53</ele>
        <time>2026-03-09T06:39:36.000Z</time>
      </trkpt>
      <trkpt lat="43.30366" lon="-1.57387">
        <ele>52</ele>
        <time>2026-03-09T06:39:40.000Z</time>
      </trkpt>
      <trkpt lat="43.30399" lon="-1.57356">
        <ele>50</ele>
        <time>2026-03-09T06:39:47.000Z</time>
      </trkpt>
      <trkpt lat="43.30416" lon="-1.57342">
        <ele>48</ele>
        <time>2026-03-09T06:39:50.000Z</time>
      </trkpt>
      <trkpt lat="43.30533" lon="-1.57266">
        <ele>48</ele>
        <time>2026-03-09T06:40:13.000Z</time>
      </trkpt>
      <trkpt lat="43.30567" lon="-1.57247">
        <ele>45</ele>
        <time>2026-03-09T06:40:20.000Z</time>
      </trkpt>
      <trkpt lat="43.30594" lon="-1.57237">
        <ele>45</ele>
        <time>2026-03-09T06:40:25.000Z</time>
      </trkpt>
      <trkpt lat="43.30625" lon="-1.57234">
        <ele>45</ele>
        <time>2026-03-09T06:40:30.000Z</time>
      </trkpt>
      <trkpt lat="43.30669" lon="-1.57243">
        <ele>45</ele>
        <time>2026-03-09T06:40:38.000Z</time>
      </trkpt>
      <trkpt lat="43.30715" lon="-1.57265">
        <ele>47</ele>
        <time>2026-03-09T06:40:47.000Z</time>
      </trkpt>
      <trkpt lat="43.30738" lon="-1.57271">
        <ele>48</ele>
        <time>2026-03-09T06:40:51.000Z</time>
      </trkpt>
      <trkpt lat="43.30793" lon="-1.57266">
        <ele>48</ele>
        <time>2026-03-09T06:41:01.000Z</time>
      </trkpt>
      <trkpt lat="43.30842" lon="-1.5727">
        <ele>48</ele>
        <time>2026-03-09T06:41:10.000Z</time>
      </trkpt>
      <trkpt lat="43.30874" lon="-1.57268">
        <ele>48</ele>
        <time>2026-03-09T06:41:15.000Z</time>
      </trkpt>
      <trkpt lat="43.30942" lon="-1.57238">
        <ele>47</ele>
        <time>2026-03-09T06:41:28.000Z</time>
      </trkpt>
      <trkpt lat="43.30952" lon="-1.57225">
        <ele>47</ele>
        <time>2026-03-09T06:41:31.000Z</time>
      </trkpt>
      <trkpt lat="43.30953" lon="-1.57219">
        <ele>47</ele>
        <time>2026-03-09T06:41:31.000Z</time>
      </trkpt>
      <trkpt lat="43.30955" lon="-1.57215">
        <ele>47</ele>
        <time>2026-03-09T06:41:32.000Z</time>
      </trkpt>
      <trkpt lat="43.30959" lon="-1.57213">
        <ele>47</ele>
        <time>2026-03-09T06:41:33.000Z</time>
      </trkpt>
      <trkpt lat="43.30964" lon="-1.57215">
        <ele>47</ele>
        <time>2026-03-09T06:41:34.000Z</time>
      </trkpt>
      <trkpt lat="43.30968" lon="-1.57222">
        <ele>47</ele>
        <time>2026-03-09T06:41:35.000Z</time>
      </trkpt>
      <trkpt lat="43.30976" lon="-1.5723">
        <ele>48</ele>
        <time>2026-03-09T06:41:37.000Z</time>
      </trkpt>
      <trkpt lat="43.31017" lon="-1.57235">
        <ele>47</ele>
        <time>2026-03-09T06:41:44.000Z</time>
      </trkpt>
      <trkpt lat="43.3105" lon="-1.57243">
        <ele>46</ele>
        <time>2026-03-09T06:41:50.000Z</time>
      </trkpt>
      <trkpt lat="43.31078" lon="-1.57256">
        <ele>44</ele>
        <time>2026-03-09T06:41:55.000Z</time>
      </trkpt>
      <trkpt lat="43.31101" lon="-1.57276">
        <ele>45</ele>
        <time>2026-03-09T06:42:00.000Z</time>
      </trkpt>
      <trkpt lat="43.31157" lon="-1.57331">
        <ele>49</ele>
        <time>2026-03-09T06:42:12.000Z</time>
      </trkpt>
      <trkpt lat="43.31256" lon="-1.57421">
        <ele>51</ele>
        <time>2026-03-09T06:42:33.000Z</time>
      </trkpt>
      <trkpt lat="43.31333" lon="-1.57478">
        <ele>53</ele>
        <time>2026-03-09T06:42:49.000Z</time>
      </trkpt>
      <trkpt lat="43.31351" lon="-1.57496">
        <ele>53</ele>
        <time>2026-03-09T06:42:53.000Z</time>
      </trkpt>
      <trkpt lat="43.31359" lon="-1.57506">
        <ele>54</ele>
        <time>2026-03-09T06:42:55.000Z</time>
      </trkpt>
      <trkpt lat="43.31383" lon="-1.57568">
        <ele>56</ele>
        <time>2026-03-09T06:43:04.000Z</time>
      </trkpt>
      <trkpt lat="43.31455" lon="-1.57824">
        <ele>63</ele>
        <time>2026-03-09T06:43:39.000Z</time>
      </trkpt>
      <trkpt lat="43.31535" lon="-1.57834">
        <ele>60</ele>
        <time>2026-03-09T06:43:54.000Z</time>
      </trkpt>
      <trkpt lat="43.3156" lon="-1.57824">
        <ele>59</ele>
        <time>2026-03-09T06:43:58.000Z</time>
      </trkpt>
      <trkpt lat="43.31655" lon="-1.57772">
        <ele>58</ele>
        <time>2026-03-09T06:44:17.000Z</time>
      </trkpt>
      <trkpt lat="43.31661" lon="-1.57774">
        <ele>58</ele>
        <time>2026-03-09T06:44:18.000Z</time>
      </trkpt>
      <trkpt lat="43.31669" lon="-1.57784">
        <ele>58</ele>
        <time>2026-03-09T06:44:20.000Z</time>
      </trkpt>
      <trkpt lat="43.31688" lon="-1.5783">
        <ele>58</ele>
        <time>2026-03-09T06:44:26.000Z</time>
      </trkpt>
      <trkpt lat="43.317" lon="-1.57847">
        <ele>58</ele>
        <time>2026-03-09T06:44:30.000Z</time>
      </trkpt>
      <trkpt lat="43.31711" lon="-1.57858">
        <ele>59</ele>
        <time>2026-03-09T06:44:32.000Z</time>
      </trkpt>
      <trkpt lat="43.31725" lon="-1.57865">
        <ele>59</ele>
        <time>2026-03-09T06:44:35.000Z</time>
      </trkpt>
      <trkpt lat="43.31791" lon="-1.57884">
        <ele>61</ele>
        <time>2026-03-09T06:44:47.000Z</time>
      </trkpt>
      <trkpt lat="43.3181" lon="-1.57886">
        <ele>61</ele>
        <time>2026-03-09T06:44:50.000Z</time>
      </trkpt>
      <trkpt lat="43.31855" lon="-1.57897">
        <ele>62</ele>
        <time>2026-03-09T06:44:58.000Z</time>
      </trkpt>
      <trkpt lat="43.31874" lon="-1.57896">
        <ele>63</ele>
        <time>2026-03-09T06:45:02.000Z</time>
      </trkpt>
      <trkpt lat="43.31888" lon="-1.57892">
        <ele>63</ele>
        <time>2026-03-09T06:45:04.000Z</time>
      </trkpt>
      <trkpt lat="43.31906" lon="-1.5788">
        <ele>63</ele>
        <time>2026-03-09T06:45:08.000Z</time>
      </trkpt>
      <trkpt lat="43.31941" lon="-1.57845">
        <ele>67</ele>
        <time>2026-03-09T06:45:15.000Z</time>
      </trkpt>
      <trkpt lat="43.31974" lon="-1.57817">
        <ele>69</ele>
        <time>2026-03-09T06:45:22.000Z</time>
      </trkpt>
      <trkpt lat="43.32014" lon="-1.57792">
        <ele>69</ele>
        <time>2026-03-09T06:45:30.000Z</time>
      </trkpt>
      <trkpt lat="43.32061" lon="-1.57781">
        <ele>68</ele>
        <time>2026-03-09T06:45:39.000Z</time>
      </trkpt>
      <trkpt lat="43.32092" lon="-1.578">
        <ele>73</ele>
        <time>2026-03-09T06:45:45.000Z</time>
      </trkpt>
      <trkpt lat="43.32131" lon="-1.57844">
        <ele>76</ele>
        <time>2026-03-09T06:45:54.000Z</time>
      </trkpt>
      <trkpt lat="43.32152" lon="-1.57889">
        <ele>76</ele>
        <time>2026-03-09T06:46:00.000Z</time>
      </trkpt>
      <trkpt lat="43.32182" lon="-1.57915">
        <ele>73</ele>
        <time>2026-03-09T06:46:07.000Z</time>
      </trkpt>
      <trkpt lat="43.32209" lon="-1.57925">
        <ele>71</ele>
        <time>2026-03-09T06:46:12.000Z</time>
      </trkpt>
      <trkpt lat="43.32265" lon="-1.57916">
        <ele>69</ele>
        <time>2026-03-09T06:46:22.000Z</time>
      </trkpt>
      <trkpt lat="43.32273" lon="-1.57921">
        <ele>70</ele>
        <time>2026-03-09T06:46:23.000Z</time>
      </trkpt>
      <trkpt lat="43.32305" lon="-1.58047">
        <ele>72</ele>
        <time>2026-03-09T06:46:41.000Z</time>
      </trkpt>
      <trkpt lat="43.32295" lon="-1.58194">
        <ele>78</ele>
        <time>2026-03-09T06:47:00.000Z</time>
      </trkpt>
      <trkpt lat="43.32325" lon="-1.58375">
        <ele>84</ele>
        <time>2026-03-09T06:47:24.000Z</time>
      </trkpt>
      <trkpt lat="43.32337" lon="-1.58408">
        <ele>84</ele>
        <time>2026-03-09T06:47:29.000Z</time>
      </trkpt>
      <trkpt lat="43.32355" lon="-1.58428">
        <ele>86</ele>
        <time>2026-03-09T06:47:33.000Z</time>
      </trkpt>
      <trkpt lat="43.32442" lon="-1.58475">
        <ele>97</ele>
        <time>2026-03-09T06:47:49.000Z</time>
      </trkpt>
      <trkpt lat="43.32469" lon="-1.58523">
        <ele>104</ele>
        <time>2026-03-09T06:47:57.000Z</time>
      </trkpt>
      <trkpt lat="43.32478" lon="-1.58588">
        <ele>109</ele>
        <time>2026-03-09T06:48:06.000Z</time>
      </trkpt>
      <trkpt lat="43.32473" lon="-1.58631">
        <ele>111</ele>
        <time>2026-03-09T06:48:11.000Z</time>
      </trkpt>
      <trkpt lat="43.32419" lon="-1.58739">
        <ele>114</ele>
        <time>2026-03-09T06:48:28.000Z</time>
      </trkpt>
      <trkpt lat="43.32404" lon="-1.58814">
        <ele>118</ele>
        <time>2026-03-09T06:48:38.000Z</time>
      </trkpt>
      <trkpt lat="43.32392" lon="-1.58839">
        <ele>117</ele>
        <time>2026-03-09T06:48:42.000Z</time>
      </trkpt>
      <trkpt lat="43.32312" lon="-1.59019">
        <ele>122</ele>
        <time>2026-03-09T06:49:10.000Z</time>
      </trkpt>
      <trkpt lat="43.32307" lon="-1.59059">
        <ele>122</ele>
        <time>2026-03-09T06:49:15.000Z</time>
      </trkpt>
      <trkpt lat="43.32316" lon="-1.59091">
        <ele>126</ele>
        <time>2026-03-09T06:49:19.000Z</time>
      </trkpt>
      <trkpt lat="43.32341" lon="-1.59124">
        <ele>134</ele>
        <time>2026-03-09T06:49:25.000Z</time>
      </trkpt>
      <trkpt lat="43.32352" lon="-1.59159">
        <ele>137</ele>
        <time>2026-03-09T06:49:30.000Z</time>
      </trkpt>
      <trkpt lat="43.32347" lon="-1.59187">
        <ele>139</ele>
        <time>2026-03-09T06:49:34.000Z</time>
      </trkpt>
      <trkpt lat="43.32296" lon="-1.59289">
        <ele>139</ele>
        <time>2026-03-09T06:49:50.000Z</time>
      </trkpt>
      <trkpt lat="43.32276" lon="-1.5935">
        <ele>141</ele>
        <time>2026-03-09T06:49:59.000Z</time>
      </trkpt>
      <trkpt lat="43.32266" lon="-1.59405">
        <ele>143</ele>
        <time>2026-03-09T06:50:06.000Z</time>
      </trkpt>
      <trkpt lat="43.32254" lon="-1.59455">
        <ele>143</ele>
        <time>2026-03-09T06:50:13.000Z</time>
      </trkpt>
      <trkpt lat="43.32253" lon="-1.59501">
        <ele>145</ele>
        <time>2026-03-09T06:50:19.000Z</time>
      </trkpt>
      <trkpt lat="43.3227" lon="-1.59618">
        <ele>148</ele>
        <time>2026-03-09T06:50:34.000Z</time>
      </trkpt>
      <trkpt lat="43.32319" lon="-1.59689">
        <ele>157</ele>
        <time>2026-03-09T06:50:47.000Z</time>
      </trkpt>
      <trkpt lat="43.32338" lon="-1.59727">
        <ele>158</ele>
        <time>2026-03-09T06:50:53.000Z</time>
      </trkpt>
      <trkpt lat="43.32378" lon="-1.59855">
        <ele>170</ele>
        <time>2026-03-09T06:51:11.000Z</time>
      </trkpt>
      <trkpt lat="43.32427" lon="-1.59987">
        <ele>171</ele>
        <time>2026-03-09T06:51:30.000Z</time>
      </trkpt>
      <trkpt lat="43.32449" lon="-1.60018">
        <ele>173</ele>
        <time>2026-03-09T06:51:36.000Z</time>
      </trkpt>
      <trkpt lat="43.32477" lon="-1.60038">
        <ele>174</ele>
        <time>2026-03-09T06:51:41.000Z</time>
      </trkpt>
      <trkpt lat="43.32498" lon="-1.60056">
        <ele>173</ele>
        <time>2026-03-09T06:51:46.000Z</time>
      </trkpt>
      <trkpt lat="43.32507" lon="-1.60054">
        <ele>173</ele>
        <time>2026-03-09T06:51:47.000Z</time>
      </trkpt>
      <trkpt lat="43.32517" lon="-1.60054">
        <ele>174</ele>
        <time>2026-03-09T06:51:49.000Z</time>
      </trkpt>
      <trkpt lat="43.32529" lon="-1.60061">
        <ele>173</ele>
        <time>2026-03-09T06:51:52.000Z</time>
      </trkpt>
      <trkpt lat="43.32561" lon="-1.60087">
        <ele>170</ele>
        <time>2026-03-09T06:51:58.000Z</time>
      </trkpt>
      <trkpt lat="43.32578" lon="-1.60097">
        <ele>168</ele>
        <time>2026-03-09T06:52:01.000Z</time>
      </trkpt>
      <trkpt lat="43.32685" lon="-1.60134">
        <ele>169</ele>
        <time>2026-03-09T06:52:21.000Z</time>
      </trkpt>
      <trkpt lat="43.32714" lon="-1.60151">
        <ele>168</ele>
        <time>2026-03-09T06:52:27.000Z</time>
      </trkpt>
      <trkpt lat="43.32751" lon="-1.60178">
        <ele>166</ele>
        <time>2026-03-09T06:52:34.000Z</time>
      </trkpt>
      <trkpt lat="43.32772" lon="-1.60187">
        <ele>164</ele>
        <time>2026-03-09T06:52:38.000Z</time>
      </trkpt>
      <trkpt lat="43.32792" lon="-1.60191">
        <ele>164</ele>
        <time>2026-03-09T06:52:42.000Z</time>
      </trkpt>
      <trkpt lat="43.32899" lon="-1.60204">
        <ele>162</ele>
        <time>2026-03-09T06:53:01.000Z</time>
      </trkpt>
      <trkpt lat="43.32981" lon="-1.60215">
        <ele>158</ele>
        <time>2026-03-09T06:53:15.000Z</time>
      </trkpt>
      <trkpt lat="43.33019" lon="-1.60227">
        <ele>155</ele>
        <time>2026-03-09T06:53:22.000Z</time>
      </trkpt>
      <trkpt lat="43.33094" lon="-1.60262">
        <ele>152</ele>
        <time>2026-03-09T06:53:36.000Z</time>
      </trkpt>
      <trkpt lat="43.3311" lon="-1.60273">
        <ele>151</ele>
        <time>2026-03-09T06:53:40.000Z</time>
      </trkpt>
      <trkpt lat="43.33128" lon="-1.60292">
        <ele>150</ele>
        <time>2026-03-09T06:53:44.000Z</time>
      </trkpt>
      <trkpt lat="43.33143" lon="-1.60316">
        <ele>150</ele>
        <time>2026-03-09T06:53:48.000Z</time>
      </trkpt>
      <trkpt lat="43.33156" lon="-1.60359">
        <ele>148</ele>
        <time>2026-03-09T06:53:54.000Z</time>
      </trkpt>
      <trkpt lat="43.33174" lon="-1.60406">
        <ele>145</ele>
        <time>2026-03-09T06:54:01.000Z</time>
      </trkpt>
      <trkpt lat="43.33178" lon="-1.60435">
        <ele>142</ele>
        <time>2026-03-09T06:54:04.000Z</time>
      </trkpt>
      <trkpt lat="43.33185" lon="-1.60466">
        <ele>139</ele>
        <time>2026-03-09T06:54:09.000Z</time>
      </trkpt>
      <trkpt lat="43.33199" lon="-1.60488">
        <ele>139</ele>
        <time>2026-03-09T06:54:12.000Z</time>
      </trkpt>
      <trkpt lat="43.33212" lon="-1.60497">
        <ele>141</ele>
        <time>2026-03-09T06:54:15.000Z</time>
      </trkpt>
      <trkpt lat="43.33234" lon="-1.60504">
        <ele>146</ele>
        <time>2026-03-09T06:54:19.000Z</time>
      </trkpt>
      <trkpt lat="43.33244" lon="-1.60513">
        <ele>148</ele>
        <time>2026-03-09T06:54:21.000Z</time>
      </trkpt>
      <trkpt lat="43.33247" lon="-1.60524">
        <ele>147</ele>
        <time>2026-03-09T06:54:23.000Z</time>
      </trkpt>
      <trkpt lat="43.33243" lon="-1.6057">
        <ele>140</ele>
        <time>2026-03-09T06:54:29.000Z</time>
      </trkpt>
      <trkpt lat="43.33249" lon="-1.60601">
        <ele>136</ele>
        <time>2026-03-09T06:54:33.000Z</time>
      </trkpt>
      <trkpt lat="43.33268" lon="-1.60651">
        <ele>132</ele>
        <time>2026-03-09T06:54:40.000Z</time>
      </trkpt>
      <trkpt lat="43.33317" lon="-1.60728">
        <ele>129</ele>
        <time>2026-03-09T06:54:53.000Z</time>
      </trkpt>
      <trkpt lat="43.33331" lon="-1.60735">
        <ele>131</ele>
        <time>2026-03-09T06:54:56.000Z</time>
      </trkpt>
      <trkpt lat="43.33344" lon="-1.60746">
        <ele>131</ele>
        <time>2026-03-09T06:54:59.000Z</time>
      </trkpt>
      <trkpt lat="43.33353" lon="-1.60767">
        <ele>129</ele>
        <time>2026-03-09T06:55:02.000Z</time>
      </trkpt>
      <trkpt lat="43.33353" lon="-1.60788">
        <ele>125</ele>
        <time>2026-03-09T06:55:05.000Z</time>
      </trkpt>
      <trkpt lat="43.33359" lon="-1.60813">
        <ele>122</ele>
        <time>2026-03-09T06:55:08.000Z</time>
      </trkpt>
      <trkpt lat="43.33373" lon="-1.60836">
        <ele>120</ele>
        <time>2026-03-09T06:55:12.000Z</time>
      </trkpt>
      <trkpt lat="43.3339" lon="-1.60852">
        <ele>119</ele>
        <time>2026-03-09T06:55:16.000Z</time>
      </trkpt>
      <trkpt lat="43.33401" lon="-1.60853">
        <ele>121</ele>
        <time>2026-03-09T06:55:18.000Z</time>
      </trkpt>
      <trkpt lat="43.33424" lon="-1.60845">
        <ele>127</ele>
        <time>2026-03-09T06:55:22.000Z</time>
      </trkpt>
      <trkpt lat="43.33434" lon="-1.60846">
        <ele>130</ele>
        <time>2026-03-09T06:55:24.000Z</time>
      </trkpt>
      <trkpt lat="43.33441" lon="-1.60858">
        <ele>130</ele>
        <time>2026-03-09T06:55:26.000Z</time>
      </trkpt>
      <trkpt lat="43.33442" lon="-1.60876">
        <ele>127</ele>
        <time>2026-03-09T06:55:28.000Z</time>
      </trkpt>
      <trkpt lat="43.33434" lon="-1.60918">
        <ele>117</ele>
        <time>2026-03-09T06:55:33.000Z</time>
      </trkpt>
      <trkpt lat="43.33435" lon="-1.60941">
        <ele>115</ele>
        <time>2026-03-09T06:55:36.000Z</time>
      </trkpt>
      <trkpt lat="43.33441" lon="-1.60956">
        <ele>116</ele>
        <time>2026-03-09T06:55:39.000Z</time>
      </trkpt>
      <trkpt lat="43.33457" lon="-1.60973">
        <ele>121</ele>
        <time>2026-03-09T06:55:42.000Z</time>
      </trkpt>
      <trkpt lat="43.33461" lon="-1.60989">
        <ele>121</ele>
        <time>2026-03-09T06:55:44.000Z</time>
      </trkpt>
      <trkpt lat="43.33458" lon="-1.61001">
        <ele>119</ele>
        <time>2026-03-09T06:55:46.000Z</time>
      </trkpt>
      <trkpt lat="43.33439" lon="-1.61015">
        <ele>112</ele>
        <time>2026-03-09T06:55:50.000Z</time>
      </trkpt>
      <trkpt lat="43.3343" lon="-1.61045">
        <ele>108</ele>
        <time>2026-03-09T06:55:54.000Z</time>
      </trkpt>
      <trkpt lat="43.33429" lon="-1.61078">
        <ele>108</ele>
        <time>2026-03-09T06:55:58.000Z</time>
      </trkpt>
      <trkpt lat="43.33423" lon="-1.61102">
        <ele>103</ele>
        <time>2026-03-09T06:56:02.000Z</time>
      </trkpt>
      <trkpt lat="43.33421" lon="-1.61125">
        <ele>100</ele>
        <time>2026-03-09T06:56:05.000Z</time>
      </trkpt>
      <trkpt lat="43.33423" lon="-1.6117">
        <ele>97</ele>
        <time>2026-03-09T06:56:11.000Z</time>
      </trkpt>
      <trkpt lat="43.33431" lon="-1.612">
        <ele>94</ele>
        <time>2026-03-09T06:56:15.000Z</time>
      </trkpt>
      <trkpt lat="43.3344" lon="-1.61214">
        <ele>94</ele>
        <time>2026-03-09T06:56:17.000Z</time>
      </trkpt>
      <trkpt lat="43.33448" lon="-1.61219">
        <ele>95</ele>
        <time>2026-03-09T06:56:19.000Z</time>
      </trkpt>
      <trkpt lat="43.33457" lon="-1.61218">
        <ele>98</ele>
        <time>2026-03-09T06:56:20.000Z</time>
      </trkpt>
      <trkpt lat="43.33471" lon="-1.61223">
        <ele>101</ele>
        <time>2026-03-09T06:56:23.000Z</time>
      </trkpt>
      <trkpt lat="43.3348" lon="-1.61233">
        <ele>101</ele>
        <time>2026-03-09T06:56:25.000Z</time>
      </trkpt>
      <trkpt lat="43.33501" lon="-1.61281">
        <ele>95</ele>
        <time>2026-03-09T06:56:32.000Z</time>
      </trkpt>
      <trkpt lat="43.33531" lon="-1.61302">
        <ele>97</ele>
        <time>2026-03-09T06:56:38.000Z</time>
      </trkpt>
      <trkpt lat="43.33538" lon="-1.61319">
        <ele>95</ele>
        <time>2026-03-09T06:56:41.000Z</time>
      </trkpt>
      <trkpt lat="43.33539" lon="-1.61369">
        <ele>86</ele>
        <time>2026-03-09T06:56:47.000Z</time>
      </trkpt>
      <trkpt lat="43.33546" lon="-1.61387">
        <ele>84</ele>
        <time>2026-03-09T06:56:50.000Z</time>
      </trkpt>
      <trkpt lat="43.33566" lon="-1.61407">
        <ele>85</ele>
        <time>2026-03-09T06:56:54.000Z</time>
      </trkpt>
      <trkpt lat="43.33576" lon="-1.61419">
        <ele>85</ele>
        <time>2026-03-09T06:56:57.000Z</time>
      </trkpt>
      <trkpt lat="43.3359" lon="-1.6145">
        <ele>81</ele>
        <time>2026-03-09T06:57:01.000Z</time>
      </trkpt>
      <trkpt lat="43.33602" lon="-1.61468">
        <ele>79</ele>
        <time>2026-03-09T06:57:04.000Z</time>
      </trkpt>
      <trkpt lat="43.33615" lon="-1.61479">
        <ele>79</ele>
        <time>2026-03-09T06:57:07.000Z</time>
      </trkpt>
      <trkpt lat="43.33654" lon="-1.61499">
        <ele>80</ele>
        <time>2026-03-09T06:57:15.000Z</time>
      </trkpt>
      <trkpt lat="43.33696" lon="-1.61543">
        <ele>73</ele>
        <time>2026-03-09T06:57:24.000Z</time>
      </trkpt>
      <trkpt lat="43.33788" lon="-1.61574">
        <ele>63</ele>
        <time>2026-03-09T06:57:41.000Z</time>
      </trkpt>
      <trkpt lat="43.33807" lon="-1.61573">
        <ele>62</ele>
        <time>2026-03-09T06:57:44.000Z</time>
      </trkpt>
      <trkpt lat="43.33835" lon="-1.61567">
        <ele>61</ele>
        <time>2026-03-09T06:57:49.000Z</time>
      </trkpt>
      <trkpt lat="43.33868" lon="-1.61571">
        <ele>57</ele>
        <time>2026-03-09T06:57:55.000Z</time>
      </trkpt>
      <trkpt lat="43.33892" lon="-1.61563">
        <ele>58</ele>
        <time>2026-03-09T06:58:00.000Z</time>
      </trkpt>
      <trkpt lat="43.3392" lon="-1.61564">
        <ele>56</ele>
        <time>2026-03-09T06:58:04.000Z</time>
      </trkpt>
      <trkpt lat="43.33942" lon="-1.61559">
        <ele>58</ele>
        <time>2026-03-09T06:58:08.000Z</time>
      </trkpt>
      <trkpt lat="43.33962" lon="-1.61557">
        <ele>59</ele>
        <time>2026-03-09T06:58:12.000Z</time>
      </trkpt>
      <trkpt lat="43.34008" lon="-1.61565">
        <ele>57</ele>
        <time>2026-03-09T06:58:20.000Z</time>
      </trkpt>
      <trkpt lat="43.34025" lon="-1.61572">
        <ele>55</ele>
        <time>2026-03-09T06:58:23.000Z</time>
      </trkpt>
      <trkpt lat="43.34063" lon="-1.61612">
        <ele>48</ele>
        <time>2026-03-09T06:58:32.000Z</time>
      </trkpt>
      <trkpt lat="43.34077" lon="-1.61621">
        <ele>46</ele>
        <time>2026-03-09T06:58:35.000Z</time>
      </trkpt>
      <trkpt lat="43.34092" lon="-1.61623">
        <ele>46</ele>
        <time>2026-03-09T06:58:37.000Z</time>
      </trkpt>
      <trkpt lat="43.34147" lon="-1.61609">
        <ele>45</ele>
        <time>2026-03-09T06:58:47.000Z</time>
      </trkpt>
      <trkpt lat="43.34345" lon="-1.61629">
        <ele>32</ele>
        <time>2026-03-09T06:59:23.000Z</time>
      </trkpt>
      <trkpt lat="43.34364" lon="-1.61649">
        <ele>29</ele>
        <time>2026-03-09T06:59:27.000Z</time>
      </trkpt>
      <trkpt lat="43.34377" lon="-1.61689">
        <ele>26</ele>
        <time>2026-03-09T06:59:33.000Z</time>
      </trkpt>
      <trkpt lat="43.34379" lon="-1.61719">
        <ele>24</ele>
        <time>2026-03-09T06:59:36.000Z</time>
      </trkpt>
      <trkpt lat="43.3438" lon="-1.61817">
        <ele>22</ele>
        <time>2026-03-09T06:59:49.000Z</time>
      </trkpt>
      <trkpt lat="43.3438" lon="-1.61817">
        <ele>22</ele>
        <time>2026-03-09T06:59:49.000Z</time>
      </trkpt>
      <trkpt lat="43.3438" lon="-1.61897">
        <ele>25</ele>
        <time>2026-03-09T07:00:00.000Z</time>
      </trkpt>
      <trkpt lat="43.34384" lon="-1.61927">
        <ele>26</ele>
        <time>2026-03-09T07:00:03.000Z</time>
      </trkpt>
      <trkpt lat="43.34388" lon="-1.61948">
        <ele>26</ele>
        <time>2026-03-09T07:00:06.000Z</time>
      </trkpt>
      <trkpt lat="43.34394" lon="-1.61962">
        <ele>26</ele>
        <time>2026-03-09T07:00:08.000Z</time>
      </trkpt>
      <trkpt lat="43.34406" lon="-1.61984">
        <ele>25</ele>
        <time>2026-03-09T07:00:12.000Z</time>
      </trkpt>
      <trkpt lat="43.34456" lon="-1.62059">
        <ele>24</ele>
        <time>2026-03-09T07:00:25.000Z</time>
      </trkpt>
      <trkpt lat="43.34469" lon="-1.62081">
        <ele>25</ele>
        <time>2026-03-09T07:00:29.000Z</time>
      </trkpt>
      <trkpt lat="43.34472" lon="-1.62101">
        <ele>24</ele>
        <time>2026-03-09T07:00:31.000Z</time>
      </trkpt>
      <trkpt lat="43.34471" lon="-1.6211">
        <ele>24</ele>
        <time>2026-03-09T07:00:33.000Z</time>
      </trkpt>
      <trkpt lat="43.34474" lon="-1.62153">
        <ele>23</ele>
        <time>2026-03-09T07:00:38.000Z</time>
      </trkpt>
      <trkpt lat="43.34463" lon="-1.62196">
        <ele>22</ele>
        <time>2026-03-09T07:00:44.000Z</time>
      </trkpt>
      <trkpt lat="43.34445" lon="-1.62312">
        <ele>21</ele>
        <time>2026-03-09T07:00:59.000Z</time>
      </trkpt>
      <trkpt lat="43.34449" lon="-1.62375">
        <ele>23</ele>
        <time>2026-03-09T07:01:08.000Z</time>
      </trkpt>
      <trkpt lat="43.34444" lon="-1.6239">
        <ele>23</ele>
        <time>2026-03-09T07:01:10.000Z</time>
      </trkpt>
      <trkpt lat="43.34415" lon="-1.62425">
        <ele>24</ele>
        <time>2026-03-09T07:01:17.000Z</time>
      </trkpt>
      <trkpt lat="43.34407" lon="-1.62441">
        <ele>24</ele>
        <time>2026-03-09T07:01:19.000Z</time>
      </trkpt>
      <trkpt lat="43.34385" lon="-1.62512">
        <ele>22</ele>
        <time>2026-03-09T07:01:29.000Z</time>
      </trkpt>
      <trkpt lat="43.34365" lon="-1.62581">
        <ele>19</ele>
        <time>2026-03-09T07:01:39.000Z</time>
      </trkpt>
      <trkpt lat="43.34362" lon="-1.62606">
        <ele>18</ele>
        <time>2026-03-09T07:01:42.000Z</time>
      </trkpt>
      <trkpt lat="43.34361" lon="-1.62629">
        <ele>17</ele>
        <time>2026-03-09T07:01:45.000Z</time>
      </trkpt>
      <trkpt lat="43.34362" lon="-1.62744">
        <ele>13</ele>
        <time>2026-03-09T07:02:00.000Z</time>
      </trkpt>
      <trkpt lat="43.34355" lon="-1.62855">
        <ele>12</ele>
        <time>2026-03-09T07:02:14.000Z</time>
      </trkpt>
      <trkpt lat="43.34344" lon="-1.62964">
        <ele>17</ele>
        <time>2026-03-09T07:02:29.000Z</time>
      </trkpt>
      <trkpt lat="43.34333" lon="-1.63028">
        <ele>22</ele>
        <time>2026-03-09T07:02:37.000Z</time>
      </trkpt>
      <trkpt lat="43.34294" lon="-1.63188">
        <ele>32</ele>
        <time>2026-03-09T07:02:59.000Z</time>
      </trkpt>
      <trkpt lat="43.34276" lon="-1.63237">
        <ele>35</ele>
        <time>2026-03-09T07:03:06.000Z</time>
      </trkpt>
      <trkpt lat="43.34227" lon="-1.63343">
        <ele>36</ele>
        <time>2026-03-09T07:03:22.000Z</time>
      </trkpt>
      <trkpt lat="43.34222" lon="-1.63363">
        <ele>36</ele>
        <time>2026-03-09T07:03:25.000Z</time>
      </trkpt>
      <trkpt lat="43.34224" lon="-1.63385">
        <ele>37</ele>
        <time>2026-03-09T07:03:28.000Z</time>
      </trkpt>
      <trkpt lat="43.34254" lon="-1.63471">
        <ele>40</ele>
        <time>2026-03-09T07:03:40.000Z</time>
      </trkpt>
      <trkpt lat="43.3426" lon="-1.63493">
        <ele>40</ele>
        <time>2026-03-09T07:03:43.000Z</time>
      </trkpt>
      <trkpt lat="43.34262" lon="-1.63522">
        <ele>42</ele>
        <time>2026-03-09T07:03:47.000Z</time>
      </trkpt>
      <trkpt lat="43.34258" lon="-1.63562">
        <ele>44</ele>
        <time>2026-03-09T07:03:52.000Z</time>
      </trkpt>
      <trkpt lat="43.34246" lon="-1.63597">
        <ele>46</ele>
        <time>2026-03-09T07:03:57.000Z</time>
      </trkpt>
      <trkpt lat="43.34216" lon="-1.6366">
        <ele>48</ele>
        <time>2026-03-09T07:04:07.000Z</time>
      </trkpt>
      <trkpt lat="43.34207" lon="-1.63691">
        <ele>49</ele>
        <time>2026-03-09T07:04:11.000Z</time>
      </trkpt>
      <trkpt lat="43.34207" lon="-1.63727">
        <ele>50</ele>
        <time>2026-03-09T07:04:16.000Z</time>
      </trkpt>
      <trkpt lat="43.34217" lon="-1.63766">
        <ele>51</ele>
        <time>2026-03-09T07:04:21.000Z</time>
      </trkpt>
      <trkpt lat="43.34228" lon="-1.63827">
        <ele>50</ele>
        <time>2026-03-09T07:04:29.000Z</time>
      </trkpt>
      <trkpt lat="43.34229" lon="-1.63858">
        <ele>49</ele>
        <time>2026-03-09T07:04:33.000Z</time>
      </trkpt>
      <trkpt lat="43.34226" lon="-1.63883">
        <ele>49</ele>
        <time>2026-03-09T07:04:37.000Z</time>
      </trkpt>
      <trkpt lat="43.34219" lon="-1.63911">
        <ele>48</ele>
        <time>2026-03-09T07:04:41.000Z</time>
      </trkpt>
      <trkpt lat="43.34187" lon="-1.63993">
        <ele>48</ele>
        <time>2026-03-09T07:04:53.000Z</time>
      </trkpt>
      <trkpt lat="43.34177" lon="-1.64013">
        <ele>47</ele>
        <time>2026-03-09T07:04:56.000Z</time>
      </trkpt>
      <trkpt lat="43.34156" lon="-1.6404">
        <ele>45</ele>
        <time>2026-03-09T07:05:01.000Z</time>
      </trkpt>
      <trkpt lat="43.34139" lon="-1.64055">
        <ele>43</ele>
        <time>2026-03-09T07:05:04.000Z</time>
      </trkpt>
      <trkpt lat="43.34095" lon="-1.64075">
        <ele>39</ele>
        <time>2026-03-09T07:05:13.000Z</time>
      </trkpt>
      <trkpt lat="43.34062" lon="-1.64097">
        <ele>37</ele>
        <time>2026-03-09T07:05:19.000Z</time>
      </trkpt>
      <trkpt lat="43.34039" lon="-1.64126">
        <ele>36</ele>
        <time>2026-03-09T07:05:25.000Z</time>
      </trkpt>
      <trkpt lat="43.3403" lon="-1.64148">
        <ele>35</ele>
        <time>2026-03-09T07:05:28.000Z</time>
      </trkpt>
      <trkpt lat="43.34024" lon="-1.64173">
        <ele>35</ele>
        <time>2026-03-09T07:05:31.000Z</time>
      </trkpt>
      <trkpt lat="43.34022" lon="-1.64205">
        <ele>35</ele>
        <time>2026-03-09T07:05:36.000Z</time>
      </trkpt>
      <trkpt lat="43.34024" lon="-1.64261">
        <ele>35</ele>
        <time>2026-03-09T07:05:43.000Z</time>
      </trkpt>
      <trkpt lat="43.34023" lon="-1.64283">
        <ele>35</ele>
        <time>2026-03-09T07:05:46.000Z</time>
      </trkpt>
      <trkpt lat="43.34003" lon="-1.64392">
        <ele>35</ele>
        <time>2026-03-09T07:06:00.000Z</time>
      </trkpt>
      <trkpt lat="43.33786" lon="-1.6541">
        <ele>64</ele>
        <time>2026-03-09T07:08:18.000Z</time>
      </trkpt>
      <trkpt lat="43.33724" lon="-1.65706">
        <ele>65</ele>
        <time>2026-03-09T07:08:57.000Z</time>
      </trkpt>
      <trkpt lat="43.33716" lon="-1.65754">
        <ele>66</ele>
        <time>2026-03-09T07:09:04.000Z</time>
      </trkpt>
      <trkpt lat="43.33695" lon="-1.65921">
        <ele>68</ele>
        <time>2026-03-09T07:09:26.000Z</time>
      </trkpt>
      <trkpt lat="43.33653" lon="-1.66149">
        <ele>66</ele>
        <time>2026-03-09T07:09:56.000Z</time>
      </trkpt>
      <trkpt lat="43.33645" lon="-1.66182">
        <ele>65</ele>
        <time>2026-03-09T07:10:01.000Z</time>
      </trkpt>
      <trkpt lat="43.33622" lon="-1.6624">
        <ele>67</ele>
        <time>2026-03-09T07:10:09.000Z</time>
      </trkpt>
      <trkpt lat="43.33615" lon="-1.66263">
        <ele>67</ele>
        <time>2026-03-09T07:10:12.000Z</time>
      </trkpt>
      <trkpt lat="43.33607" lon="-1.66344">
        <ele>65</ele>
        <time>2026-03-09T07:10:23.000Z</time>
      </trkpt>
      <trkpt lat="43.33608" lon="-1.66377">
        <ele>64</ele>
        <time>2026-03-09T07:10:27.000Z</time>
      </trkpt>
      <trkpt lat="43.33615" lon="-1.66412">
        <ele>62</ele>
        <time>2026-03-09T07:10:32.000Z</time>
      </trkpt>
      <trkpt lat="43.33625" lon="-1.66444">
        <ele>59</ele>
        <time>2026-03-09T07:10:36.000Z</time>
      </trkpt>
      <trkpt lat="43.33661" lon="-1.6654">
        <ele>53</ele>
        <time>2026-03-09T07:10:50.000Z</time>
      </trkpt>
      <trkpt lat="43.33666" lon="-1.66563">
        <ele>52</ele>
        <time>2026-03-09T07:10:54.000Z</time>
      </trkpt>
      <trkpt lat="43.33671" lon="-1.66597">
        <ele>50</ele>
        <time>2026-03-09T07:10:58.000Z</time>
      </trkpt>
      <trkpt lat="43.33672" lon="-1.66621">
        <ele>50</ele>
        <time>2026-03-09T07:11:01.000Z</time>
      </trkpt>
      <trkpt lat="43.33668" lon="-1.66651">
        <ele>49</ele>
        <time>2026-03-09T07:11:05.000Z</time>
      </trkpt>
      <trkpt lat="43.33656" lon="-1.66714">
        <ele>47</ele>
        <time>2026-03-09T07:11:14.000Z</time>
      </trkpt>
      <trkpt lat="43.3364" lon="-1.66759">
        <ele>45</ele>
        <time>2026-03-09T07:11:20.000Z</time>
      </trkpt>
      <trkpt lat="43.33622" lon="-1.66788">
        <ele>45</ele>
        <time>2026-03-09T07:11:25.000Z</time>
      </trkpt>
      <trkpt lat="43.33606" lon="-1.66803">
        <ele>45</ele>
        <time>2026-03-09T07:11:28.000Z</time>
      </trkpt>
      <trkpt lat="43.33609" lon="-1.66811">
        <ele>45</ele>
        <time>2026-03-09T07:11:30.000Z</time>
      </trkpt>
      <trkpt lat="43.33615" lon="-1.66819">
        <ele>44</ele>
        <time>2026-03-09T07:11:31.000Z</time>
      </trkpt>
      <trkpt lat="43.33625" lon="-1.66824">
        <ele>44</ele>
        <time>2026-03-09T07:11:33.000Z</time>
      </trkpt>
      <trkpt lat="43.33683" lon="-1.66831">
        <ele>43</ele>
        <time>2026-03-09T07:11:43.000Z</time>
      </trkpt>
      <trkpt lat="43.337" lon="-1.66832">
        <ele>42</ele>
        <time>2026-03-09T07:11:46.000Z</time>
      </trkpt>
      <trkpt lat="43.33747" lon="-1.66824">
        <ele>42</ele>
        <time>2026-03-09T07:11:55.000Z</time>
      </trkpt>
      <trkpt lat="43.33782" lon="-1.66811">
        <ele>41</ele>
        <time>2026-03-09T07:12:01.000Z</time>
      </trkpt>
      <trkpt lat="43.33831" lon="-1.66786">
        <ele>39</ele>
        <time>2026-03-09T07:12:10.000Z</time>
      </trkpt>
      <trkpt lat="43.33878" lon="-1.66755">
        <ele>37</ele>
        <time>2026-03-09T07:12:20.000Z</time>
      </trkpt>
      <trkpt lat="43.3392" lon="-1.66705">
        <ele>37</ele>
        <time>2026-03-09T07:12:30.000Z</time>
      </trkpt>
      <trkpt lat="43.33975" lon="-1.66648">
        <ele>34</ele>
        <time>2026-03-09T07:12:42.000Z</time>
      </trkpt>
      <trkpt lat="43.33996" lon="-1.66637">
        <ele>33</ele>
        <time>2026-03-09T07:12:46.000Z</time>
      </trkpt>
      <trkpt lat="43.34014" lon="-1.66632">
        <ele>33</ele>
        <time>2026-03-09T07:12:49.000Z</time>
      </trkpt>
      <trkpt lat="43.34031" lon="-1.6663">
        <ele>34</ele>
        <time>2026-03-09T07:12:52.000Z</time>
      </trkpt>
      <trkpt lat="43.34045" lon="-1.66632">
        <ele>35</ele>
        <time>2026-03-09T07:12:55.000Z</time>
      </trkpt>
      <trkpt lat="43.3409" lon="-1.66655">
        <ele>38</ele>
        <time>2026-03-09T07:13:03.000Z</time>
      </trkpt>
      <trkpt lat="43.34167" lon="-1.66684">
        <ele>44</ele>
        <time>2026-03-09T07:13:17.000Z</time>
      </trkpt>
      <trkpt lat="43.34227" lon="-1.66714">
        <ele>50</ele>
        <time>2026-03-09T07:13:29.000Z</time>
      </trkpt>
      <trkpt lat="43.34291" lon="-1.66741">
        <ele>53</ele>
        <time>2026-03-09T07:13:41.000Z</time>
      </trkpt>
      <trkpt lat="43.3432" lon="-1.66746">
        <ele>54</ele>
        <time>2026-03-09T07:13:46.000Z</time>
      </trkpt>
      <trkpt lat="43.34348" lon="-1.66741">
        <ele>57</ele>
        <time>2026-03-09T07:13:51.000Z</time>
      </trkpt>
      <trkpt lat="43.34368" lon="-1.66726">
        <ele>61</ele>
        <time>2026-03-09T07:13:55.000Z</time>
      </trkpt>
      <trkpt lat="43.34419" lon="-1.66665">
        <ele>71</ele>
        <time>2026-03-09T07:14:07.000Z</time>
      </trkpt>
      <trkpt lat="43.34436" lon="-1.66659">
        <ele>72</ele>
        <time>2026-03-09T07:14:10.000Z</time>
      </trkpt>
      <trkpt lat="43.34498" lon="-1.66656">
        <ele>72</ele>
        <time>2026-03-09T07:14:21.000Z</time>
      </trkpt>
      <trkpt lat="43.34535" lon="-1.66657">
        <ele>74</ele>
        <time>2026-03-09T07:14:28.000Z</time>
      </trkpt>
      <trkpt lat="43.34546" lon="-1.66661">
        <ele>75</ele>
        <time>2026-03-09T07:14:30.000Z</time>
      </trkpt>
      <trkpt lat="43.34546" lon="-1.66661">
        <ele>75</ele>
        <time>2026-03-09T07:14:30.000Z</time>
      </trkpt>
      <trkpt lat="43.34553" lon="-1.66663">
        <ele>75</ele>
        <time>2026-03-09T07:14:31.000Z</time>
      </trkpt>
      <trkpt lat="43.34569" lon="-1.66676">
        <ele>76</ele>
        <time>2026-03-09T07:14:34.000Z</time>
      </trkpt>
      <trkpt lat="43.34661" lon="-1.66775">
        <ele>74</ele>
        <time>2026-03-09T07:14:55.000Z</time>
      </trkpt>
      <trkpt lat="43.34676" lon="-1.66789">
        <ele>73</ele>
        <time>2026-03-09T07:14:58.000Z</time>
      </trkpt>
      <trkpt lat="43.34741" lon="-1.66805">
        <ele>72</ele>
        <time>2026-03-09T07:15:10.000Z</time>
      </trkpt>
      <trkpt lat="43.34795" lon="-1.6681">
        <ele>73</ele>
        <time>2026-03-09T07:15:20.000Z</time>
      </trkpt>
      <trkpt lat="43.3482" lon="-1.66817">
        <ele>74</ele>
        <time>2026-03-09T07:15:24.000Z</time>
      </trkpt>
      <trkpt lat="43.34917" lon="-1.66871">
        <ele>83</ele>
        <time>2026-03-09T07:15:43.000Z</time>
      </trkpt>
      <trkpt lat="43.34942" lon="-1.66882">
        <ele>87</ele>
        <time>2026-03-09T07:15:48.000Z</time>
      </trkpt>
      <trkpt lat="43.34966" lon="-1.66879">
        <ele>90</ele>
        <time>2026-03-09T07:15:52.000Z</time>
      </trkpt>
      <trkpt lat="43.34972" lon="-1.66874">
        <ele>90</ele>
        <time>2026-03-09T07:15:53.000Z</time>
      </trkpt>
      <trkpt lat="43.34974" lon="-1.66864">
        <ele>90</ele>
        <time>2026-03-09T07:15:54.000Z</time>
      </trkpt>
      <trkpt lat="43.34977" lon="-1.66824">
        <ele>86</ele>
        <time>2026-03-09T07:16:00.000Z</time>
      </trkpt>
      <trkpt lat="43.34988" lon="-1.66806">
        <ele>85</ele>
        <time>2026-03-09T07:16:03.000Z</time>
      </trkpt>
      <trkpt lat="43.35" lon="-1.668">
        <ele>86</ele>
        <time>2026-03-09T07:16:05.000Z</time>
      </trkpt>
      <trkpt lat="43.35013" lon="-1.668">
        <ele>86</ele>
        <time>2026-03-09T07:16:07.000Z</time>
      </trkpt>
      <trkpt lat="43.35023" lon="-1.66806">
        <ele>87</ele>
        <time>2026-03-09T07:16:09.000Z</time>
      </trkpt>
      <trkpt lat="43.35047" lon="-1.66831">
        <ele>90</ele>
        <time>2026-03-09T07:16:15.000Z</time>
      </trkpt>
      <trkpt lat="43.35073" lon="-1.66853">
        <ele>92</ele>
        <time>2026-03-09T07:16:20.000Z</time>
      </trkpt>
      <trkpt lat="43.35089" lon="-1.66859">
        <ele>92</ele>
        <time>2026-03-09T07:16:23.000Z</time>
      </trkpt>
      <trkpt lat="43.35108" lon="-1.66858">
        <ele>93</ele>
        <time>2026-03-09T07:16:26.000Z</time>
      </trkpt>
      <trkpt lat="43.35124" lon="-1.66846">
        <ele>93</ele>
        <time>2026-03-09T07:16:30.000Z</time>
      </trkpt>
      <trkpt lat="43.3518" lon="-1.66752">
        <ele>92</ele>
        <time>2026-03-09T07:16:45.000Z</time>
      </trkpt>
      <trkpt lat="43.35199" lon="-1.66734">
        <ele>91</ele>
        <time>2026-03-09T07:16:49.000Z</time>
      </trkpt>
      <trkpt lat="43.35212" lon="-1.66731">
        <ele>91</ele>
        <time>2026-03-09T07:16:52.000Z</time>
      </trkpt>
      <trkpt lat="43.35246" lon="-1.66735">
        <ele>93</ele>
        <time>2026-03-09T07:16:58.000Z</time>
      </trkpt>
      <trkpt lat="43.35265" lon="-1.66731">
        <ele>92</ele>
        <time>2026-03-09T07:17:01.000Z</time>
      </trkpt>
      <trkpt lat="43.35289" lon="-1.66718">
        <ele>91</ele>
        <time>2026-03-09T07:17:06.000Z</time>
      </trkpt>
      <trkpt lat="43.35301" lon="-1.66706">
        <ele>91</ele>
        <time>2026-03-09T07:17:09.000Z</time>
      </trkpt>
      <trkpt lat="43.35386" lon="-1.66666">
        <ele>97</ele>
        <time>2026-03-09T07:17:24.000Z</time>
      </trkpt>
      <trkpt lat="43.35428" lon="-1.6664">
        <ele>96</ele>
        <time>2026-03-09T07:17:33.000Z</time>
      </trkpt>
      <trkpt lat="43.35456" lon="-1.66613">
        <ele>94</ele>
        <time>2026-03-09T07:17:39.000Z</time>
      </trkpt>
      <trkpt lat="43.35478" lon="-1.66603">
        <ele>94</ele>
        <time>2026-03-09T07:17:43.000Z</time>
      </trkpt>
      <trkpt lat="43.3556" lon="-1.66589">
        <ele>90</ele>
        <time>2026-03-09T07:17:58.000Z</time>
      </trkpt>
      <trkpt lat="43.35651" lon="-1.66577">
        <ele>84</ele>
        <time>2026-03-09T07:18:14.000Z</time>
      </trkpt>
      <trkpt lat="43.35663" lon="-1.66569">
        <ele>83</ele>
        <time>2026-03-09T07:18:16.000Z</time>
      </trkpt>
      <trkpt lat="43.35718" lon="-1.66497">
        <ele>77</ele>
        <time>2026-03-09T07:18:30.000Z</time>
      </trkpt>
      <trkpt lat="43.35734" lon="-1.66481">
        <ele>76</ele>
        <time>2026-03-09T07:18:33.000Z</time>
      </trkpt>
      <trkpt lat="43.35755" lon="-1.66469">
        <ele>76</ele>
        <time>2026-03-09T07:18:37.000Z</time>
      </trkpt>
      <trkpt lat="43.35819" lon="-1.66447">
        <ele>75</ele>
        <time>2026-03-09T07:18:49.000Z</time>
      </trkpt>
      <trkpt lat="43.35843" lon="-1.66442">
        <ele>76</ele>
        <time>2026-03-09T07:18:53.000Z</time>
      </trkpt>
      <trkpt lat="43.35868" lon="-1.66434">
        <ele>77</ele>
        <time>2026-03-09T07:18:58.000Z</time>
      </trkpt>
      <trkpt lat="43.35879" lon="-1.66427">
        <ele>78</ele>
        <time>2026-03-09T07:19:00.000Z</time>
      </trkpt>
      <trkpt lat="43.35887" lon="-1.66408">
        <ele>77</ele>
        <time>2026-03-09T07:19:03.000Z</time>
      </trkpt>
      <trkpt lat="43.35891" lon="-1.6638">
        <ele>76</ele>
        <time>2026-03-09T07:19:07.000Z</time>
      </trkpt>
      <trkpt lat="43.35896" lon="-1.66356">
        <ele>75</ele>
        <time>2026-03-09T07:19:10.000Z</time>
      </trkpt>
      <trkpt lat="43.35904" lon="-1.66343">
        <ele>75</ele>
        <time>2026-03-09T07:19:12.000Z</time>
      </trkpt>
      <trkpt lat="43.35921" lon="-1.66334">
        <ele>76</ele>
        <time>2026-03-09T07:19:15.000Z</time>
      </trkpt>
      <trkpt lat="43.35958" lon="-1.66324">
        <ele>76</ele>
        <time>2026-03-09T07:19:22.000Z</time>
      </trkpt>
      <trkpt lat="43.36088" lon="-1.66134">
        <ele>83</ele>
        <time>2026-03-09T07:19:56.000Z</time>
      </trkpt>
      <trkpt lat="43.36116" lon="-1.66099">
        <ele>84</ele>
        <time>2026-03-09T07:20:02.000Z</time>
      </trkpt>
      <trkpt lat="43.36176" lon="-1.66069">
        <ele>86</ele>
        <time>2026-03-09T07:20:14.000Z</time>
      </trkpt>
      <trkpt lat="43.36203" lon="-1.66064">
        <ele>84</ele>
        <time>2026-03-09T07:20:19.000Z</time>
      </trkpt>
      <trkpt lat="43.36233" lon="-1.66076">
        <ele>81</ele>
        <time>2026-03-09T07:20:24.000Z</time>
      </trkpt>
      <trkpt lat="43.36256" lon="-1.66092">
        <ele>78</ele>
        <time>2026-03-09T07:20:29.000Z</time>
      </trkpt>
      <trkpt lat="43.3627" lon="-1.66093">
        <ele>77</ele>
        <time>2026-03-09T07:20:31.000Z</time>
      </trkpt>
      <trkpt lat="43.36327" lon="-1.66082">
        <ele>76</ele>
        <time>2026-03-09T07:20:42.000Z</time>
      </trkpt>
      <trkpt lat="43.3637" lon="-1.66054">
        <ele>75</ele>
        <time>2026-03-09T07:20:50.000Z</time>
      </trkpt>
      <trkpt lat="43.36417" lon="-1.65987">
        <ele>74</ele>
        <time>2026-03-09T07:21:02.000Z</time>
      </trkpt>
      <trkpt lat="43.36522" lon="-1.65792">
        <ele>68</ele>
        <time>2026-03-09T07:21:33.000Z</time>
      </trkpt>
      <trkpt lat="43.36534" lon="-1.65763">
        <ele>68</ele>
        <time>2026-03-09T07:21:38.000Z</time>
      </trkpt>
      <trkpt lat="43.36557" lon="-1.65677">
        <ele>73</ele>
        <time>2026-03-09T07:21:50.000Z</time>
      </trkpt>
      <trkpt lat="43.36582" lon="-1.65648">
        <ele>74</ele>
        <time>2026-03-09T07:21:55.000Z</time>
      </trkpt>
      <trkpt lat="43.36615" lon="-1.65631">
        <ele>72</ele>
        <time>2026-03-09T07:22:02.000Z</time>
      </trkpt>
      <trkpt lat="43.3665" lon="-1.65627">
        <ele>70</ele>
        <time>2026-03-09T07:22:08.000Z</time>
      </trkpt>
      <trkpt lat="43.36701" lon="-1.65636">
        <ele>67</ele>
        <time>2026-03-09T07:22:17.000Z</time>
      </trkpt>
      <trkpt lat="43.36732" lon="-1.65654">
        <ele>66</ele>
        <time>2026-03-09T07:22:23.000Z</time>
      </trkpt>
      <trkpt lat="43.3678" lon="-1.65687">
        <ele>64</ele>
        <time>2026-03-09T07:22:33.000Z</time>
      </trkpt>
      <trkpt lat="43.36888" lon="-1.65739">
        <ele>61</ele>
        <time>2026-03-09T07:22:53.000Z</time>
      </trkpt>
      <trkpt lat="43.37001" lon="-1.65783">
        <ele>56</ele>
        <time>2026-03-09T07:23:14.000Z</time>
      </trkpt>
      <trkpt lat="43.37077" lon="-1.65825">
        <ele>60</ele>
        <time>2026-03-09T07:23:28.000Z</time>
      </trkpt>
      <trkpt lat="43.3709" lon="-1.65837">
        <ele>59</ele>
        <time>2026-03-09T07:23:31.000Z</time>
      </trkpt>
      <trkpt lat="43.37097" lon="-1.6585">
        <ele>57</ele>
        <time>2026-03-09T07:23:33.000Z</time>
      </trkpt>
      <trkpt lat="43.37111" lon="-1.65892">
        <ele>51</ele>
        <time>2026-03-09T07:23:39.000Z</time>
      </trkpt>
      <trkpt lat="43.37141" lon="-1.65899">
        <ele>52</ele>
        <time>2026-03-09T07:23:45.000Z</time>
      </trkpt>
      <trkpt lat="43.37244" lon="-1.65905">
        <ele>44</ele>
        <time>2026-03-09T07:24:03.000Z</time>
      </trkpt>
      <trkpt lat="43.37323" lon="-1.65911">
        <ele>39</ele>
        <time>2026-03-09T07:24:17.000Z</time>
      </trkpt>
      <trkpt lat="43.37341" lon="-1.65909">
        <ele>38</ele>
        <time>2026-03-09T07:24:20.000Z</time>
      </trkpt>
      <trkpt lat="43.37404" lon="-1.65883">
        <ele>37</ele>
        <time>2026-03-09T07:24:32.000Z</time>
      </trkpt>
      <trkpt lat="43.37425" lon="-1.65876">
        <ele>37</ele>
        <time>2026-03-09T07:24:36.000Z</time>
      </trkpt>
      <trkpt lat="43.37455" lon="-1.6587">
        <ele>39</ele>
        <time>2026-03-09T07:24:41.000Z</time>
      </trkpt>
      <trkpt lat="43.37477" lon="-1.65875">
        <ele>40</ele>
        <time>2026-03-09T07:24:45.000Z</time>
      </trkpt>
      <trkpt lat="43.37502" lon="-1.65894">
        <ele>41</ele>
        <time>2026-03-09T07:24:50.000Z</time>
      </trkpt>
      <trkpt lat="43.37532" lon="-1.65936">
        <ele>41</ele>
        <time>2026-03-09T07:24:58.000Z</time>
      </trkpt>
      <trkpt lat="43.37577" lon="-1.66017">
        <ele>35</ele>
        <time>2026-03-09T07:25:11.000Z</time>
      </trkpt>
      <trkpt lat="43.37593" lon="-1.66039">
        <ele>32</ele>
        <time>2026-03-09T07:25:15.000Z</time>
      </trkpt>
      <trkpt lat="43.37625" lon="-1.66074">
        <ele>27</ele>
        <time>2026-03-09T07:25:22.000Z</time>
      </trkpt>
      <trkpt lat="43.37647" lon="-1.66082">
        <ele>26</ele>
        <time>2026-03-09T07:25:27.000Z</time>
      </trkpt>
      <trkpt lat="43.37672" lon="-1.66073">
        <ele>25</ele>
        <time>2026-03-09T07:25:31.000Z</time>
      </trkpt>
      <trkpt lat="43.377" lon="-1.66046">
        <ele>24</ele>
        <time>2026-03-09T07:25:37.000Z</time>
      </trkpt>
      <trkpt lat="43.37722" lon="-1.66011">
        <ele>24</ele>
        <time>2026-03-09T07:25:43.000Z</time>
      </trkpt>
      <trkpt lat="43.37733" lon="-1.65965">
        <ele>24</ele>
        <time>2026-03-09T07:25:49.000Z</time>
      </trkpt>
      <trkpt lat="43.37739" lon="-1.65918">
        <ele>24</ele>
        <time>2026-03-09T07:25:56.000Z</time>
      </trkpt>
      <trkpt lat="43.37751" lon="-1.65885">
        <ele>22</ele>
        <time>2026-03-09T07:26:00.000Z</time>
      </trkpt>
      <trkpt lat="43.37759" lon="-1.65883">
        <ele>22</ele>
        <time>2026-03-09T07:26:02.000Z</time>
      </trkpt>
      <trkpt lat="43.37772" lon="-1.6589">
        <ele>21</ele>
        <time>2026-03-09T07:26:04.000Z</time>
      </trkpt>
      <trkpt lat="43.37836" lon="-1.6594">
        <ele>15</ele>
        <time>2026-03-09T07:26:17.000Z</time>
      </trkpt>
      <trkpt lat="43.37848" lon="-1.65957">
        <ele>14</ele>
        <time>2026-03-09T07:26:21.000Z</time>
      </trkpt>
      <trkpt lat="43.37864" lon="-1.6599">
        <ele>11</ele>
        <time>2026-03-09T07:26:26.000Z</time>
      </trkpt>
      <trkpt lat="43.37886" lon="-1.66023">
        <ele>10</ele>
        <time>2026-03-09T07:26:31.000Z</time>
      </trkpt>
      <trkpt lat="43.37923" lon="-1.66042">
        <ele>8</ele>
        <time>2026-03-09T07:26:38.000Z</time>
      </trkpt>
      <trkpt lat="43.37961" lon="-1.66065">
        <ele>7</ele>
        <time>2026-03-09T07:26:46.000Z</time>
      </trkpt>
      <trkpt lat="43.38" lon="-1.66109">
        <ele>5</ele>
        <time>2026-03-09T07:26:55.000Z</time>
      </trkpt>
      <trkpt lat="43.38033" lon="-1.6614">
        <ele>6</ele>
        <time>2026-03-09T07:27:02.000Z</time>
      </trkpt>
      <trkpt lat="43.38015" lon="-1.6616">
        <ele>5</ele>
        <time>2026-03-09T07:27:06.000Z</time>
      </trkpt>
      <trkpt lat="43.38001" lon="-1.66189">
        <ele>5</ele>
        <time>2026-03-09T07:27:11.000Z</time>
      </trkpt>
      <trkpt lat="43.38012" lon="-1.66221">
        <ele>5</ele>
        <time>2026-03-09T07:27:15.000Z</time>
      </trkpt>
      <trkpt lat="43.38026" lon="-1.66243">
        <ele>4</ele>
        <time>2026-03-09T07:27:19.000Z</time>
      </trkpt>
      <trkpt lat="43.38043" lon="-1.66257">
        <ele>5</ele>
        <time>2026-03-09T07:27:22.000Z</time>
      </trkpt>
      <trkpt lat="43.38072" lon="-1.6627">
        <ele>5</ele>
        <time>2026-03-09T07:27:28.000Z</time>
      </trkpt>
      <trkpt lat="43.38082" lon="-1.66277">
        <ele>5</ele>
        <time>2026-03-09T07:27:30.000Z</time>
      </trkpt>
      <trkpt lat="43.38091" lon="-1.66291">
        <ele>5</ele>
        <time>2026-03-09T07:27:32.000Z</time>
      </trkpt>
      <trkpt lat="43.38098" lon="-1.66316">
        <ele>5</ele>
        <time>2026-03-09T07:27:36.000Z</time>
      </trkpt>
      <trkpt lat="43.38098" lon="-1.66322">
        <ele>5</ele>
        <time>2026-03-09T07:27:37.000Z</time>
      </trkpt>
      <trkpt lat="43.38098" lon="-1.66322">
        <ele>5</ele>
        <time>2026-03-09T07:27:37.000Z</time>
      </trkpt>
      <trkpt lat="43.38102" lon="-1.66362">
        <ele>6</ele>
        <time>2026-03-09T07:27:42.000Z</time>
      </trkpt>
      <trkpt lat="43.38108" lon="-1.66401">
        <ele>6</ele>
        <time>2026-03-09T07:27:47.000Z</time>
      </trkpt>
      <trkpt lat="43.38118" lon="-1.66429">
        <ele>5</ele>
        <time>2026-03-09T07:27:51.000Z</time>
      </trkpt>
      <trkpt lat="43.38134" lon="-1.66455">
        <ele>4</ele>
        <time>2026-03-09T07:27:55.000Z</time>
      </trkpt>
      <trkpt lat="43.38178" lon="-1.665">
        <ele>2</ele>
        <time>2026-03-09T07:28:05.000Z</time>
      </trkpt>
      <trkpt lat="43.38224" lon="-1.66552">
        <ele>3</ele>
        <time>2026-03-09T07:28:16.000Z</time>
      </trkpt>
      <trkpt lat="43.38229" lon="-1.66561">
        <ele>3</ele>
        <time>2026-03-09T07:28:17.000Z</time>
      </trkpt>
      <trkpt lat="43.38246" lon="-1.66607">
        <ele>4</ele>
        <time>2026-03-09T07:28:24.000Z</time>
      </trkpt>
      <trkpt lat="43.3827" lon="-1.66669">
        <ele>5</ele>
        <time>2026-03-09T07:28:33.000Z</time>
      </trkpt>
      <trkpt lat="43.38305" lon="-1.66747">
        <ele>7</ele>
        <time>2026-03-09T07:28:45.000Z</time>
      </trkpt>
      <trkpt lat="43.38314" lon="-1.6676">
        <ele>7</ele>
        <time>2026-03-09T07:28:47.000Z</time>
      </trkpt>
      <trkpt lat="43.38345" lon="-1.66759">
        <ele>6</ele>
        <time>2026-03-09T07:28:53.000Z</time>
      </trkpt>
      <trkpt lat="43.38366" lon="-1.66755">
        <ele>6</ele>
        <time>2026-03-09T07:28:56.000Z</time>
      </trkpt>
      <trkpt lat="43.38378" lon="-1.66744">
        <ele>5</ele>
        <time>2026-03-09T07:28:59.000Z</time>
      </trkpt>
      <trkpt lat="43.3845" lon="-1.66646">
        <ele>4</ele>
        <time>2026-03-09T07:29:17.000Z</time>
      </trkpt>
      <trkpt lat="43.38449" lon="-1.66644">
        <ele>4</ele>
        <time>2026-03-09T07:29:17.000Z</time>
      </trkpt>
      <trkpt lat="43.38447" lon="-1.66632">
        <ele>4</ele>
        <time>2026-03-09T07:29:19.000Z</time>
      </trkpt>
      <trkpt lat="43.38415" lon="-1.66591">
        <ele>4</ele>
        <time>2026-03-09T07:29:27.000Z</time>
      </trkpt>
      <trkpt lat="43.3841" lon="-1.66566">
        <ele>4</ele>
        <time>2026-03-09T07:29:30.000Z</time>
      </trkpt>
      <trkpt lat="43.38416" lon="-1.66546">
        <ele>4</ele>
        <time>2026-03-09T07:29:33.000Z</time>
      </trkpt>
      <trkpt lat="43.3845" lon="-1.66481">
        <ele>6</ele>
        <time>2026-03-09T07:29:43.000Z</time>
      </trkpt>
      <trkpt lat="43.38487" lon="-1.6642">
        <ele>5</ele>
        <time>2026-03-09T07:29:53.000Z</time>
      </trkpt>
      <trkpt lat="43.38556" lon="-1.66256">
        <ele>3</ele>
        <time>2026-03-09T07:30:18.000Z</time>
      </trkpt>
      <trkpt lat="43.38616" lon="-1.66309">
        <ele>1</ele>
        <time>2026-03-09T07:30:31.000Z</time>
      </trkpt>
      <trkpt lat="43.38636" lon="-1.66319">
        <ele>3.9</ele>
        <time>2026-03-09T07:30:34.000Z</time>
      </trkpt>
      <trkpt lat="43.38667" lon="-1.66322">
        <ele>1</ele>
        <time>2026-03-09T07:30:40.000Z</time>
      </trkpt>
      <trkpt lat="43.38667" lon="-1.66317">
        <ele>1</ele>
        <time>2026-03-09T07:30:41.000Z</time>
      </trkpt>
      <trkpt lat="43.38669" lon="-1.66311">
        <ele>1</ele>
        <time>2026-03-09T07:30:41.000Z</time>
      </trkpt>
      <trkpt lat="43.38674" lon="-1.66306">
        <ele>2</ele>
        <time>2026-03-09T07:30:43.000Z</time>
      </trkpt>
      <trkpt lat="43.38678" lon="-1.66305">
        <ele>2</ele>
        <time>2026-03-09T07:30:43.000Z</time>
      </trkpt>
      <trkpt lat="43.38683" lon="-1.66307">
        <ele>2</ele>
        <time>2026-03-09T07:30:44.000Z</time>
      </trkpt>
      <trkpt lat="43.38686" lon="-1.66311">
        <ele>2</ele>
        <time>2026-03-09T07:30:45.000Z</time>
      </trkpt>
      <trkpt lat="43.38688" lon="-1.66317">
        <ele>2</ele>
        <time>2026-03-09T07:30:46.000Z</time>
      </trkpt>
      <trkpt lat="43.38688" lon="-1.66326">
        <ele>2</ele>
        <time>2026-03-09T07:30:47.000Z</time>
      </trkpt>
      <trkpt lat="43.38685" lon="-1.66331">
        <ele>1</ele>
        <time>2026-03-09T07:30:48.000Z</time>
      </trkpt>
      <trkpt lat="43.38678" lon="-1.66335">
        <ele>1</ele>
        <time>2026-03-09T07:30:49.000Z</time>
      </trkpt>
      <trkpt lat="43.38674" lon="-1.66334">
        <ele>4</ele>
        <time>2026-03-09T07:30:50.000Z</time>
      </trkpt>
      <trkpt lat="43.38667" lon="-1.66327">
        <ele>4</ele>
        <time>2026-03-09T07:30:51.000Z</time>
      </trkpt>
    </trkseg>
  </trk>
</gpx>